<?xml version="1.0" encoding="UTF-8" standalone="no" ?>
<gpx xmlns="http://www.topografix.com/GPX/1/1" xmlns:xsi="http://www.w3.org/2001/XMLSchema-instance" xsi:schemaLocation="http://www.topografix.com/GPX/1/1 http://www.topografix.com/GPX/1/1/gpx.xsd" version="1.1" creator="VisuGPX - https://www.visugpx.com">
  <metadata>
    <name>Rando Cap Taillat</name>
  </metadata>
  <trk>
    <name><![CDATA[Rando Cap Taillat_1]]></name>
    <trkseg>
      <trkpt lat="43.18734" lon="6.64194">
        <ele>11.2</ele>
        <time>2021-07-28T07:20:59Z</time>
      </trkpt>
      <trkpt lat="43.1873" lon="6.64197">
        <ele>10.2</ele>
        <time>2021-07-28T07:21:05Z</time>
      </trkpt>
      <trkpt lat="43.18728" lon="6.642">
        <ele>9.8</ele>
        <time>2021-07-28T07:21:07Z</time>
      </trkpt>
      <trkpt lat="43.18723" lon="6.64209">
        <ele>9</ele>
        <time>2021-07-28T07:21:16Z</time>
      </trkpt>
      <trkpt lat="43.18722" lon="6.6421">
        <ele>8.8</ele>
        <time>2021-07-28T07:21:18Z</time>
      </trkpt>
      <trkpt lat="43.18722" lon="6.64219">
        <ele>8.4</ele>
        <time>2021-07-28T07:21:28Z</time>
      </trkpt>
      <trkpt lat="43.18723" lon="6.6422">
        <ele>8.8</ele>
        <time>2021-07-28T07:21:39Z</time>
      </trkpt>
      <trkpt lat="43.18723" lon="6.6422">
        <ele>8.6</ele>
        <time>2021-07-28T07:21:51Z</time>
      </trkpt>
      <trkpt lat="43.18723" lon="6.64221">
        <ele>9.2</ele>
        <time>2021-07-28T07:22:09Z</time>
      </trkpt>
      <trkpt lat="43.18723" lon="6.6422">
        <ele>9.2</ele>
        <time>2021-07-28T07:22:30Z</time>
      </trkpt>
      <trkpt lat="43.18713" lon="6.64212">
        <ele>8.4</ele>
        <time>2021-07-28T07:22:40Z</time>
      </trkpt>
      <trkpt lat="43.18705" lon="6.64204">
        <ele>8.4</ele>
        <time>2021-07-28T07:22:47Z</time>
      </trkpt>
      <trkpt lat="43.18703" lon="6.64203">
        <ele>8</ele>
        <time>2021-07-28T07:22:49Z</time>
      </trkpt>
      <trkpt lat="43.18701" lon="6.64203">
        <ele>8</ele>
        <time>2021-07-28T07:22:53Z</time>
      </trkpt>
      <trkpt lat="43.18701" lon="6.64203">
        <ele>8</ele>
        <time>2021-07-28T07:22:54Z</time>
      </trkpt>
      <trkpt lat="43.18701" lon="6.64203">
        <ele>8.2</ele>
        <time>2021-07-28T07:22:59Z</time>
      </trkpt>
      <trkpt lat="43.18702" lon="6.64202">
        <ele>8.2</ele>
        <time>2021-07-28T07:23:09Z</time>
      </trkpt>
      <trkpt lat="43.18704" lon="6.642">
        <ele>7.6</ele>
        <time>2021-07-28T07:23:20Z</time>
      </trkpt>
      <trkpt lat="43.18704" lon="6.64199">
        <ele>8.6</ele>
        <time>2021-07-28T07:23:34Z</time>
      </trkpt>
      <trkpt lat="43.18706" lon="6.64202">
        <ele>8</ele>
        <time>2021-07-28T07:23:42Z</time>
      </trkpt>
      <trkpt lat="43.1871" lon="6.64212">
        <ele>8.4</ele>
        <time>2021-07-28T07:23:52Z</time>
      </trkpt>
      <trkpt lat="43.1871" lon="6.64212">
        <ele>8.4</ele>
        <time>2021-07-28T07:23:53Z</time>
      </trkpt>
      <trkpt lat="43.18712" lon="6.64214">
        <ele>8</ele>
        <time>2021-07-28T07:24:04Z</time>
      </trkpt>
      <trkpt lat="43.18716" lon="6.64215">
        <ele>8.4</ele>
        <time>2021-07-28T07:24:12Z</time>
      </trkpt>
      <trkpt lat="43.18717" lon="6.64215">
        <ele>8.4</ele>
        <time>2021-07-28T07:24:15Z</time>
      </trkpt>
      <trkpt lat="43.18718" lon="6.64214">
        <ele>8.4</ele>
        <time>2021-07-28T07:24:29Z</time>
      </trkpt>
      <trkpt lat="43.18724" lon="6.64215">
        <ele>8.4</ele>
        <time>2021-07-28T07:24:37Z</time>
      </trkpt>
      <trkpt lat="43.18725" lon="6.64219">
        <ele>8.4</ele>
        <time>2021-07-28T07:24:48Z</time>
      </trkpt>
      <trkpt lat="43.18722" lon="6.6422">
        <ele>8.4</ele>
        <time>2021-07-28T07:25:05Z</time>
      </trkpt>
      <trkpt lat="43.18716" lon="6.64215">
        <ele>8.4</ele>
        <time>2021-07-28T07:25:15Z</time>
      </trkpt>
      <trkpt lat="43.18715" lon="6.64214">
        <ele>8.4</ele>
        <time>2021-07-28T07:25:16Z</time>
      </trkpt>
      <trkpt lat="43.18712" lon="6.64212">
        <ele>8.4</ele>
        <time>2021-07-28T07:25:20Z</time>
      </trkpt>
      <trkpt lat="43.18704" lon="6.64204">
        <ele>8.4</ele>
        <time>2021-07-28T07:25:30Z</time>
      </trkpt>
      <trkpt lat="43.18701" lon="6.64204">
        <ele>8</ele>
        <time>2021-07-28T07:25:36Z</time>
      </trkpt>
      <trkpt lat="43.18701" lon="6.64203">
        <ele>7.8</ele>
        <time>2021-07-28T07:25:40Z</time>
      </trkpt>
      <trkpt lat="43.187" lon="6.64201">
        <ele>8</ele>
        <time>2021-07-28T07:25:58Z</time>
      </trkpt>
      <trkpt lat="43.18701" lon="6.64199">
        <ele>8</ele>
        <time>2021-07-28T07:26:10Z</time>
      </trkpt>
      <trkpt lat="43.18702" lon="6.642">
        <ele>7.6</ele>
        <time>2021-07-28T07:26:23Z</time>
      </trkpt>
      <trkpt lat="43.18698" lon="6.64196">
        <ele>10.6</ele>
        <time>2021-07-28T07:26:30Z</time>
      </trkpt>
      <trkpt lat="43.18698" lon="6.64195">
        <ele>12</ele>
        <time>2021-07-28T07:26:31Z</time>
      </trkpt>
      <trkpt lat="43.18696" lon="6.64194">
        <ele>13.4</ele>
        <time>2021-07-28T07:26:33Z</time>
      </trkpt>
      <trkpt lat="43.18689" lon="6.64192">
        <ele>13.4</ele>
        <time>2021-07-28T07:26:41Z</time>
      </trkpt>
      <trkpt lat="43.18688" lon="6.64192">
        <ele>13.4</ele>
        <time>2021-07-28T07:26:42Z</time>
      </trkpt>
      <trkpt lat="43.18676" lon="6.64194">
        <ele>12.4</ele>
        <time>2021-07-28T07:26:55Z</time>
      </trkpt>
      <trkpt lat="43.18674" lon="6.64197">
        <ele>12.2</ele>
        <time>2021-07-28T07:26:58Z</time>
      </trkpt>
      <trkpt lat="43.18674" lon="6.64201">
        <ele>12.2</ele>
        <time>2021-07-28T07:27:01Z</time>
      </trkpt>
      <trkpt lat="43.18674" lon="6.64202">
        <ele>12.2</ele>
        <time>2021-07-28T07:27:02Z</time>
      </trkpt>
      <trkpt lat="43.18675" lon="6.64204">
        <ele>12.2</ele>
        <time>2021-07-28T07:27:10Z</time>
      </trkpt>
      <trkpt lat="43.18674" lon="6.642">
        <ele>12.2</ele>
        <time>2021-07-28T07:27:25Z</time>
      </trkpt>
      <trkpt lat="43.1867" lon="6.64189">
        <ele>13.2</ele>
        <time>2021-07-28T07:27:36Z</time>
      </trkpt>
      <trkpt lat="43.1867" lon="6.64189">
        <ele>13.4</ele>
        <time>2021-07-28T07:27:37Z</time>
      </trkpt>
      <trkpt lat="43.18664" lon="6.6419">
        <ele>14.2</ele>
        <time>2021-07-28T07:27:43Z</time>
      </trkpt>
      <trkpt lat="43.18663" lon="6.6419">
        <ele>14.4</ele>
        <time>2021-07-28T07:27:44Z</time>
      </trkpt>
      <trkpt lat="43.1866" lon="6.6419">
        <ele>14.8</ele>
        <time>2021-07-28T07:27:46Z</time>
      </trkpt>
      <trkpt lat="43.18649" lon="6.64188">
        <ele>15.6</ele>
        <time>2021-07-28T07:27:56Z</time>
      </trkpt>
      <trkpt lat="43.18646" lon="6.64187">
        <ele>15.6</ele>
        <time>2021-07-28T07:27:59Z</time>
      </trkpt>
      <trkpt lat="43.18645" lon="6.64186">
        <ele>15.8</ele>
        <time>2021-07-28T07:28:01Z</time>
      </trkpt>
      <trkpt lat="43.18637" lon="6.64183">
        <ele>16.6</ele>
        <time>2021-07-28T07:28:09Z</time>
      </trkpt>
      <trkpt lat="43.18635" lon="6.64183">
        <ele>16.8</ele>
        <time>2021-07-28T07:28:11Z</time>
      </trkpt>
      <trkpt lat="43.18624" lon="6.64168">
        <ele>17.2</ele>
        <time>2021-07-28T07:28:25Z</time>
      </trkpt>
      <trkpt lat="43.18619" lon="6.64162">
        <ele>17.6</ele>
        <time>2021-07-28T07:28:33Z</time>
      </trkpt>
      <trkpt lat="43.18617" lon="6.64161">
        <ele>17.8</ele>
        <time>2021-07-28T07:28:35Z</time>
      </trkpt>
      <trkpt lat="43.18616" lon="6.6416">
        <ele>18</ele>
        <time>2021-07-28T07:28:37Z</time>
      </trkpt>
      <trkpt lat="43.18613" lon="6.64158">
        <ele>18</ele>
        <time>2021-07-28T07:28:42Z</time>
      </trkpt>
      <trkpt lat="43.18611" lon="6.64157">
        <ele>17.6</ele>
        <time>2021-07-28T07:28:44Z</time>
      </trkpt>
      <trkpt lat="43.18609" lon="6.64153">
        <ele>17.4</ele>
        <time>2021-07-28T07:28:47Z</time>
      </trkpt>
      <trkpt lat="43.18608" lon="6.64151">
        <ele>17.6</ele>
        <time>2021-07-28T07:28:51Z</time>
      </trkpt>
      <trkpt lat="43.18608" lon="6.64152">
        <ele>18</ele>
        <time>2021-07-28T07:28:56Z</time>
      </trkpt>
      <trkpt lat="43.18608" lon="6.64151">
        <ele>18.2</ele>
        <time>2021-07-28T07:29:07Z</time>
      </trkpt>
      <trkpt lat="43.18603" lon="6.64148">
        <ele>18</ele>
        <time>2021-07-28T07:29:14Z</time>
      </trkpt>
      <trkpt lat="43.18593" lon="6.64145">
        <ele>17.8</ele>
        <time>2021-07-28T07:29:24Z</time>
      </trkpt>
      <trkpt lat="43.18592" lon="6.64143">
        <ele>18.2</ele>
        <time>2021-07-28T07:29:28Z</time>
      </trkpt>
      <trkpt lat="43.1859" lon="6.6414">
        <ele>18.6</ele>
        <time>2021-07-28T07:29:32Z</time>
      </trkpt>
      <trkpt lat="43.18586" lon="6.64137">
        <ele>18.8</ele>
        <time>2021-07-28T07:29:36Z</time>
      </trkpt>
      <trkpt lat="43.18579" lon="6.64138">
        <ele>19.2</ele>
        <time>2021-07-28T07:29:42Z</time>
      </trkpt>
      <trkpt lat="43.18574" lon="6.64142">
        <ele>19.4</ele>
        <time>2021-07-28T07:29:49Z</time>
      </trkpt>
      <trkpt lat="43.18573" lon="6.64143">
        <ele>19.6</ele>
        <time>2021-07-28T07:29:53Z</time>
      </trkpt>
      <trkpt lat="43.1857" lon="6.64145">
        <ele>19.8</ele>
        <time>2021-07-28T07:30:02Z</time>
      </trkpt>
      <trkpt lat="43.18566" lon="6.64147">
        <ele>20.4</ele>
        <time>2021-07-28T07:30:07Z</time>
      </trkpt>
      <trkpt lat="43.18562" lon="6.64152">
        <ele>20.6</ele>
        <time>2021-07-28T07:30:11Z</time>
      </trkpt>
      <trkpt lat="43.1856" lon="6.64161">
        <ele>20.6</ele>
        <time>2021-07-28T07:30:17Z</time>
      </trkpt>
      <trkpt lat="43.18552" lon="6.64173">
        <ele>20.8</ele>
        <time>2021-07-28T07:30:29Z</time>
      </trkpt>
      <trkpt lat="43.18552" lon="6.64173">
        <ele>20.8</ele>
        <time>2021-07-28T07:30:30Z</time>
      </trkpt>
      <trkpt lat="43.18552" lon="6.64172">
        <ele>20.8</ele>
        <time>2021-07-28T07:30:32Z</time>
      </trkpt>
      <trkpt lat="43.18551" lon="6.64173">
        <ele>21</ele>
        <time>2021-07-28T07:30:40Z</time>
      </trkpt>
      <trkpt lat="43.18548" lon="6.64175">
        <ele>21</ele>
        <time>2021-07-28T07:30:53Z</time>
      </trkpt>
      <trkpt lat="43.1854" lon="6.64181">
        <ele>21.6</ele>
        <time>2021-07-28T07:31:03Z</time>
      </trkpt>
      <trkpt lat="43.18536" lon="6.64188">
        <ele>21.8</ele>
        <time>2021-07-28T07:31:12Z</time>
      </trkpt>
      <trkpt lat="43.18536" lon="6.64188">
        <ele>21.8</ele>
        <time>2021-07-28T07:31:14Z</time>
      </trkpt>
      <trkpt lat="43.18535" lon="6.64188">
        <ele>22</ele>
        <time>2021-07-28T07:31:26Z</time>
      </trkpt>
      <trkpt lat="43.18535" lon="6.64188">
        <ele>22.4</ele>
        <time>2021-07-28T07:31:28Z</time>
      </trkpt>
      <trkpt lat="43.18535" lon="6.64189">
        <ele>22.6</ele>
        <time>2021-07-28T07:31:37Z</time>
      </trkpt>
      <trkpt lat="43.1853" lon="6.64197">
        <ele>21.4</ele>
        <time>2021-07-28T07:31:47Z</time>
      </trkpt>
      <trkpt lat="43.18531" lon="6.64199">
        <ele>20.8</ele>
        <time>2021-07-28T07:31:49Z</time>
      </trkpt>
      <trkpt lat="43.1853" lon="6.64204">
        <ele>19.6</ele>
        <time>2021-07-28T07:31:53Z</time>
      </trkpt>
      <trkpt lat="43.18527" lon="6.64207">
        <ele>18.4</ele>
        <time>2021-07-28T07:31:56Z</time>
      </trkpt>
      <trkpt lat="43.18525" lon="6.6421">
        <ele>17.6</ele>
        <time>2021-07-28T07:31:59Z</time>
      </trkpt>
      <trkpt lat="43.18525" lon="6.64211">
        <ele>17.4</ele>
        <time>2021-07-28T07:32:00Z</time>
      </trkpt>
      <trkpt lat="43.18524" lon="6.64217">
        <ele>16.8</ele>
        <time>2021-07-28T07:32:05Z</time>
      </trkpt>
      <trkpt lat="43.18525" lon="6.64218">
        <ele>16.4</ele>
        <time>2021-07-28T07:32:06Z</time>
      </trkpt>
      <trkpt lat="43.18526" lon="6.64219">
        <ele>15.8</ele>
        <time>2021-07-28T07:32:08Z</time>
      </trkpt>
      <trkpt lat="43.18527" lon="6.64221">
        <ele>15.4</ele>
        <time>2021-07-28T07:32:11Z</time>
      </trkpt>
      <trkpt lat="43.18527" lon="6.64221">
        <ele>15.4</ele>
        <time>2021-07-28T07:32:12Z</time>
      </trkpt>
      <trkpt lat="43.18527" lon="6.64221">
        <ele>15.4</ele>
        <time>2021-07-28T07:32:13Z</time>
      </trkpt>
      <trkpt lat="43.18527" lon="6.64219">
        <ele>15</ele>
        <time>2021-07-28T07:32:17Z</time>
      </trkpt>
      <trkpt lat="43.18525" lon="6.64215">
        <ele>15</ele>
        <time>2021-07-28T07:32:32Z</time>
      </trkpt>
      <trkpt lat="43.18524" lon="6.64212">
        <ele>17.2</ele>
        <time>2021-07-28T07:32:35Z</time>
      </trkpt>
      <trkpt lat="43.18521" lon="6.64211">
        <ele>17.6</ele>
        <time>2021-07-28T07:32:41Z</time>
      </trkpt>
      <trkpt lat="43.18521" lon="6.6421">
        <ele>18.2</ele>
        <time>2021-07-28T07:32:44Z</time>
      </trkpt>
      <trkpt lat="43.18519" lon="6.64215">
        <ele>17.8</ele>
        <time>2021-07-28T07:32:51Z</time>
      </trkpt>
      <trkpt lat="43.18519" lon="6.64218">
        <ele>17.2</ele>
        <time>2021-07-28T07:33:01Z</time>
      </trkpt>
      <trkpt lat="43.18516" lon="6.64227">
        <ele>17.4</ele>
        <time>2021-07-28T07:33:09Z</time>
      </trkpt>
      <trkpt lat="43.18515" lon="6.64229">
        <ele>18</ele>
        <time>2021-07-28T07:33:14Z</time>
      </trkpt>
      <trkpt lat="43.18515" lon="6.64232">
        <ele>18</ele>
        <time>2021-07-28T07:33:18Z</time>
      </trkpt>
      <trkpt lat="43.18515" lon="6.64233">
        <ele>18.2</ele>
        <time>2021-07-28T07:33:30Z</time>
      </trkpt>
      <trkpt lat="43.18513" lon="6.64239">
        <ele>17.2</ele>
        <time>2021-07-28T07:33:37Z</time>
      </trkpt>
      <trkpt lat="43.18512" lon="6.6424">
        <ele>16.6</ele>
        <time>2021-07-28T07:33:39Z</time>
      </trkpt>
      <trkpt lat="43.18512" lon="6.64241">
        <ele>16.2</ele>
        <time>2021-07-28T07:33:41Z</time>
      </trkpt>
      <trkpt lat="43.1851" lon="6.64247">
        <ele>15.8</ele>
        <time>2021-07-28T07:33:47Z</time>
      </trkpt>
      <trkpt lat="43.18505" lon="6.64253">
        <ele>15.8</ele>
        <time>2021-07-28T07:33:56Z</time>
      </trkpt>
      <trkpt lat="43.18504" lon="6.64253">
        <ele>15.8</ele>
        <time>2021-07-28T07:33:57Z</time>
      </trkpt>
      <trkpt lat="43.18504" lon="6.64253">
        <ele>15.8</ele>
        <time>2021-07-28T07:33:58Z</time>
      </trkpt>
      <trkpt lat="43.18503" lon="6.64253">
        <ele>16.2</ele>
        <time>2021-07-28T07:34:07Z</time>
      </trkpt>
      <trkpt lat="43.18502" lon="6.64252">
        <ele>16.2</ele>
        <time>2021-07-28T07:34:09Z</time>
      </trkpt>
      <trkpt lat="43.18498" lon="6.64249">
        <ele>16.8</ele>
        <time>2021-07-28T07:34:14Z</time>
      </trkpt>
      <trkpt lat="43.18496" lon="6.64249">
        <ele>16.8</ele>
        <time>2021-07-28T07:34:16Z</time>
      </trkpt>
      <trkpt lat="43.18491" lon="6.6425">
        <ele>16.6</ele>
        <time>2021-07-28T07:34:21Z</time>
      </trkpt>
      <trkpt lat="43.18482" lon="6.64249">
        <ele>16.8</ele>
        <time>2021-07-28T07:34:31Z</time>
      </trkpt>
      <trkpt lat="43.18476" lon="6.64248">
        <ele>16.2</ele>
        <time>2021-07-28T07:34:37Z</time>
      </trkpt>
      <trkpt lat="43.18473" lon="6.64247">
        <ele>16.4</ele>
        <time>2021-07-28T07:34:42Z</time>
      </trkpt>
      <trkpt lat="43.18472" lon="6.64247">
        <ele>16.4</ele>
        <time>2021-07-28T07:34:46Z</time>
      </trkpt>
      <trkpt lat="43.18467" lon="6.64245">
        <ele>16.2</ele>
        <time>2021-07-28T07:34:54Z</time>
      </trkpt>
      <trkpt lat="43.18461" lon="6.64249">
        <ele>16</ele>
        <time>2021-07-28T07:35:02Z</time>
      </trkpt>
      <trkpt lat="43.18459" lon="6.64248">
        <ele>16</ele>
        <time>2021-07-28T07:35:06Z</time>
      </trkpt>
      <trkpt lat="43.18455" lon="6.64247">
        <ele>16</ele>
        <time>2021-07-28T07:35:10Z</time>
      </trkpt>
      <trkpt lat="43.18453" lon="6.64243">
        <ele>16.4</ele>
        <time>2021-07-28T07:35:16Z</time>
      </trkpt>
      <trkpt lat="43.18453" lon="6.64242">
        <ele>16.8</ele>
        <time>2021-07-28T07:35:18Z</time>
      </trkpt>
      <trkpt lat="43.18452" lon="6.64242">
        <ele>17.2</ele>
        <time>2021-07-28T07:35:20Z</time>
      </trkpt>
      <trkpt lat="43.18448" lon="6.64244">
        <ele>17.6</ele>
        <time>2021-07-28T07:35:26Z</time>
      </trkpt>
      <trkpt lat="43.18447" lon="6.64243">
        <ele>17.8</ele>
        <time>2021-07-28T07:35:28Z</time>
      </trkpt>
      <trkpt lat="43.18446" lon="6.64242">
        <ele>18.2</ele>
        <time>2021-07-28T07:35:34Z</time>
      </trkpt>
      <trkpt lat="43.18446" lon="6.64242">
        <ele>18.2</ele>
        <time>2021-07-28T07:35:35Z</time>
      </trkpt>
      <trkpt lat="43.18448" lon="6.64244">
        <ele>18</ele>
        <time>2021-07-28T07:35:43Z</time>
      </trkpt>
      <trkpt lat="43.18448" lon="6.64245">
        <ele>18</ele>
        <time>2021-07-28T07:35:57Z</time>
      </trkpt>
      <trkpt lat="43.18442" lon="6.64238">
        <ele>17.8</ele>
        <time>2021-07-28T07:36:05Z</time>
      </trkpt>
      <trkpt lat="43.18437" lon="6.64239">
        <ele>17.8</ele>
        <time>2021-07-28T07:36:12Z</time>
      </trkpt>
      <trkpt lat="43.18436" lon="6.64241">
        <ele>17.8</ele>
        <time>2021-07-28T07:36:14Z</time>
      </trkpt>
      <trkpt lat="43.18432" lon="6.64247">
        <ele>17</ele>
        <time>2021-07-28T07:36:21Z</time>
      </trkpt>
      <trkpt lat="43.18426" lon="6.6425">
        <ele>17</ele>
        <time>2021-07-28T07:36:30Z</time>
      </trkpt>
      <trkpt lat="43.18424" lon="6.64252">
        <ele>17</ele>
        <time>2021-07-28T07:36:32Z</time>
      </trkpt>
      <trkpt lat="43.18417" lon="6.64255">
        <ele>17</ele>
        <time>2021-07-28T07:36:39Z</time>
      </trkpt>
      <trkpt lat="43.18413" lon="6.6426">
        <ele>17.6</ele>
        <time>2021-07-28T07:36:46Z</time>
      </trkpt>
      <trkpt lat="43.18413" lon="6.64261">
        <ele>18.2</ele>
        <time>2021-07-28T07:36:48Z</time>
      </trkpt>
      <trkpt lat="43.18413" lon="6.64262">
        <ele>18.2</ele>
        <time>2021-07-28T07:36:49Z</time>
      </trkpt>
      <trkpt lat="43.18406" lon="6.64271">
        <ele>17.8</ele>
        <time>2021-07-28T07:37:00Z</time>
      </trkpt>
      <trkpt lat="43.18406" lon="6.64271">
        <ele>17.8</ele>
        <time>2021-07-28T07:37:02Z</time>
      </trkpt>
      <trkpt lat="43.18406" lon="6.64272">
        <ele>18</ele>
        <time>2021-07-28T07:37:08Z</time>
      </trkpt>
      <trkpt lat="43.18402" lon="6.64273">
        <ele>17.6</ele>
        <time>2021-07-28T07:37:16Z</time>
      </trkpt>
      <trkpt lat="43.18394" lon="6.64274">
        <ele>18.4</ele>
        <time>2021-07-28T07:37:25Z</time>
      </trkpt>
      <trkpt lat="43.18391" lon="6.64275">
        <ele>19.2</ele>
        <time>2021-07-28T07:37:29Z</time>
      </trkpt>
      <trkpt lat="43.18387" lon="6.64279">
        <ele>19.2</ele>
        <time>2021-07-28T07:37:35Z</time>
      </trkpt>
      <trkpt lat="43.18382" lon="6.64283">
        <ele>18.6</ele>
        <time>2021-07-28T07:37:43Z</time>
      </trkpt>
      <trkpt lat="43.18381" lon="6.64283">
        <ele>18.6</ele>
        <time>2021-07-28T07:37:45Z</time>
      </trkpt>
      <trkpt lat="43.18381" lon="6.64282">
        <ele>18.6</ele>
        <time>2021-07-28T07:38:01Z</time>
      </trkpt>
      <trkpt lat="43.18382" lon="6.64282">
        <ele>19</ele>
        <time>2021-07-28T07:38:14Z</time>
      </trkpt>
      <trkpt lat="43.18378" lon="6.64283">
        <ele>18.6</ele>
        <time>2021-07-28T07:38:23Z</time>
      </trkpt>
      <trkpt lat="43.18376" lon="6.64284">
        <ele>18.2</ele>
        <time>2021-07-28T07:38:26Z</time>
      </trkpt>
      <trkpt lat="43.18374" lon="6.64284">
        <ele>17.8</ele>
        <time>2021-07-28T07:38:34Z</time>
      </trkpt>
      <trkpt lat="43.18372" lon="6.64284">
        <ele>17.4</ele>
        <time>2021-07-28T07:38:42Z</time>
      </trkpt>
      <trkpt lat="43.18372" lon="6.64284">
        <ele>17</ele>
        <time>2021-07-28T07:38:44Z</time>
      </trkpt>
      <trkpt lat="43.18372" lon="6.64285">
        <ele>16.8</ele>
        <time>2021-07-28T07:38:54Z</time>
      </trkpt>
      <trkpt lat="43.18369" lon="6.64287">
        <ele>16.6</ele>
        <time>2021-07-28T07:39:03Z</time>
      </trkpt>
      <trkpt lat="43.18368" lon="6.64288">
        <ele>15.8</ele>
        <time>2021-07-28T07:39:09Z</time>
      </trkpt>
      <trkpt lat="43.18367" lon="6.64288">
        <ele>15.6</ele>
        <time>2021-07-28T07:39:14Z</time>
      </trkpt>
      <trkpt lat="43.18364" lon="6.64289">
        <ele>15</ele>
        <time>2021-07-28T07:39:24Z</time>
      </trkpt>
      <trkpt lat="43.1836" lon="6.64286">
        <ele>14.8</ele>
        <time>2021-07-28T07:39:28Z</time>
      </trkpt>
      <trkpt lat="43.1836" lon="6.64285">
        <ele>15.2</ele>
        <time>2021-07-28T07:39:32Z</time>
      </trkpt>
      <trkpt lat="43.18358" lon="6.64283">
        <ele>15.8</ele>
        <time>2021-07-28T07:39:38Z</time>
      </trkpt>
      <trkpt lat="43.18357" lon="6.64281">
        <ele>16</ele>
        <time>2021-07-28T07:39:41Z</time>
      </trkpt>
      <trkpt lat="43.18354" lon="6.64277">
        <ele>16.8</ele>
        <time>2021-07-28T07:39:47Z</time>
      </trkpt>
      <trkpt lat="43.18355" lon="6.64274">
        <ele>17.6</ele>
        <time>2021-07-28T07:39:51Z</time>
      </trkpt>
      <trkpt lat="43.18355" lon="6.64273">
        <ele>18</ele>
        <time>2021-07-28T07:39:53Z</time>
      </trkpt>
      <trkpt lat="43.18355" lon="6.64272">
        <ele>19</ele>
        <time>2021-07-28T07:39:57Z</time>
      </trkpt>
      <trkpt lat="43.18354" lon="6.6427">
        <ele>19.8</ele>
        <time>2021-07-28T07:40:02Z</time>
      </trkpt>
      <trkpt lat="43.18354" lon="6.6427">
        <ele>20</ele>
        <time>2021-07-28T07:40:04Z</time>
      </trkpt>
      <trkpt lat="43.18349" lon="6.64266">
        <ele>20.2</ele>
        <time>2021-07-28T07:40:10Z</time>
      </trkpt>
      <trkpt lat="43.18344" lon="6.6427">
        <ele>20.4</ele>
        <time>2021-07-28T07:40:19Z</time>
      </trkpt>
      <trkpt lat="43.18343" lon="6.64274">
        <ele>20.6</ele>
        <time>2021-07-28T07:40:22Z</time>
      </trkpt>
      <trkpt lat="43.18341" lon="6.64277">
        <ele>21</ele>
        <time>2021-07-28T07:40:25Z</time>
      </trkpt>
      <trkpt lat="43.18341" lon="6.64278">
        <ele>21.2</ele>
        <time>2021-07-28T07:40:27Z</time>
      </trkpt>
      <trkpt lat="43.18341" lon="6.64278">
        <ele>21.2</ele>
        <time>2021-07-28T07:40:28Z</time>
      </trkpt>
      <trkpt lat="43.18341" lon="6.64279">
        <ele>21.2</ele>
        <time>2021-07-28T07:40:29Z</time>
      </trkpt>
      <trkpt lat="43.1834" lon="6.64285">
        <ele>21</ele>
        <time>2021-07-28T07:40:34Z</time>
      </trkpt>
      <trkpt lat="43.18338" lon="6.64287">
        <ele>21</ele>
        <time>2021-07-28T07:40:38Z</time>
      </trkpt>
      <trkpt lat="43.18337" lon="6.64287">
        <ele>20.8</ele>
        <time>2021-07-28T07:40:41Z</time>
      </trkpt>
      <trkpt lat="43.18337" lon="6.64287">
        <ele>20.8</ele>
        <time>2021-07-28T07:40:47Z</time>
      </trkpt>
      <trkpt lat="43.18332" lon="6.64283">
        <ele>20.8</ele>
        <time>2021-07-28T07:40:54Z</time>
      </trkpt>
      <trkpt lat="43.18332" lon="6.64282">
        <ele>20.8</ele>
        <time>2021-07-28T07:40:55Z</time>
      </trkpt>
      <trkpt lat="43.18331" lon="6.64282">
        <ele>20.8</ele>
        <time>2021-07-28T07:40:56Z</time>
      </trkpt>
      <trkpt lat="43.18329" lon="6.64284">
        <ele>21</ele>
        <time>2021-07-28T07:41:04Z</time>
      </trkpt>
      <trkpt lat="43.18326" lon="6.64285">
        <ele>19.8</ele>
        <time>2021-07-28T07:41:14Z</time>
      </trkpt>
      <trkpt lat="43.18324" lon="6.64287">
        <ele>18.6</ele>
        <time>2021-07-28T07:41:20Z</time>
      </trkpt>
      <trkpt lat="43.1832" lon="6.64287">
        <ele>18.2</ele>
        <time>2021-07-28T07:41:24Z</time>
      </trkpt>
      <trkpt lat="43.18314" lon="6.64286">
        <ele>18.4</ele>
        <time>2021-07-28T07:41:32Z</time>
      </trkpt>
      <trkpt lat="43.18313" lon="6.64286">
        <ele>18.6</ele>
        <time>2021-07-28T07:41:34Z</time>
      </trkpt>
      <trkpt lat="43.18311" lon="6.64286">
        <ele>18.4</ele>
        <time>2021-07-28T07:41:37Z</time>
      </trkpt>
      <trkpt lat="43.18309" lon="6.64286">
        <ele>18.4</ele>
        <time>2021-07-28T07:41:39Z</time>
      </trkpt>
      <trkpt lat="43.18308" lon="6.64285">
        <ele>18.4</ele>
        <time>2021-07-28T07:41:41Z</time>
      </trkpt>
      <trkpt lat="43.18306" lon="6.64285">
        <ele>18</ele>
        <time>2021-07-28T07:41:46Z</time>
      </trkpt>
      <trkpt lat="43.18306" lon="6.64286">
        <ele>18.4</ele>
        <time>2021-07-28T07:41:57Z</time>
      </trkpt>
      <trkpt lat="43.18306" lon="6.64284">
        <ele>18</ele>
        <time>2021-07-28T07:42:11Z</time>
      </trkpt>
      <trkpt lat="43.18304" lon="6.64283">
        <ele>17.6</ele>
        <time>2021-07-28T07:42:17Z</time>
      </trkpt>
      <trkpt lat="43.18302" lon="6.64283">
        <ele>16.8</ele>
        <time>2021-07-28T07:42:22Z</time>
      </trkpt>
      <trkpt lat="43.18301" lon="6.64282">
        <ele>16.6</ele>
        <time>2021-07-28T07:42:25Z</time>
      </trkpt>
      <trkpt lat="43.183" lon="6.64279">
        <ele>16.8</ele>
        <time>2021-07-28T07:42:30Z</time>
      </trkpt>
      <trkpt lat="43.18296" lon="6.64268">
        <ele>17</ele>
        <time>2021-07-28T07:42:40Z</time>
      </trkpt>
      <trkpt lat="43.18296" lon="6.64267">
        <ele>17</ele>
        <time>2021-07-28T07:42:41Z</time>
      </trkpt>
      <trkpt lat="43.18291" lon="6.64258">
        <ele>16.6</ele>
        <time>2021-07-28T07:42:50Z</time>
      </trkpt>
      <trkpt lat="43.18285" lon="6.6425">
        <ele>16.2</ele>
        <time>2021-07-28T07:42:59Z</time>
      </trkpt>
      <trkpt lat="43.18279" lon="6.64242">
        <ele>15.4</ele>
        <time>2021-07-28T07:43:09Z</time>
      </trkpt>
      <trkpt lat="43.18278" lon="6.64242">
        <ele>15.4</ele>
        <time>2021-07-28T07:43:10Z</time>
      </trkpt>
      <trkpt lat="43.18277" lon="6.64244">
        <ele>15.2</ele>
        <time>2021-07-28T07:43:13Z</time>
      </trkpt>
      <trkpt lat="43.18274" lon="6.64247">
        <ele>14.8</ele>
        <time>2021-07-28T07:43:18Z</time>
      </trkpt>
      <trkpt lat="43.18273" lon="6.64248">
        <ele>14.6</ele>
        <time>2021-07-28T07:43:19Z</time>
      </trkpt>
      <trkpt lat="43.18273" lon="6.64248">
        <ele>14.4</ele>
        <time>2021-07-28T07:43:20Z</time>
      </trkpt>
      <trkpt lat="43.18272" lon="6.64248">
        <ele>14.2</ele>
        <time>2021-07-28T07:43:21Z</time>
      </trkpt>
      <trkpt lat="43.18271" lon="6.64249">
        <ele>14</ele>
        <time>2021-07-28T07:43:27Z</time>
      </trkpt>
      <trkpt lat="43.18266" lon="6.64241">
        <ele>13.6</ele>
        <time>2021-07-28T07:43:35Z</time>
      </trkpt>
      <trkpt lat="43.18265" lon="6.6424">
        <ele>13.6</ele>
        <time>2021-07-28T07:43:39Z</time>
      </trkpt>
      <trkpt lat="43.18265" lon="6.6424">
        <ele>13.6</ele>
        <time>2021-07-28T07:43:41Z</time>
      </trkpt>
      <trkpt lat="43.18265" lon="6.64238">
        <ele>13.6</ele>
        <time>2021-07-28T07:43:44Z</time>
      </trkpt>
      <trkpt lat="43.18261" lon="6.64235">
        <ele>13.4</ele>
        <time>2021-07-28T07:43:52Z</time>
      </trkpt>
      <trkpt lat="43.1826" lon="6.64235">
        <ele>13.2</ele>
        <time>2021-07-28T07:43:53Z</time>
      </trkpt>
      <trkpt lat="43.18256" lon="6.64233">
        <ele>12.6</ele>
        <time>2021-07-28T07:44:01Z</time>
      </trkpt>
      <trkpt lat="43.18249" lon="6.64226">
        <ele>12.2</ele>
        <time>2021-07-28T07:44:11Z</time>
      </trkpt>
      <trkpt lat="43.18247" lon="6.64223">
        <ele>12</ele>
        <time>2021-07-28T07:44:15Z</time>
      </trkpt>
      <trkpt lat="43.18245" lon="6.64219">
        <ele>11.8</ele>
        <time>2021-07-28T07:44:24Z</time>
      </trkpt>
      <trkpt lat="43.18241" lon="6.64209">
        <ele>11.4</ele>
        <time>2021-07-28T07:44:32Z</time>
      </trkpt>
      <trkpt lat="43.18241" lon="6.64204">
        <ele>12.4</ele>
        <time>2021-07-28T07:44:39Z</time>
      </trkpt>
      <trkpt lat="43.18241" lon="6.64204">
        <ele>12.4</ele>
        <time>2021-07-28T07:44:42Z</time>
      </trkpt>
      <trkpt lat="43.18241" lon="6.64197">
        <ele>12.8</ele>
        <time>2021-07-28T07:44:51Z</time>
      </trkpt>
      <trkpt lat="43.18235" lon="6.64195">
        <ele>12.8</ele>
        <time>2021-07-28T07:44:58Z</time>
      </trkpt>
      <trkpt lat="43.18234" lon="6.64195">
        <ele>13.4</ele>
        <time>2021-07-28T07:45:01Z</time>
      </trkpt>
      <trkpt lat="43.18233" lon="6.64195">
        <ele>13.8</ele>
        <time>2021-07-28T07:45:07Z</time>
      </trkpt>
      <trkpt lat="43.18234" lon="6.64196">
        <ele>13.8</ele>
        <time>2021-07-28T07:45:23Z</time>
      </trkpt>
      <trkpt lat="43.18235" lon="6.64196">
        <ele>13.8</ele>
        <time>2021-07-28T07:45:40Z</time>
      </trkpt>
      <trkpt lat="43.18235" lon="6.64196">
        <ele>13.8</ele>
        <time>2021-07-28T07:45:52Z</time>
      </trkpt>
      <trkpt lat="43.18231" lon="6.64189">
        <ele>13.8</ele>
        <time>2021-07-28T07:46:00Z</time>
      </trkpt>
      <trkpt lat="43.18229" lon="6.64179">
        <ele>13.8</ele>
        <time>2021-07-28T07:46:11Z</time>
      </trkpt>
      <trkpt lat="43.18228" lon="6.64178">
        <ele>13.8</ele>
        <time>2021-07-28T07:46:12Z</time>
      </trkpt>
      <trkpt lat="43.18225" lon="6.64171">
        <ele>13.2</ele>
        <time>2021-07-28T07:46:19Z</time>
      </trkpt>
      <trkpt lat="43.18224" lon="6.6417">
        <ele>13.6</ele>
        <time>2021-07-28T07:46:22Z</time>
      </trkpt>
      <trkpt lat="43.18224" lon="6.6417">
        <ele>14</ele>
        <time>2021-07-28T07:46:27Z</time>
      </trkpt>
      <trkpt lat="43.18226" lon="6.64164">
        <ele>13.6</ele>
        <time>2021-07-28T07:46:35Z</time>
      </trkpt>
      <trkpt lat="43.18226" lon="6.64163">
        <ele>13.6</ele>
        <time>2021-07-28T07:46:36Z</time>
      </trkpt>
      <trkpt lat="43.18227" lon="6.64161">
        <ele>13.6</ele>
        <time>2021-07-28T07:46:38Z</time>
      </trkpt>
      <trkpt lat="43.1823" lon="6.64153">
        <ele>14.4</ele>
        <time>2021-07-28T07:46:47Z</time>
      </trkpt>
      <trkpt lat="43.1823" lon="6.64152">
        <ele>14.6</ele>
        <time>2021-07-28T07:46:49Z</time>
      </trkpt>
      <trkpt lat="43.18228" lon="6.64145">
        <ele>14.2</ele>
        <time>2021-07-28T07:47:00Z</time>
      </trkpt>
      <trkpt lat="43.18226" lon="6.64143">
        <ele>13.4</ele>
        <time>2021-07-28T07:47:08Z</time>
      </trkpt>
      <trkpt lat="43.18225" lon="6.64139">
        <ele>13.2</ele>
        <time>2021-07-28T07:47:11Z</time>
      </trkpt>
      <trkpt lat="43.18224" lon="6.64135">
        <ele>12</ele>
        <time>2021-07-28T07:47:17Z</time>
      </trkpt>
      <trkpt lat="43.18223" lon="6.64133">
        <ele>11.6</ele>
        <time>2021-07-28T07:47:19Z</time>
      </trkpt>
      <trkpt lat="43.18223" lon="6.64131">
        <ele>11.8</ele>
        <time>2021-07-28T07:47:30Z</time>
      </trkpt>
      <trkpt lat="43.18221" lon="6.64128">
        <ele>11</ele>
        <time>2021-07-28T07:47:33Z</time>
      </trkpt>
      <trkpt lat="43.18217" lon="6.64123">
        <ele>10.4</ele>
        <time>2021-07-28T07:47:38Z</time>
      </trkpt>
      <trkpt lat="43.18217" lon="6.64121">
        <ele>10.4</ele>
        <time>2021-07-28T07:47:39Z</time>
      </trkpt>
      <trkpt lat="43.18215" lon="6.64116">
        <ele>10.2</ele>
        <time>2021-07-28T07:47:46Z</time>
      </trkpt>
      <trkpt lat="43.18215" lon="6.64116">
        <ele>10.4</ele>
        <time>2021-07-28T07:47:47Z</time>
      </trkpt>
      <trkpt lat="43.18212" lon="6.64112">
        <ele>9.8</ele>
        <time>2021-07-28T07:47:56Z</time>
      </trkpt>
      <trkpt lat="43.18211" lon="6.6411">
        <ele>9.4</ele>
        <time>2021-07-28T07:47:58Z</time>
      </trkpt>
      <trkpt lat="43.1821" lon="6.64104">
        <ele>8.8</ele>
        <time>2021-07-28T07:48:04Z</time>
      </trkpt>
      <trkpt lat="43.18211" lon="6.64102">
        <ele>8.6</ele>
        <time>2021-07-28T07:48:07Z</time>
      </trkpt>
      <trkpt lat="43.1821" lon="6.64096">
        <ele>8.2</ele>
        <time>2021-07-28T07:48:16Z</time>
      </trkpt>
      <trkpt lat="43.18209" lon="6.64088">
        <ele>9</ele>
        <time>2021-07-28T07:48:25Z</time>
      </trkpt>
      <trkpt lat="43.1821" lon="6.64083">
        <ele>9.8</ele>
        <time>2021-07-28T07:48:33Z</time>
      </trkpt>
      <trkpt lat="43.1821" lon="6.64082">
        <ele>10</ele>
        <time>2021-07-28T07:48:37Z</time>
      </trkpt>
      <trkpt lat="43.18208" lon="6.6408">
        <ele>9.4</ele>
        <time>2021-07-28T07:48:50Z</time>
      </trkpt>
      <trkpt lat="43.18207" lon="6.64078">
        <ele>9.2</ele>
        <time>2021-07-28T07:49:00Z</time>
      </trkpt>
      <trkpt lat="43.18206" lon="6.64069">
        <ele>9.2</ele>
        <time>2021-07-28T07:49:08Z</time>
      </trkpt>
      <trkpt lat="43.18204" lon="6.6406">
        <ele>9.2</ele>
        <time>2021-07-28T07:49:18Z</time>
      </trkpt>
      <trkpt lat="43.18204" lon="6.64059">
        <ele>9.2</ele>
        <time>2021-07-28T07:49:19Z</time>
      </trkpt>
      <trkpt lat="43.18204" lon="6.64059">
        <ele>9.2</ele>
        <time>2021-07-28T07:49:20Z</time>
      </trkpt>
      <trkpt lat="43.18199" lon="6.64058">
        <ele>9.2</ele>
        <time>2021-07-28T07:49:27Z</time>
      </trkpt>
      <trkpt lat="43.18194" lon="6.64051">
        <ele>9.4</ele>
        <time>2021-07-28T07:49:36Z</time>
      </trkpt>
      <trkpt lat="43.18187" lon="6.64048">
        <ele>9.8</ele>
        <time>2021-07-28T07:49:47Z</time>
      </trkpt>
      <trkpt lat="43.18184" lon="6.64047">
        <ele>10.8</ele>
        <time>2021-07-28T07:49:56Z</time>
      </trkpt>
      <trkpt lat="43.18184" lon="6.64047">
        <ele>11.2</ele>
        <time>2021-07-28T07:49:57Z</time>
      </trkpt>
      <trkpt lat="43.18183" lon="6.64045">
        <ele>12.4</ele>
        <time>2021-07-28T07:50:02Z</time>
      </trkpt>
      <trkpt lat="43.18183" lon="6.64041">
        <ele>13.4</ele>
        <time>2021-07-28T07:50:06Z</time>
      </trkpt>
      <trkpt lat="43.18183" lon="6.64035">
        <ele>14.4</ele>
        <time>2021-07-28T07:50:13Z</time>
      </trkpt>
      <trkpt lat="43.18183" lon="6.64027">
        <ele>15.4</ele>
        <time>2021-07-28T07:50:21Z</time>
      </trkpt>
      <trkpt lat="43.18182" lon="6.64024">
        <ele>15.6</ele>
        <time>2021-07-28T07:50:25Z</time>
      </trkpt>
      <trkpt lat="43.1818" lon="6.64022">
        <ele>16.6</ele>
        <time>2021-07-28T07:50:29Z</time>
      </trkpt>
      <trkpt lat="43.18179" lon="6.64019">
        <ele>17.4</ele>
        <time>2021-07-28T07:50:33Z</time>
      </trkpt>
      <trkpt lat="43.18179" lon="6.64019">
        <ele>17.6</ele>
        <time>2021-07-28T07:50:35Z</time>
      </trkpt>
      <trkpt lat="43.18178" lon="6.64016">
        <ele>18.8</ele>
        <time>2021-07-28T07:50:40Z</time>
      </trkpt>
      <trkpt lat="43.18178" lon="6.64015">
        <ele>19.2</ele>
        <time>2021-07-28T07:50:43Z</time>
      </trkpt>
      <trkpt lat="43.18178" lon="6.64012">
        <ele>20</ele>
        <time>2021-07-28T07:50:47Z</time>
      </trkpt>
      <trkpt lat="43.18177" lon="6.64008">
        <ele>21.2</ele>
        <time>2021-07-28T07:50:53Z</time>
      </trkpt>
      <trkpt lat="43.18175" lon="6.64005">
        <ele>22.4</ele>
        <time>2021-07-28T07:50:57Z</time>
      </trkpt>
      <trkpt lat="43.18174" lon="6.64003">
        <ele>22.6</ele>
        <time>2021-07-28T07:50:58Z</time>
      </trkpt>
      <trkpt lat="43.18171" lon="6.63998">
        <ele>23.6</ele>
        <time>2021-07-28T07:51:03Z</time>
      </trkpt>
      <trkpt lat="43.18167" lon="6.6399">
        <ele>24.4</ele>
        <time>2021-07-28T07:51:09Z</time>
      </trkpt>
      <trkpt lat="43.18161" lon="6.6398">
        <ele>24.6</ele>
        <time>2021-07-28T07:51:18Z</time>
      </trkpt>
      <trkpt lat="43.18159" lon="6.63979">
        <ele>24.6</ele>
        <time>2021-07-28T07:51:19Z</time>
      </trkpt>
      <trkpt lat="43.18156" lon="6.63977">
        <ele>24.6</ele>
        <time>2021-07-28T07:51:23Z</time>
      </trkpt>
      <trkpt lat="43.18142" lon="6.63972">
        <ele>24.6</ele>
        <time>2021-07-28T07:51:36Z</time>
      </trkpt>
      <trkpt lat="43.18133" lon="6.63968">
        <ele>23.8</ele>
        <time>2021-07-28T07:51:46Z</time>
      </trkpt>
      <trkpt lat="43.18124" lon="6.63966">
        <ele>23.6</ele>
        <time>2021-07-28T07:51:57Z</time>
      </trkpt>
      <trkpt lat="43.18122" lon="6.63965">
        <ele>23.2</ele>
        <time>2021-07-28T07:52:00Z</time>
      </trkpt>
      <trkpt lat="43.18121" lon="6.63963">
        <ele>22.4</ele>
        <time>2021-07-28T07:52:02Z</time>
      </trkpt>
      <trkpt lat="43.18119" lon="6.63959">
        <ele>21.8</ele>
        <time>2021-07-28T07:52:07Z</time>
      </trkpt>
      <trkpt lat="43.18118" lon="6.63957">
        <ele>21.6</ele>
        <time>2021-07-28T07:52:10Z</time>
      </trkpt>
      <trkpt lat="43.18116" lon="6.63954">
        <ele>21</ele>
        <time>2021-07-28T07:52:13Z</time>
      </trkpt>
      <trkpt lat="43.18111" lon="6.63954">
        <ele>20.8</ele>
        <time>2021-07-28T07:52:19Z</time>
      </trkpt>
      <trkpt lat="43.18104" lon="6.63953">
        <ele>22.2</ele>
        <time>2021-07-28T07:52:27Z</time>
      </trkpt>
      <trkpt lat="43.18103" lon="6.63953">
        <ele>22.4</ele>
        <time>2021-07-28T07:52:30Z</time>
      </trkpt>
      <trkpt lat="43.18094" lon="6.63955">
        <ele>23</ele>
        <time>2021-07-28T07:52:41Z</time>
      </trkpt>
      <trkpt lat="43.18093" lon="6.63955">
        <ele>23.2</ele>
        <time>2021-07-28T07:52:42Z</time>
      </trkpt>
      <trkpt lat="43.1809" lon="6.63961">
        <ele>23.2</ele>
        <time>2021-07-28T07:52:49Z</time>
      </trkpt>
      <trkpt lat="43.18081" lon="6.63962">
        <ele>23</ele>
        <time>2021-07-28T07:52:58Z</time>
      </trkpt>
      <trkpt lat="43.18069" lon="6.63957">
        <ele>24</ele>
        <time>2021-07-28T07:53:10Z</time>
      </trkpt>
      <trkpt lat="43.18067" lon="6.63956">
        <ele>24.2</ele>
        <time>2021-07-28T07:53:12Z</time>
      </trkpt>
      <trkpt lat="43.18058" lon="6.63954">
        <ele>24</ele>
        <time>2021-07-28T07:53:23Z</time>
      </trkpt>
      <trkpt lat="43.18048" lon="6.63953">
        <ele>25.4</ele>
        <time>2021-07-28T07:53:36Z</time>
      </trkpt>
      <trkpt lat="43.18039" lon="6.63946">
        <ele>26.2</ele>
        <time>2021-07-28T07:53:50Z</time>
      </trkpt>
      <trkpt lat="43.18038" lon="6.63944">
        <ele>26.8</ele>
        <time>2021-07-28T07:53:52Z</time>
      </trkpt>
      <trkpt lat="43.18032" lon="6.63938">
        <ele>27.6</ele>
        <time>2021-07-28T07:54:01Z</time>
      </trkpt>
      <trkpt lat="43.18032" lon="6.63938">
        <ele>27.8</ele>
        <time>2021-07-28T07:54:02Z</time>
      </trkpt>
      <trkpt lat="43.18032" lon="6.63938">
        <ele>28</ele>
        <time>2021-07-28T07:54:03Z</time>
      </trkpt>
      <trkpt lat="43.18029" lon="6.63939">
        <ele>28.6</ele>
        <time>2021-07-28T07:54:12Z</time>
      </trkpt>
      <trkpt lat="43.18029" lon="6.63939">
        <ele>28.4</ele>
        <time>2021-07-28T07:54:15Z</time>
      </trkpt>
      <trkpt lat="43.18029" lon="6.63938">
        <ele>27.6</ele>
        <time>2021-07-28T07:54:19Z</time>
      </trkpt>
      <trkpt lat="43.18025" lon="6.63935">
        <ele>27.4</ele>
        <time>2021-07-28T07:54:33Z</time>
      </trkpt>
      <trkpt lat="43.18017" lon="6.63935">
        <ele>26.8</ele>
        <time>2021-07-28T07:54:42Z</time>
      </trkpt>
      <trkpt lat="43.18011" lon="6.63936">
        <ele>26.4</ele>
        <time>2021-07-28T07:54:47Z</time>
      </trkpt>
      <trkpt lat="43.17998" lon="6.63942">
        <ele>26.2</ele>
        <time>2021-07-28T07:54:59Z</time>
      </trkpt>
      <trkpt lat="43.17986" lon="6.63953">
        <ele>26.8</ele>
        <time>2021-07-28T07:55:12Z</time>
      </trkpt>
      <trkpt lat="43.17976" lon="6.63958">
        <ele>27.8</ele>
        <time>2021-07-28T07:55:21Z</time>
      </trkpt>
      <trkpt lat="43.17973" lon="6.6396">
        <ele>28.2</ele>
        <time>2021-07-28T07:55:24Z</time>
      </trkpt>
      <trkpt lat="43.1797" lon="6.63962">
        <ele>28.4</ele>
        <time>2021-07-28T07:55:28Z</time>
      </trkpt>
      <trkpt lat="43.17963" lon="6.63965">
        <ele>29</ele>
        <time>2021-07-28T07:55:35Z</time>
      </trkpt>
      <trkpt lat="43.17961" lon="6.63965">
        <ele>29.2</ele>
        <time>2021-07-28T07:55:38Z</time>
      </trkpt>
      <trkpt lat="43.17955" lon="6.63968">
        <ele>30</ele>
        <time>2021-07-28T07:55:45Z</time>
      </trkpt>
      <trkpt lat="43.17952" lon="6.63968">
        <ele>30.4</ele>
        <time>2021-07-28T07:55:48Z</time>
      </trkpt>
      <trkpt lat="43.17944" lon="6.63967">
        <ele>30.8</ele>
        <time>2021-07-28T07:55:57Z</time>
      </trkpt>
      <trkpt lat="43.17944" lon="6.63967">
        <ele>31</ele>
        <time>2021-07-28T07:55:59Z</time>
      </trkpt>
      <trkpt lat="43.17944" lon="6.63967">
        <ele>31.2</ele>
        <time>2021-07-28T07:56:00Z</time>
      </trkpt>
      <trkpt lat="43.17941" lon="6.63965">
        <ele>31.6</ele>
        <time>2021-07-28T07:56:11Z</time>
      </trkpt>
      <trkpt lat="43.17936" lon="6.63968">
        <ele>32</ele>
        <time>2021-07-28T07:56:16Z</time>
      </trkpt>
      <trkpt lat="43.17935" lon="6.63968">
        <ele>32</ele>
        <time>2021-07-28T07:56:18Z</time>
      </trkpt>
      <trkpt lat="43.17933" lon="6.63968">
        <ele>32.4</ele>
        <time>2021-07-28T07:56:20Z</time>
      </trkpt>
      <trkpt lat="43.17932" lon="6.63967">
        <ele>32.6</ele>
        <time>2021-07-28T07:56:21Z</time>
      </trkpt>
      <trkpt lat="43.17931" lon="6.63968">
        <ele>32.8</ele>
        <time>2021-07-28T07:56:22Z</time>
      </trkpt>
      <trkpt lat="43.17927" lon="6.63966">
        <ele>33.6</ele>
        <time>2021-07-28T07:56:26Z</time>
      </trkpt>
      <trkpt lat="43.17924" lon="6.63964">
        <ele>34.2</ele>
        <time>2021-07-28T07:56:29Z</time>
      </trkpt>
      <trkpt lat="43.17921" lon="6.63963">
        <ele>34.6</ele>
        <time>2021-07-28T07:56:32Z</time>
      </trkpt>
      <trkpt lat="43.1792" lon="6.63963">
        <ele>34.8</ele>
        <time>2021-07-28T07:56:33Z</time>
      </trkpt>
      <trkpt lat="43.17914" lon="6.63959">
        <ele>35.6</ele>
        <time>2021-07-28T07:56:38Z</time>
      </trkpt>
      <trkpt lat="43.17907" lon="6.63956">
        <ele>36</ele>
        <time>2021-07-28T07:56:45Z</time>
      </trkpt>
      <trkpt lat="43.17897" lon="6.63957">
        <ele>35.2</ele>
        <time>2021-07-28T07:56:54Z</time>
      </trkpt>
      <trkpt lat="43.17888" lon="6.63958">
        <ele>34.4</ele>
        <time>2021-07-28T07:57:03Z</time>
      </trkpt>
      <trkpt lat="43.17885" lon="6.6396">
        <ele>33.8</ele>
        <time>2021-07-28T07:57:08Z</time>
      </trkpt>
      <trkpt lat="43.17883" lon="6.6396">
        <ele>33.4</ele>
        <time>2021-07-28T07:57:10Z</time>
      </trkpt>
      <trkpt lat="43.17875" lon="6.63964">
        <ele>32.2</ele>
        <time>2021-07-28T07:57:20Z</time>
      </trkpt>
      <trkpt lat="43.17866" lon="6.63971">
        <ele>31.2</ele>
        <time>2021-07-28T07:57:29Z</time>
      </trkpt>
      <trkpt lat="43.17862" lon="6.63973">
        <ele>30.8</ele>
        <time>2021-07-28T07:57:33Z</time>
      </trkpt>
      <trkpt lat="43.17854" lon="6.63977">
        <ele>30.6</ele>
        <time>2021-07-28T07:57:43Z</time>
      </trkpt>
      <trkpt lat="43.17853" lon="6.63977">
        <ele>30.6</ele>
        <time>2021-07-28T07:57:44Z</time>
      </trkpt>
      <trkpt lat="43.17845" lon="6.63979">
        <ele>30.8</ele>
        <time>2021-07-28T07:57:53Z</time>
      </trkpt>
      <trkpt lat="43.1783" lon="6.63983">
        <ele>30.6</ele>
        <time>2021-07-28T07:58:06Z</time>
      </trkpt>
      <trkpt lat="43.17814" lon="6.63987">
        <ele>31.6</ele>
        <time>2021-07-28T07:58:21Z</time>
      </trkpt>
      <trkpt lat="43.17806" lon="6.63991">
        <ele>32.2</ele>
        <time>2021-07-28T07:58:30Z</time>
      </trkpt>
      <trkpt lat="43.17804" lon="6.63993">
        <ele>32.8</ele>
        <time>2021-07-28T07:58:35Z</time>
      </trkpt>
      <trkpt lat="43.178" lon="6.63997">
        <ele>33.6</ele>
        <time>2021-07-28T07:58:42Z</time>
      </trkpt>
      <trkpt lat="43.178" lon="6.63997">
        <ele>34</ele>
        <time>2021-07-28T07:58:44Z</time>
      </trkpt>
      <trkpt lat="43.17792" lon="6.64002">
        <ele>33.4</ele>
        <time>2021-07-28T07:58:52Z</time>
      </trkpt>
      <trkpt lat="43.17791" lon="6.64003">
        <ele>33.6</ele>
        <time>2021-07-28T07:58:54Z</time>
      </trkpt>
      <trkpt lat="43.1778" lon="6.64007">
        <ele>34</ele>
        <time>2021-07-28T07:59:05Z</time>
      </trkpt>
      <trkpt lat="43.17769" lon="6.64014">
        <ele>34</ele>
        <time>2021-07-28T07:59:17Z</time>
      </trkpt>
      <trkpt lat="43.17768" lon="6.64015">
        <ele>34.2</ele>
        <time>2021-07-28T07:59:20Z</time>
      </trkpt>
      <trkpt lat="43.17768" lon="6.64015">
        <ele>35</ele>
        <time>2021-07-28T07:59:21Z</time>
      </trkpt>
      <trkpt lat="43.17768" lon="6.64015">
        <ele>35.4</ele>
        <time>2021-07-28T07:59:22Z</time>
      </trkpt>
      <trkpt lat="43.17765" lon="6.64016">
        <ele>35.2</ele>
        <time>2021-07-28T07:59:26Z</time>
      </trkpt>
      <trkpt lat="43.17758" lon="6.6402">
        <ele>35</ele>
        <time>2021-07-28T07:59:36Z</time>
      </trkpt>
      <trkpt lat="43.17754" lon="6.64018">
        <ele>35</ele>
        <time>2021-07-28T07:59:40Z</time>
      </trkpt>
      <trkpt lat="43.17749" lon="6.64017">
        <ele>35.2</ele>
        <time>2021-07-28T07:59:45Z</time>
      </trkpt>
      <trkpt lat="43.17739" lon="6.64017">
        <ele>33</ele>
        <time>2021-07-28T07:59:54Z</time>
      </trkpt>
      <trkpt lat="43.17735" lon="6.64018">
        <ele>34.6</ele>
        <time>2021-07-28T07:59:57Z</time>
      </trkpt>
      <trkpt lat="43.1773" lon="6.6402">
        <ele>35.4</ele>
        <time>2021-07-28T08:00:01Z</time>
      </trkpt>
      <trkpt lat="43.17728" lon="6.64021">
        <ele>35.6</ele>
        <time>2021-07-28T08:00:03Z</time>
      </trkpt>
      <trkpt lat="43.17727" lon="6.64021">
        <ele>36</ele>
        <time>2021-07-28T08:00:05Z</time>
      </trkpt>
      <trkpt lat="43.17727" lon="6.64021">
        <ele>36.2</ele>
        <time>2021-07-28T08:00:07Z</time>
      </trkpt>
      <trkpt lat="43.17728" lon="6.64021">
        <ele>36.4</ele>
        <time>2021-07-28T08:00:08Z</time>
      </trkpt>
      <trkpt lat="43.17727" lon="6.64021">
        <ele>36</ele>
        <time>2021-07-28T08:00:18Z</time>
      </trkpt>
      <trkpt lat="43.17726" lon="6.64021">
        <ele>36.4</ele>
        <time>2021-07-28T08:00:30Z</time>
      </trkpt>
      <trkpt lat="43.17718" lon="6.64021">
        <ele>34.8</ele>
        <time>2021-07-28T08:00:40Z</time>
      </trkpt>
      <trkpt lat="43.17708" lon="6.64019">
        <ele>34.4</ele>
        <time>2021-07-28T08:00:50Z</time>
      </trkpt>
      <trkpt lat="43.17705" lon="6.64019">
        <ele>34</ele>
        <time>2021-07-28T08:00:52Z</time>
      </trkpt>
      <trkpt lat="43.17697" lon="6.64018">
        <ele>33.8</ele>
        <time>2021-07-28T08:00:59Z</time>
      </trkpt>
      <trkpt lat="43.17689" lon="6.64014">
        <ele>34</ele>
        <time>2021-07-28T08:01:07Z</time>
      </trkpt>
      <trkpt lat="43.17675" lon="6.64013">
        <ele>33.6</ele>
        <time>2021-07-28T08:01:19Z</time>
      </trkpt>
      <trkpt lat="43.17664" lon="6.64011">
        <ele>34.2</ele>
        <time>2021-07-28T08:01:27Z</time>
      </trkpt>
      <trkpt lat="43.1766" lon="6.64012">
        <ele>34.6</ele>
        <time>2021-07-28T08:01:31Z</time>
      </trkpt>
      <trkpt lat="43.17657" lon="6.64014">
        <ele>34.8</ele>
        <time>2021-07-28T08:01:34Z</time>
      </trkpt>
      <trkpt lat="43.17653" lon="6.64014">
        <ele>35.6</ele>
        <time>2021-07-28T08:01:38Z</time>
      </trkpt>
      <trkpt lat="43.1765" lon="6.64015">
        <ele>35.8</ele>
        <time>2021-07-28T08:01:41Z</time>
      </trkpt>
      <trkpt lat="43.17645" lon="6.64016">
        <ele>36.4</ele>
        <time>2021-07-28T08:01:47Z</time>
      </trkpt>
      <trkpt lat="43.17644" lon="6.64015">
        <ele>36.6</ele>
        <time>2021-07-28T08:01:48Z</time>
      </trkpt>
      <trkpt lat="43.17642" lon="6.64015">
        <ele>37.2</ele>
        <time>2021-07-28T08:01:50Z</time>
      </trkpt>
      <trkpt lat="43.17639" lon="6.64015">
        <ele>37.6</ele>
        <time>2021-07-28T08:01:53Z</time>
      </trkpt>
      <trkpt lat="43.17633" lon="6.64015">
        <ele>38</ele>
        <time>2021-07-28T08:01:59Z</time>
      </trkpt>
      <trkpt lat="43.17623" lon="6.64012">
        <ele>37.8</ele>
        <time>2021-07-28T08:02:12Z</time>
      </trkpt>
      <trkpt lat="43.17623" lon="6.64012">
        <ele>37.6</ele>
        <time>2021-07-28T08:02:23Z</time>
      </trkpt>
      <trkpt lat="43.17623" lon="6.64011">
        <ele>38.8</ele>
        <time>2021-07-28T08:02:25Z</time>
      </trkpt>
      <trkpt lat="43.17624" lon="6.64012">
        <ele>38</ele>
        <time>2021-07-28T08:02:37Z</time>
      </trkpt>
      <trkpt lat="43.17622" lon="6.64006">
        <ele>37.8</ele>
        <time>2021-07-28T08:02:47Z</time>
      </trkpt>
      <trkpt lat="43.17621" lon="6.63999">
        <ele>37.8</ele>
        <time>2021-07-28T08:02:55Z</time>
      </trkpt>
      <trkpt lat="43.1762" lon="6.63998">
        <ele>36.8</ele>
        <time>2021-07-28T08:02:58Z</time>
      </trkpt>
      <trkpt lat="43.1762" lon="6.63998">
        <ele>36.8</ele>
        <time>2021-07-28T08:03:00Z</time>
      </trkpt>
      <trkpt lat="43.1762" lon="6.63998">
        <ele>36.8</ele>
        <time>2021-07-28T08:03:11Z</time>
      </trkpt>
      <trkpt lat="43.17621" lon="6.63997">
        <ele>36.8</ele>
        <time>2021-07-28T08:03:20Z</time>
      </trkpt>
      <trkpt lat="43.17621" lon="6.63995">
        <ele>35.8</ele>
        <time>2021-07-28T08:03:24Z</time>
      </trkpt>
      <trkpt lat="43.17621" lon="6.63988">
        <ele>34.6</ele>
        <time>2021-07-28T08:03:29Z</time>
      </trkpt>
      <trkpt lat="43.17621" lon="6.63987">
        <ele>34.6</ele>
        <time>2021-07-28T08:03:30Z</time>
      </trkpt>
      <trkpt lat="43.17619" lon="6.6398">
        <ele>33.6</ele>
        <time>2021-07-28T08:03:35Z</time>
      </trkpt>
      <trkpt lat="43.17618" lon="6.63974">
        <ele>32.6</ele>
        <time>2021-07-28T08:03:39Z</time>
      </trkpt>
      <trkpt lat="43.17617" lon="6.63973">
        <ele>32.4</ele>
        <time>2021-07-28T08:03:40Z</time>
      </trkpt>
      <trkpt lat="43.17615" lon="6.63968">
        <ele>31.8</ele>
        <time>2021-07-28T08:03:46Z</time>
      </trkpt>
      <trkpt lat="43.17615" lon="6.63966">
        <ele>32.2</ele>
        <time>2021-07-28T08:03:49Z</time>
      </trkpt>
      <trkpt lat="43.17614" lon="6.63963">
        <ele>31.4</ele>
        <time>2021-07-28T08:03:51Z</time>
      </trkpt>
      <trkpt lat="43.17612" lon="6.63959">
        <ele>30.8</ele>
        <time>2021-07-28T08:03:54Z</time>
      </trkpt>
      <trkpt lat="43.17609" lon="6.63954">
        <ele>30.4</ele>
        <time>2021-07-28T08:03:58Z</time>
      </trkpt>
      <trkpt lat="43.17609" lon="6.63953">
        <ele>30.4</ele>
        <time>2021-07-28T08:03:59Z</time>
      </trkpt>
      <trkpt lat="43.17605" lon="6.63945">
        <ele>29.2</ele>
        <time>2021-07-28T08:04:07Z</time>
      </trkpt>
      <trkpt lat="43.17604" lon="6.6394">
        <ele>29.2</ele>
        <time>2021-07-28T08:04:11Z</time>
      </trkpt>
      <trkpt lat="43.17606" lon="6.63925">
        <ele>29.6</ele>
        <time>2021-07-28T08:04:21Z</time>
      </trkpt>
      <trkpt lat="43.17606" lon="6.63908">
        <ele>29</ele>
        <time>2021-07-28T08:04:33Z</time>
      </trkpt>
      <trkpt lat="43.17605" lon="6.63904">
        <ele>28.8</ele>
        <time>2021-07-28T08:04:38Z</time>
      </trkpt>
      <trkpt lat="43.17605" lon="6.63903">
        <ele>28.6</ele>
        <time>2021-07-28T08:04:40Z</time>
      </trkpt>
      <trkpt lat="43.17605" lon="6.63903">
        <ele>28.4</ele>
        <time>2021-07-28T08:04:42Z</time>
      </trkpt>
      <trkpt lat="43.17604" lon="6.63904">
        <ele>28.2</ele>
        <time>2021-07-28T08:04:45Z</time>
      </trkpt>
      <trkpt lat="43.176" lon="6.63907">
        <ele>28</ele>
        <time>2021-07-28T08:04:50Z</time>
      </trkpt>
      <trkpt lat="43.17597" lon="6.6391">
        <ele>27.2</ele>
        <time>2021-07-28T08:04:54Z</time>
      </trkpt>
      <trkpt lat="43.17595" lon="6.63915">
        <ele>26.6</ele>
        <time>2021-07-28T08:05:00Z</time>
      </trkpt>
      <trkpt lat="43.17594" lon="6.63916">
        <ele>26.6</ele>
        <time>2021-07-28T08:05:01Z</time>
      </trkpt>
      <trkpt lat="43.17594" lon="6.63917">
        <ele>26.6</ele>
        <time>2021-07-28T08:05:02Z</time>
      </trkpt>
      <trkpt lat="43.17592" lon="6.63917">
        <ele>26.2</ele>
        <time>2021-07-28T08:05:05Z</time>
      </trkpt>
      <trkpt lat="43.17589" lon="6.63922">
        <ele>26</ele>
        <time>2021-07-28T08:05:11Z</time>
      </trkpt>
      <trkpt lat="43.17586" lon="6.63926">
        <ele>25</ele>
        <time>2021-07-28T08:05:19Z</time>
      </trkpt>
      <trkpt lat="43.17585" lon="6.63927">
        <ele>24</ele>
        <time>2021-07-28T08:05:21Z</time>
      </trkpt>
      <trkpt lat="43.17585" lon="6.63927">
        <ele>23.8</ele>
        <time>2021-07-28T08:05:22Z</time>
      </trkpt>
      <trkpt lat="43.17583" lon="6.63928">
        <ele>22.8</ele>
        <time>2021-07-28T08:05:26Z</time>
      </trkpt>
      <trkpt lat="43.1758" lon="6.63936">
        <ele>22.4</ele>
        <time>2021-07-28T08:05:33Z</time>
      </trkpt>
      <trkpt lat="43.17573" lon="6.63945">
        <ele>22.2</ele>
        <time>2021-07-28T08:05:43Z</time>
      </trkpt>
      <trkpt lat="43.1757" lon="6.63947">
        <ele>21.6</ele>
        <time>2021-07-28T08:05:46Z</time>
      </trkpt>
      <trkpt lat="43.17565" lon="6.63956">
        <ele>20.6</ele>
        <time>2021-07-28T08:05:55Z</time>
      </trkpt>
      <trkpt lat="43.17564" lon="6.63958">
        <ele>20</ele>
        <time>2021-07-28T08:05:59Z</time>
      </trkpt>
      <trkpt lat="43.17563" lon="6.63959">
        <ele>19.4</ele>
        <time>2021-07-28T08:06:02Z</time>
      </trkpt>
      <trkpt lat="43.17563" lon="6.63961">
        <ele>19.2</ele>
        <time>2021-07-28T08:06:04Z</time>
      </trkpt>
      <trkpt lat="43.17561" lon="6.63971">
        <ele>18.4</ele>
        <time>2021-07-28T08:06:12Z</time>
      </trkpt>
      <trkpt lat="43.1756" lon="6.63974">
        <ele>18.2</ele>
        <time>2021-07-28T08:06:14Z</time>
      </trkpt>
      <trkpt lat="43.17556" lon="6.63987">
        <ele>16.6</ele>
        <time>2021-07-28T08:06:24Z</time>
      </trkpt>
      <trkpt lat="43.17552" lon="6.63995">
        <ele>17.6</ele>
        <time>2021-07-28T08:06:31Z</time>
      </trkpt>
      <trkpt lat="43.17544" lon="6.64003">
        <ele>15.6</ele>
        <time>2021-07-28T08:06:42Z</time>
      </trkpt>
      <trkpt lat="43.17542" lon="6.64003">
        <ele>15.6</ele>
        <time>2021-07-28T08:06:46Z</time>
      </trkpt>
      <trkpt lat="43.17541" lon="6.64002">
        <ele>16.4</ele>
        <time>2021-07-28T08:06:51Z</time>
      </trkpt>
      <trkpt lat="43.17537" lon="6.63995">
        <ele>14.4</ele>
        <time>2021-07-28T08:06:58Z</time>
      </trkpt>
      <trkpt lat="43.17537" lon="6.63994">
        <ele>14.8</ele>
        <time>2021-07-28T08:06:59Z</time>
      </trkpt>
      <trkpt lat="43.17535" lon="6.63993">
        <ele>15</ele>
        <time>2021-07-28T08:07:01Z</time>
      </trkpt>
      <trkpt lat="43.17533" lon="6.63992">
        <ele>15</ele>
        <time>2021-07-28T08:07:04Z</time>
      </trkpt>
      <trkpt lat="43.17529" lon="6.63991">
        <ele>15</ele>
        <time>2021-07-28T08:07:08Z</time>
      </trkpt>
      <trkpt lat="43.17518" lon="6.63988">
        <ele>14.2</ele>
        <time>2021-07-28T08:07:19Z</time>
      </trkpt>
      <trkpt lat="43.17506" lon="6.63982">
        <ele>13.8</ele>
        <time>2021-07-28T08:07:32Z</time>
      </trkpt>
      <trkpt lat="43.17494" lon="6.63978">
        <ele>13.6</ele>
        <time>2021-07-28T08:07:43Z</time>
      </trkpt>
      <trkpt lat="43.17485" lon="6.63979">
        <ele>13.4</ele>
        <time>2021-07-28T08:07:52Z</time>
      </trkpt>
      <trkpt lat="43.17479" lon="6.6398">
        <ele>13.4</ele>
        <time>2021-07-28T08:07:57Z</time>
      </trkpt>
      <trkpt lat="43.17462" lon="6.63981">
        <ele>13.6</ele>
        <time>2021-07-28T08:08:12Z</time>
      </trkpt>
      <trkpt lat="43.17449" lon="6.63982">
        <ele>13.8</ele>
        <time>2021-07-28T08:08:25Z</time>
      </trkpt>
      <trkpt lat="43.17434" lon="6.63983">
        <ele>13.8</ele>
        <time>2021-07-28T08:08:39Z</time>
      </trkpt>
      <trkpt lat="43.17422" lon="6.63974">
        <ele>13.6</ele>
        <time>2021-07-28T08:08:52Z</time>
      </trkpt>
      <trkpt lat="43.1741" lon="6.63964">
        <ele>13.4</ele>
        <time>2021-07-28T08:09:06Z</time>
      </trkpt>
      <trkpt lat="43.17398" lon="6.63956">
        <ele>13.2</ele>
        <time>2021-07-28T08:09:17Z</time>
      </trkpt>
      <trkpt lat="43.17389" lon="6.6395">
        <ele>13</ele>
        <time>2021-07-28T08:09:26Z</time>
      </trkpt>
      <trkpt lat="43.17382" lon="6.63944">
        <ele>13.4</ele>
        <time>2021-07-28T08:09:33Z</time>
      </trkpt>
      <trkpt lat="43.17374" lon="6.63942">
        <ele>13.4</ele>
        <time>2021-07-28T08:09:41Z</time>
      </trkpt>
      <trkpt lat="43.17367" lon="6.63938">
        <ele>13.2</ele>
        <time>2021-07-28T08:09:48Z</time>
      </trkpt>
      <trkpt lat="43.17366" lon="6.63937">
        <ele>13.2</ele>
        <time>2021-07-28T08:09:49Z</time>
      </trkpt>
      <trkpt lat="43.17361" lon="6.63932">
        <ele>13.6</ele>
        <time>2021-07-28T08:09:56Z</time>
      </trkpt>
      <trkpt lat="43.17352" lon="6.63926">
        <ele>13.8</ele>
        <time>2021-07-28T08:10:05Z</time>
      </trkpt>
      <trkpt lat="43.17344" lon="6.63922">
        <ele>14</ele>
        <time>2021-07-28T08:10:13Z</time>
      </trkpt>
      <trkpt lat="43.17334" lon="6.63913">
        <ele>14.4</ele>
        <time>2021-07-28T08:10:24Z</time>
      </trkpt>
      <trkpt lat="43.17332" lon="6.63912">
        <ele>14.6</ele>
        <time>2021-07-28T08:10:26Z</time>
      </trkpt>
      <trkpt lat="43.17327" lon="6.63911">
        <ele>14.8</ele>
        <time>2021-07-28T08:10:31Z</time>
      </trkpt>
      <trkpt lat="43.17326" lon="6.63911">
        <ele>14.8</ele>
        <time>2021-07-28T08:10:33Z</time>
      </trkpt>
      <trkpt lat="43.17323" lon="6.63913">
        <ele>14.6</ele>
        <time>2021-07-28T08:10:37Z</time>
      </trkpt>
      <trkpt lat="43.17321" lon="6.63914">
        <ele>14.4</ele>
        <time>2021-07-28T08:10:39Z</time>
      </trkpt>
      <trkpt lat="43.17316" lon="6.63918">
        <ele>13.4</ele>
        <time>2021-07-28T08:10:45Z</time>
      </trkpt>
      <trkpt lat="43.17309" lon="6.63923">
        <ele>12.8</ele>
        <time>2021-07-28T08:10:52Z</time>
      </trkpt>
      <trkpt lat="43.17305" lon="6.63925">
        <ele>12.2</ele>
        <time>2021-07-28T08:10:57Z</time>
      </trkpt>
      <trkpt lat="43.17301" lon="6.63928">
        <ele>12</ele>
        <time>2021-07-28T08:11:04Z</time>
      </trkpt>
      <trkpt lat="43.173" lon="6.63929">
        <ele>12</ele>
        <time>2021-07-28T08:11:05Z</time>
      </trkpt>
      <trkpt lat="43.17299" lon="6.63931">
        <ele>12.2</ele>
        <time>2021-07-28T08:11:13Z</time>
      </trkpt>
      <trkpt lat="43.17295" lon="6.63936">
        <ele>10.8</ele>
        <time>2021-07-28T08:11:20Z</time>
      </trkpt>
      <trkpt lat="43.17293" lon="6.63941">
        <ele>10.4</ele>
        <time>2021-07-28T08:11:24Z</time>
      </trkpt>
      <trkpt lat="43.17291" lon="6.63946">
        <ele>10.2</ele>
        <time>2021-07-28T08:11:27Z</time>
      </trkpt>
      <trkpt lat="43.1729" lon="6.63955">
        <ele>9.8</ele>
        <time>2021-07-28T08:11:34Z</time>
      </trkpt>
      <trkpt lat="43.17289" lon="6.63957">
        <ele>9.6</ele>
        <time>2021-07-28T08:11:36Z</time>
      </trkpt>
      <trkpt lat="43.17284" lon="6.63968">
        <ele>9.6</ele>
        <time>2021-07-28T08:11:46Z</time>
      </trkpt>
      <trkpt lat="43.17284" lon="6.63968">
        <ele>9.6</ele>
        <time>2021-07-28T08:11:47Z</time>
      </trkpt>
      <trkpt lat="43.17277" lon="6.6397">
        <ele>9.2</ele>
        <time>2021-07-28T08:11:57Z</time>
      </trkpt>
      <trkpt lat="43.17274" lon="6.63975">
        <ele>9.2</ele>
        <time>2021-07-28T08:12:05Z</time>
      </trkpt>
      <trkpt lat="43.17267" lon="6.63981">
        <ele>9.2</ele>
        <time>2021-07-28T08:12:14Z</time>
      </trkpt>
      <trkpt lat="43.17256" lon="6.63988">
        <ele>9.4</ele>
        <time>2021-07-28T08:12:27Z</time>
      </trkpt>
      <trkpt lat="43.17245" lon="6.63995">
        <ele>9.6</ele>
        <time>2021-07-28T08:12:40Z</time>
      </trkpt>
      <trkpt lat="43.17234" lon="6.63997">
        <ele>9.6</ele>
        <time>2021-07-28T08:12:52Z</time>
      </trkpt>
      <trkpt lat="43.17229" lon="6.64001">
        <ele>9.6</ele>
        <time>2021-07-28T08:13:00Z</time>
      </trkpt>
      <trkpt lat="43.17229" lon="6.64002">
        <ele>9.6</ele>
        <time>2021-07-28T08:13:02Z</time>
      </trkpt>
      <trkpt lat="43.17229" lon="6.64003">
        <ele>9.6</ele>
        <time>2021-07-28T08:13:04Z</time>
      </trkpt>
      <trkpt lat="43.17224" lon="6.64008">
        <ele>10</ele>
        <time>2021-07-28T08:13:13Z</time>
      </trkpt>
      <trkpt lat="43.17223" lon="6.6401">
        <ele>11.2</ele>
        <time>2021-07-28T08:13:16Z</time>
      </trkpt>
      <trkpt lat="43.17221" lon="6.64013">
        <ele>11.4</ele>
        <time>2021-07-28T08:13:20Z</time>
      </trkpt>
      <trkpt lat="43.17219" lon="6.64015">
        <ele>11.4</ele>
        <time>2021-07-28T08:13:23Z</time>
      </trkpt>
      <trkpt lat="43.17217" lon="6.64017">
        <ele>11.6</ele>
        <time>2021-07-28T08:13:31Z</time>
      </trkpt>
      <trkpt lat="43.17215" lon="6.64022">
        <ele>11.4</ele>
        <time>2021-07-28T08:13:45Z</time>
      </trkpt>
      <trkpt lat="43.17217" lon="6.64019">
        <ele>11</ele>
        <time>2021-07-28T08:13:52Z</time>
      </trkpt>
      <trkpt lat="43.17217" lon="6.64019">
        <ele>11.6</ele>
        <time>2021-07-28T08:14:04Z</time>
      </trkpt>
      <trkpt lat="43.17216" lon="6.64021">
        <ele>11.2</ele>
        <time>2021-07-28T08:14:12Z</time>
      </trkpt>
      <trkpt lat="43.17212" lon="6.64028">
        <ele>11.2</ele>
        <time>2021-07-28T08:14:22Z</time>
      </trkpt>
      <trkpt lat="43.17211" lon="6.6403">
        <ele>11.2</ele>
        <time>2021-07-28T08:14:24Z</time>
      </trkpt>
      <trkpt lat="43.17209" lon="6.64035">
        <ele>11.2</ele>
        <time>2021-07-28T08:14:28Z</time>
      </trkpt>
      <trkpt lat="43.17203" lon="6.64051">
        <ele>11.2</ele>
        <time>2021-07-28T08:14:39Z</time>
      </trkpt>
      <trkpt lat="43.17201" lon="6.64055">
        <ele>11.6</ele>
        <time>2021-07-28T08:14:48Z</time>
      </trkpt>
      <trkpt lat="43.17201" lon="6.64054">
        <ele>11.6</ele>
        <time>2021-07-28T08:15:06Z</time>
      </trkpt>
      <trkpt lat="43.17201" lon="6.64055">
        <ele>11.6</ele>
        <time>2021-07-28T08:15:25Z</time>
      </trkpt>
      <trkpt lat="43.17199" lon="6.64059">
        <ele>11.2</ele>
        <time>2021-07-28T08:15:39Z</time>
      </trkpt>
      <trkpt lat="43.17195" lon="6.64072">
        <ele>12.2</ele>
        <time>2021-07-28T08:15:52Z</time>
      </trkpt>
      <trkpt lat="43.17195" lon="6.64077">
        <ele>13.2</ele>
        <time>2021-07-28T08:15:58Z</time>
      </trkpt>
      <trkpt lat="43.17197" lon="6.64083">
        <ele>13.6</ele>
        <time>2021-07-28T08:16:04Z</time>
      </trkpt>
      <trkpt lat="43.17196" lon="6.64087">
        <ele>14</ele>
        <time>2021-07-28T08:16:12Z</time>
      </trkpt>
      <trkpt lat="43.17193" lon="6.64089">
        <ele>13.8</ele>
        <time>2021-07-28T08:16:20Z</time>
      </trkpt>
      <trkpt lat="43.17188" lon="6.64093">
        <ele>13.8</ele>
        <time>2021-07-28T08:16:29Z</time>
      </trkpt>
      <trkpt lat="43.17186" lon="6.64097">
        <ele>14.2</ele>
        <time>2021-07-28T08:16:33Z</time>
      </trkpt>
      <trkpt lat="43.17183" lon="6.64106">
        <ele>14.2</ele>
        <time>2021-07-28T08:16:41Z</time>
      </trkpt>
      <trkpt lat="43.17178" lon="6.64118">
        <ele>15</ele>
        <time>2021-07-28T08:16:52Z</time>
      </trkpt>
      <trkpt lat="43.17175" lon="6.64121">
        <ele>15.2</ele>
        <time>2021-07-28T08:16:56Z</time>
      </trkpt>
      <trkpt lat="43.1717" lon="6.64129">
        <ele>16.2</ele>
        <time>2021-07-28T08:17:05Z</time>
      </trkpt>
      <trkpt lat="43.1717" lon="6.64133">
        <ele>16.2</ele>
        <time>2021-07-28T08:17:15Z</time>
      </trkpt>
      <trkpt lat="43.17169" lon="6.6414">
        <ele>17.4</ele>
        <time>2021-07-28T08:17:22Z</time>
      </trkpt>
      <trkpt lat="43.17169" lon="6.64143">
        <ele>17.6</ele>
        <time>2021-07-28T08:17:26Z</time>
      </trkpt>
      <trkpt lat="43.17167" lon="6.64151">
        <ele>18.2</ele>
        <time>2021-07-28T08:17:33Z</time>
      </trkpt>
      <trkpt lat="43.17165" lon="6.64154">
        <ele>18.6</ele>
        <time>2021-07-28T08:17:37Z</time>
      </trkpt>
      <trkpt lat="43.17165" lon="6.64155">
        <ele>18.8</ele>
        <time>2021-07-28T08:17:38Z</time>
      </trkpt>
      <trkpt lat="43.1716" lon="6.64164">
        <ele>19.6</ele>
        <time>2021-07-28T08:17:46Z</time>
      </trkpt>
      <trkpt lat="43.17156" lon="6.64169">
        <ele>20.2</ele>
        <time>2021-07-28T08:17:52Z</time>
      </trkpt>
      <trkpt lat="43.17152" lon="6.64172">
        <ele>20.8</ele>
        <time>2021-07-28T08:17:57Z</time>
      </trkpt>
      <trkpt lat="43.17146" lon="6.64181">
        <ele>21.4</ele>
        <time>2021-07-28T08:18:06Z</time>
      </trkpt>
      <trkpt lat="43.17143" lon="6.64183">
        <ele>21.8</ele>
        <time>2021-07-28T08:18:10Z</time>
      </trkpt>
      <trkpt lat="43.17137" lon="6.64189">
        <ele>22.6</ele>
        <time>2021-07-28T08:18:17Z</time>
      </trkpt>
      <trkpt lat="43.17136" lon="6.64192">
        <ele>22.8</ele>
        <time>2021-07-28T08:18:20Z</time>
      </trkpt>
      <trkpt lat="43.17131" lon="6.64197">
        <ele>23.8</ele>
        <time>2021-07-28T08:18:28Z</time>
      </trkpt>
      <trkpt lat="43.17131" lon="6.64197">
        <ele>23.8</ele>
        <time>2021-07-28T08:18:29Z</time>
      </trkpt>
      <trkpt lat="43.17129" lon="6.64201">
        <ele>24</ele>
        <time>2021-07-28T08:18:35Z</time>
      </trkpt>
      <trkpt lat="43.17126" lon="6.64203">
        <ele>24.4</ele>
        <time>2021-07-28T08:18:38Z</time>
      </trkpt>
      <trkpt lat="43.17123" lon="6.64206">
        <ele>24.6</ele>
        <time>2021-07-28T08:18:47Z</time>
      </trkpt>
      <trkpt lat="43.1712" lon="6.64209">
        <ele>25</ele>
        <time>2021-07-28T08:18:52Z</time>
      </trkpt>
      <trkpt lat="43.17119" lon="6.6421">
        <ele>25.4</ele>
        <time>2021-07-28T08:18:57Z</time>
      </trkpt>
      <trkpt lat="43.17118" lon="6.64211">
        <ele>24.8</ele>
        <time>2021-07-28T08:19:08Z</time>
      </trkpt>
      <trkpt lat="43.17114" lon="6.64216">
        <ele>26</ele>
        <time>2021-07-28T08:19:17Z</time>
      </trkpt>
      <trkpt lat="43.17113" lon="6.64217">
        <ele>26</ele>
        <time>2021-07-28T08:19:19Z</time>
      </trkpt>
      <trkpt lat="43.17108" lon="6.64225">
        <ele>26.6</ele>
        <time>2021-07-28T08:19:28Z</time>
      </trkpt>
      <trkpt lat="43.17105" lon="6.64228">
        <ele>27.4</ele>
        <time>2021-07-28T08:19:32Z</time>
      </trkpt>
      <trkpt lat="43.17102" lon="6.64233">
        <ele>28.2</ele>
        <time>2021-07-28T08:19:39Z</time>
      </trkpt>
      <trkpt lat="43.17101" lon="6.64234">
        <ele>28.2</ele>
        <time>2021-07-28T08:19:40Z</time>
      </trkpt>
      <trkpt lat="43.171" lon="6.64236">
        <ele>28.2</ele>
        <time>2021-07-28T08:19:43Z</time>
      </trkpt>
      <trkpt lat="43.17099" lon="6.64238">
        <ele>28.4</ele>
        <time>2021-07-28T08:19:45Z</time>
      </trkpt>
      <trkpt lat="43.17095" lon="6.64241">
        <ele>28.8</ele>
        <time>2021-07-28T08:19:50Z</time>
      </trkpt>
      <trkpt lat="43.17093" lon="6.64242">
        <ele>29.4</ele>
        <time>2021-07-28T08:19:53Z</time>
      </trkpt>
      <trkpt lat="43.17092" lon="6.64242">
        <ele>29.6</ele>
        <time>2021-07-28T08:19:55Z</time>
      </trkpt>
      <trkpt lat="43.17092" lon="6.64243">
        <ele>29.6</ele>
        <time>2021-07-28T08:19:57Z</time>
      </trkpt>
      <trkpt lat="43.17091" lon="6.64244">
        <ele>29.6</ele>
        <time>2021-07-28T08:19:59Z</time>
      </trkpt>
      <trkpt lat="43.1709" lon="6.64244">
        <ele>30</ele>
        <time>2021-07-28T08:20:06Z</time>
      </trkpt>
      <trkpt lat="43.17086" lon="6.6425">
        <ele>30.6</ele>
        <time>2021-07-28T08:20:16Z</time>
      </trkpt>
      <trkpt lat="43.17079" lon="6.64258">
        <ele>31.8</ele>
        <time>2021-07-28T08:20:25Z</time>
      </trkpt>
      <trkpt lat="43.17078" lon="6.6426">
        <ele>32.6</ele>
        <time>2021-07-28T08:20:29Z</time>
      </trkpt>
      <trkpt lat="43.17078" lon="6.64262">
        <ele>32.8</ele>
        <time>2021-07-28T08:20:31Z</time>
      </trkpt>
      <trkpt lat="43.17074" lon="6.64267">
        <ele>33.6</ele>
        <time>2021-07-28T08:20:39Z</time>
      </trkpt>
      <trkpt lat="43.17073" lon="6.64268">
        <ele>34</ele>
        <time>2021-07-28T08:20:41Z</time>
      </trkpt>
      <trkpt lat="43.17071" lon="6.64273">
        <ele>35</ele>
        <time>2021-07-28T08:20:48Z</time>
      </trkpt>
      <trkpt lat="43.17069" lon="6.64278">
        <ele>36</ele>
        <time>2021-07-28T08:20:54Z</time>
      </trkpt>
      <trkpt lat="43.17068" lon="6.64277">
        <ele>36.2</ele>
        <time>2021-07-28T08:20:55Z</time>
      </trkpt>
      <trkpt lat="43.17067" lon="6.6428">
        <ele>36.4</ele>
        <time>2021-07-28T08:21:07Z</time>
      </trkpt>
      <trkpt lat="43.17065" lon="6.64286">
        <ele>37.2</ele>
        <time>2021-07-28T08:21:13Z</time>
      </trkpt>
      <trkpt lat="43.17062" lon="6.64291">
        <ele>37.8</ele>
        <time>2021-07-28T08:21:17Z</time>
      </trkpt>
      <trkpt lat="43.17061" lon="6.64293">
        <ele>38.2</ele>
        <time>2021-07-28T08:21:19Z</time>
      </trkpt>
      <trkpt lat="43.17058" lon="6.64299">
        <ele>39.2</ele>
        <time>2021-07-28T08:21:25Z</time>
      </trkpt>
      <trkpt lat="43.17057" lon="6.64303">
        <ele>40</ele>
        <time>2021-07-28T08:21:29Z</time>
      </trkpt>
      <trkpt lat="43.17057" lon="6.64303">
        <ele>40.2</ele>
        <time>2021-07-28T08:21:30Z</time>
      </trkpt>
      <trkpt lat="43.17056" lon="6.64305">
        <ele>40.4</ele>
        <time>2021-07-28T08:21:37Z</time>
      </trkpt>
      <trkpt lat="43.17055" lon="6.64306">
        <ele>41.2</ele>
        <time>2021-07-28T08:21:49Z</time>
      </trkpt>
      <trkpt lat="43.17055" lon="6.64305">
        <ele>41.4</ele>
        <time>2021-07-28T08:21:51Z</time>
      </trkpt>
      <trkpt lat="43.17055" lon="6.64306">
        <ele>41.2</ele>
        <time>2021-07-28T08:21:59Z</time>
      </trkpt>
      <trkpt lat="43.17054" lon="6.64307">
        <ele>41.2</ele>
        <time>2021-07-28T08:22:01Z</time>
      </trkpt>
      <trkpt lat="43.17054" lon="6.6431">
        <ele>41.6</ele>
        <time>2021-07-28T08:22:08Z</time>
      </trkpt>
      <trkpt lat="43.1705" lon="6.64317">
        <ele>42</ele>
        <time>2021-07-28T08:22:16Z</time>
      </trkpt>
      <trkpt lat="43.17047" lon="6.64322">
        <ele>42.4</ele>
        <time>2021-07-28T08:22:21Z</time>
      </trkpt>
      <trkpt lat="43.17042" lon="6.64326">
        <ele>42.8</ele>
        <time>2021-07-28T08:22:26Z</time>
      </trkpt>
      <trkpt lat="43.17028" lon="6.64336">
        <ele>42.6</ele>
        <time>2021-07-28T08:22:41Z</time>
      </trkpt>
      <trkpt lat="43.17015" lon="6.64347">
        <ele>42.4</ele>
        <time>2021-07-28T08:22:56Z</time>
      </trkpt>
      <trkpt lat="43.17008" lon="6.64356">
        <ele>43.6</ele>
        <time>2021-07-28T08:23:04Z</time>
      </trkpt>
      <trkpt lat="43.17004" lon="6.64361">
        <ele>43.8</ele>
        <time>2021-07-28T08:23:09Z</time>
      </trkpt>
      <trkpt lat="43.16997" lon="6.6437">
        <ele>44.8</ele>
        <time>2021-07-28T08:23:17Z</time>
      </trkpt>
      <trkpt lat="43.16993" lon="6.64375">
        <ele>45.2</ele>
        <time>2021-07-28T08:23:22Z</time>
      </trkpt>
      <trkpt lat="43.16989" lon="6.6438">
        <ele>45.8</ele>
        <time>2021-07-28T08:23:27Z</time>
      </trkpt>
      <trkpt lat="43.16983" lon="6.64385">
        <ele>46.2</ele>
        <time>2021-07-28T08:23:34Z</time>
      </trkpt>
      <trkpt lat="43.16972" lon="6.64394">
        <ele>46.2</ele>
        <time>2021-07-28T08:23:46Z</time>
      </trkpt>
      <trkpt lat="43.16968" lon="6.64408">
        <ele>46</ele>
        <time>2021-07-28T08:23:55Z</time>
      </trkpt>
      <trkpt lat="43.16968" lon="6.64409">
        <ele>46</ele>
        <time>2021-07-28T08:23:56Z</time>
      </trkpt>
      <trkpt lat="43.16968" lon="6.64412">
        <ele>46.2</ele>
        <time>2021-07-28T08:23:59Z</time>
      </trkpt>
      <trkpt lat="43.16967" lon="6.6442">
        <ele>46.2</ele>
        <time>2021-07-28T08:24:03Z</time>
      </trkpt>
      <trkpt lat="43.16962" lon="6.64435">
        <ele>46.6</ele>
        <time>2021-07-28T08:24:13Z</time>
      </trkpt>
      <trkpt lat="43.16961" lon="6.64436">
        <ele>46.8</ele>
        <time>2021-07-28T08:24:14Z</time>
      </trkpt>
      <trkpt lat="43.16954" lon="6.64439">
        <ele>47.2</ele>
        <time>2021-07-28T08:24:21Z</time>
      </trkpt>
      <trkpt lat="43.16952" lon="6.64441">
        <ele>47.2</ele>
        <time>2021-07-28T08:24:26Z</time>
      </trkpt>
      <trkpt lat="43.16951" lon="6.64442">
        <ele>47.2</ele>
        <time>2021-07-28T08:24:28Z</time>
      </trkpt>
      <trkpt lat="43.16949" lon="6.64442">
        <ele>47.4</ele>
        <time>2021-07-28T08:24:30Z</time>
      </trkpt>
      <trkpt lat="43.16943" lon="6.64447">
        <ele>47.6</ele>
        <time>2021-07-28T08:24:38Z</time>
      </trkpt>
      <trkpt lat="43.16943" lon="6.64448">
        <ele>47.8</ele>
        <time>2021-07-28T08:24:39Z</time>
      </trkpt>
      <trkpt lat="43.16942" lon="6.64455">
        <ele>49</ele>
        <time>2021-07-28T08:24:44Z</time>
      </trkpt>
      <trkpt lat="43.16938" lon="6.6446">
        <ele>50</ele>
        <time>2021-07-28T08:24:49Z</time>
      </trkpt>
      <trkpt lat="43.16934" lon="6.64462">
        <ele>51</ele>
        <time>2021-07-28T08:24:57Z</time>
      </trkpt>
      <trkpt lat="43.16933" lon="6.64463">
        <ele>51.2</ele>
        <time>2021-07-28T08:24:58Z</time>
      </trkpt>
      <trkpt lat="43.16927" lon="6.64464">
        <ele>52.2</ele>
        <time>2021-07-28T08:25:04Z</time>
      </trkpt>
      <trkpt lat="43.16923" lon="6.64466">
        <ele>52.8</ele>
        <time>2021-07-28T08:25:09Z</time>
      </trkpt>
      <trkpt lat="43.16919" lon="6.64467">
        <ele>53.2</ele>
        <time>2021-07-28T08:25:13Z</time>
      </trkpt>
      <trkpt lat="43.16917" lon="6.64475">
        <ele>54</ele>
        <time>2021-07-28T08:25:19Z</time>
      </trkpt>
      <trkpt lat="43.16917" lon="6.64478">
        <ele>54.4</ele>
        <time>2021-07-28T08:25:21Z</time>
      </trkpt>
      <trkpt lat="43.16917" lon="6.64483">
        <ele>54.8</ele>
        <time>2021-07-28T08:25:24Z</time>
      </trkpt>
      <trkpt lat="43.16918" lon="6.64488">
        <ele>55.6</ele>
        <time>2021-07-28T08:25:28Z</time>
      </trkpt>
      <trkpt lat="43.16919" lon="6.6449">
        <ele>56</ele>
        <time>2021-07-28T08:25:30Z</time>
      </trkpt>
      <trkpt lat="43.16921" lon="6.64495">
        <ele>57</ele>
        <time>2021-07-28T08:25:35Z</time>
      </trkpt>
      <trkpt lat="43.16923" lon="6.645">
        <ele>58.2</ele>
        <time>2021-07-28T08:25:41Z</time>
      </trkpt>
      <trkpt lat="43.16924" lon="6.645">
        <ele>58.8</ele>
        <time>2021-07-28T08:25:43Z</time>
      </trkpt>
      <trkpt lat="43.16924" lon="6.645">
        <ele>59.2</ele>
        <time>2021-07-28T08:25:47Z</time>
      </trkpt>
      <trkpt lat="43.16927" lon="6.64502">
        <ele>59.2</ele>
        <time>2021-07-28T08:25:56Z</time>
      </trkpt>
      <trkpt lat="43.16935" lon="6.64509">
        <ele>59.8</ele>
        <time>2021-07-28T08:26:07Z</time>
      </trkpt>
      <trkpt lat="43.16938" lon="6.64514">
        <ele>60.4</ele>
        <time>2021-07-28T08:26:12Z</time>
      </trkpt>
      <trkpt lat="43.16937" lon="6.64519">
        <ele>61.2</ele>
        <time>2021-07-28T08:26:16Z</time>
      </trkpt>
      <trkpt lat="43.16937" lon="6.64519">
        <ele>61.4</ele>
        <time>2021-07-28T08:26:17Z</time>
      </trkpt>
      <trkpt lat="43.16936" lon="6.64523">
        <ele>61.8</ele>
        <time>2021-07-28T08:26:21Z</time>
      </trkpt>
      <trkpt lat="43.16935" lon="6.64529">
        <ele>62.6</ele>
        <time>2021-07-28T08:26:26Z</time>
      </trkpt>
      <trkpt lat="43.16935" lon="6.6453">
        <ele>62.8</ele>
        <time>2021-07-28T08:26:27Z</time>
      </trkpt>
      <trkpt lat="43.16933" lon="6.64532">
        <ele>63.4</ele>
        <time>2021-07-28T08:26:30Z</time>
      </trkpt>
      <trkpt lat="43.16929" lon="6.64535">
        <ele>63.8</ele>
        <time>2021-07-28T08:26:34Z</time>
      </trkpt>
      <trkpt lat="43.16927" lon="6.64538">
        <ele>64</ele>
        <time>2021-07-28T08:26:37Z</time>
      </trkpt>
      <trkpt lat="43.16922" lon="6.64543">
        <ele>65</ele>
        <time>2021-07-28T08:26:44Z</time>
      </trkpt>
      <trkpt lat="43.16922" lon="6.64544">
        <ele>65</ele>
        <time>2021-07-28T08:26:45Z</time>
      </trkpt>
      <trkpt lat="43.16922" lon="6.64545">
        <ele>65.2</ele>
        <time>2021-07-28T08:26:48Z</time>
      </trkpt>
      <trkpt lat="43.16919" lon="6.64546">
        <ele>65.4</ele>
        <time>2021-07-28T08:26:57Z</time>
      </trkpt>
      <trkpt lat="43.16912" lon="6.64547">
        <ele>66</ele>
        <time>2021-07-28T08:27:06Z</time>
      </trkpt>
      <trkpt lat="43.16911" lon="6.64549">
        <ele>66.2</ele>
        <time>2021-07-28T08:27:07Z</time>
      </trkpt>
      <trkpt lat="43.16905" lon="6.64556">
        <ele>67</ele>
        <time>2021-07-28T08:27:16Z</time>
      </trkpt>
      <trkpt lat="43.16904" lon="6.6456">
        <ele>67</ele>
        <time>2021-07-28T08:27:18Z</time>
      </trkpt>
      <trkpt lat="43.16904" lon="6.64564">
        <ele>67.2</ele>
        <time>2021-07-28T08:27:23Z</time>
      </trkpt>
      <trkpt lat="43.16904" lon="6.64565">
        <ele>66.4</ele>
        <time>2021-07-28T08:27:26Z</time>
      </trkpt>
      <trkpt lat="43.16905" lon="6.64567">
        <ele>68</ele>
        <time>2021-07-28T08:27:31Z</time>
      </trkpt>
      <trkpt lat="43.16904" lon="6.64568">
        <ele>68.6</ele>
        <time>2021-07-28T08:27:35Z</time>
      </trkpt>
      <trkpt lat="43.16901" lon="6.64571">
        <ele>66.8</ele>
        <time>2021-07-28T08:27:42Z</time>
      </trkpt>
      <trkpt lat="43.169" lon="6.64573">
        <ele>67</ele>
        <time>2021-07-28T08:27:44Z</time>
      </trkpt>
      <trkpt lat="43.16896" lon="6.64578">
        <ele>67</ele>
        <time>2021-07-28T08:27:50Z</time>
      </trkpt>
      <trkpt lat="43.16894" lon="6.64579">
        <ele>67</ele>
        <time>2021-07-28T08:27:53Z</time>
      </trkpt>
      <trkpt lat="43.1689" lon="6.64581">
        <ele>68.2</ele>
        <time>2021-07-28T08:28:00Z</time>
      </trkpt>
      <trkpt lat="43.1689" lon="6.64581">
        <ele>69.6</ele>
        <time>2021-07-28T08:28:03Z</time>
      </trkpt>
      <trkpt lat="43.1689" lon="6.64581">
        <ele>70.2</ele>
        <time>2021-07-28T08:28:04Z</time>
      </trkpt>
      <trkpt lat="43.1689" lon="6.6458">
        <ele>70.8</ele>
        <time>2021-07-28T08:28:08Z</time>
      </trkpt>
      <trkpt lat="43.16891" lon="6.64578">
        <ele>71</ele>
        <time>2021-07-28T08:28:14Z</time>
      </trkpt>
      <trkpt lat="43.16888" lon="6.64575">
        <ele>70.8</ele>
        <time>2021-07-28T08:28:23Z</time>
      </trkpt>
      <trkpt lat="43.16887" lon="6.64574">
        <ele>70.8</ele>
        <time>2021-07-28T08:28:28Z</time>
      </trkpt>
      <trkpt lat="43.1689" lon="6.64575">
        <ele>70.8</ele>
        <time>2021-07-28T08:28:36Z</time>
      </trkpt>
      <trkpt lat="43.16894" lon="6.64575">
        <ele>71</ele>
        <time>2021-07-28T08:28:44Z</time>
      </trkpt>
      <trkpt lat="43.1689" lon="6.64572">
        <ele>71</ele>
        <time>2021-07-28T08:28:55Z</time>
      </trkpt>
      <trkpt lat="43.16889" lon="6.64569">
        <ele>71.2</ele>
        <time>2021-07-28T08:29:03Z</time>
      </trkpt>
      <trkpt lat="43.16889" lon="6.64569">
        <ele>71.2</ele>
        <time>2021-07-28T08:29:04Z</time>
      </trkpt>
      <trkpt lat="43.16889" lon="6.64569">
        <ele>71.2</ele>
        <time>2021-07-28T08:29:14Z</time>
      </trkpt>
      <trkpt lat="43.16889" lon="6.64569">
        <ele>71</ele>
        <time>2021-07-28T08:29:30Z</time>
      </trkpt>
      <trkpt lat="43.16889" lon="6.64569">
        <ele>71</ele>
        <time>2021-07-28T08:29:48Z</time>
      </trkpt>
      <trkpt lat="43.16889" lon="6.64568">
        <ele>70.6</ele>
        <time>2021-07-28T08:30:05Z</time>
      </trkpt>
      <trkpt lat="43.16888" lon="6.64569">
        <ele>70.6</ele>
        <time>2021-07-28T08:30:16Z</time>
      </trkpt>
      <trkpt lat="43.16888" lon="6.64569">
        <ele>71</ele>
        <time>2021-07-28T08:30:33Z</time>
      </trkpt>
      <trkpt lat="43.16888" lon="6.64569">
        <ele>71</ele>
        <time>2021-07-28T08:30:46Z</time>
      </trkpt>
      <trkpt lat="43.16888" lon="6.64569">
        <ele>71.2</ele>
        <time>2021-07-28T08:31:01Z</time>
      </trkpt>
      <trkpt lat="43.16888" lon="6.64569">
        <ele>71.2</ele>
        <time>2021-07-28T08:31:16Z</time>
      </trkpt>
      <trkpt lat="43.16888" lon="6.64569">
        <ele>71.4</ele>
        <time>2021-07-28T08:31:19Z</time>
      </trkpt>
      <trkpt lat="43.16888" lon="6.64569">
        <ele>71.4</ele>
        <time>2021-07-28T08:31:28Z</time>
      </trkpt>
      <trkpt lat="43.16889" lon="6.6457">
        <ele>71.4</ele>
        <time>2021-07-28T08:31:37Z</time>
      </trkpt>
      <trkpt lat="43.16888" lon="6.64569">
        <ele>70.8</ele>
        <time>2021-07-28T08:31:47Z</time>
      </trkpt>
      <trkpt lat="43.16888" lon="6.64569">
        <ele>70.8</ele>
        <time>2021-07-28T08:32:01Z</time>
      </trkpt>
      <trkpt lat="43.16888" lon="6.64568">
        <ele>70.4</ele>
        <time>2021-07-28T08:32:11Z</time>
      </trkpt>
      <trkpt lat="43.16888" lon="6.64568">
        <ele>70.8</ele>
        <time>2021-07-28T08:32:12Z</time>
      </trkpt>
      <trkpt lat="43.16888" lon="6.64569">
        <ele>71</ele>
        <time>2021-07-28T08:32:42Z</time>
      </trkpt>
      <trkpt lat="43.16888" lon="6.64567">
        <ele>70.8</ele>
        <time>2021-07-28T08:32:56Z</time>
      </trkpt>
      <trkpt lat="43.16888" lon="6.64571">
        <ele>69.6</ele>
        <time>2021-07-28T08:33:09Z</time>
      </trkpt>
      <trkpt lat="43.16887" lon="6.64572">
        <ele>71.2</ele>
        <time>2021-07-28T08:33:10Z</time>
      </trkpt>
      <trkpt lat="43.16886" lon="6.64575">
        <ele>71</ele>
        <time>2021-07-28T08:33:18Z</time>
      </trkpt>
      <trkpt lat="43.16887" lon="6.64575">
        <ele>71.4</ele>
        <time>2021-07-28T08:33:31Z</time>
      </trkpt>
      <trkpt lat="43.16885" lon="6.64575">
        <ele>71</ele>
        <time>2021-07-28T08:33:44Z</time>
      </trkpt>
      <trkpt lat="43.16887" lon="6.64575">
        <ele>70.6</ele>
        <time>2021-07-28T08:33:58Z</time>
      </trkpt>
      <trkpt lat="43.16891" lon="6.64578">
        <ele>70.6</ele>
        <time>2021-07-28T08:34:07Z</time>
      </trkpt>
      <trkpt lat="43.16893" lon="6.64579">
        <ele>70.8</ele>
        <time>2021-07-28T08:34:21Z</time>
      </trkpt>
      <trkpt lat="43.16893" lon="6.64579">
        <ele>70.8</ele>
        <time>2021-07-28T08:34:34Z</time>
      </trkpt>
      <trkpt lat="43.16893" lon="6.64579">
        <ele>70.8</ele>
        <time>2021-07-28T08:34:36Z</time>
      </trkpt>
      <trkpt lat="43.16895" lon="6.64579">
        <ele>70.8</ele>
        <time>2021-07-28T08:34:48Z</time>
      </trkpt>
      <trkpt lat="43.16894" lon="6.64578">
        <ele>70.8</ele>
        <time>2021-07-28T08:35:02Z</time>
      </trkpt>
      <trkpt lat="43.16894" lon="6.64578">
        <ele>70.8</ele>
        <time>2021-07-28T08:35:13Z</time>
      </trkpt>
      <trkpt lat="43.16894" lon="6.64579">
        <ele>70.8</ele>
        <time>2021-07-28T08:35:29Z</time>
      </trkpt>
      <trkpt lat="43.16895" lon="6.6458">
        <ele>70.8</ele>
        <time>2021-07-28T08:35:40Z</time>
      </trkpt>
      <trkpt lat="43.16894" lon="6.64579">
        <ele>70.8</ele>
        <time>2021-07-28T08:35:54Z</time>
      </trkpt>
      <trkpt lat="43.16892" lon="6.64581">
        <ele>70.8</ele>
        <time>2021-07-28T08:36:04Z</time>
      </trkpt>
      <trkpt lat="43.16893" lon="6.64577">
        <ele>70.8</ele>
        <time>2021-07-28T08:36:12Z</time>
      </trkpt>
      <trkpt lat="43.16892" lon="6.64583">
        <ele>70.8</ele>
        <time>2021-07-28T08:36:18Z</time>
      </trkpt>
      <trkpt lat="43.16892" lon="6.64583">
        <ele>70.8</ele>
        <time>2021-07-28T08:36:19Z</time>
      </trkpt>
      <trkpt lat="43.16891" lon="6.64584">
        <ele>70.8</ele>
        <time>2021-07-28T08:36:22Z</time>
      </trkpt>
      <trkpt lat="43.16889" lon="6.64587">
        <ele>70.8</ele>
        <time>2021-07-28T08:36:27Z</time>
      </trkpt>
      <trkpt lat="43.16888" lon="6.64587">
        <ele>70</ele>
        <time>2021-07-28T08:36:35Z</time>
      </trkpt>
      <trkpt lat="43.16889" lon="6.64588">
        <ele>70.2</ele>
        <time>2021-07-28T08:36:40Z</time>
      </trkpt>
      <trkpt lat="43.16888" lon="6.64591">
        <ele>69</ele>
        <time>2021-07-28T08:36:45Z</time>
      </trkpt>
      <trkpt lat="43.16887" lon="6.64593">
        <ele>68.8</ele>
        <time>2021-07-28T08:36:50Z</time>
      </trkpt>
      <trkpt lat="43.16886" lon="6.64593">
        <ele>69.6</ele>
        <time>2021-07-28T08:37:00Z</time>
      </trkpt>
      <trkpt lat="43.16886" lon="6.64592">
        <ele>68.8</ele>
        <time>2021-07-28T08:37:09Z</time>
      </trkpt>
      <trkpt lat="43.16887" lon="6.64593">
        <ele>68.4</ele>
        <time>2021-07-28T08:37:19Z</time>
      </trkpt>
      <trkpt lat="43.16888" lon="6.64594">
        <ele>68.2</ele>
        <time>2021-07-28T08:37:37Z</time>
      </trkpt>
      <trkpt lat="43.16888" lon="6.64594">
        <ele>68</ele>
        <time>2021-07-28T08:37:39Z</time>
      </trkpt>
      <trkpt lat="43.16889" lon="6.64595">
        <ele>68</ele>
        <time>2021-07-28T08:37:54Z</time>
      </trkpt>
      <trkpt lat="43.16891" lon="6.64594">
        <ele>67.8</ele>
        <time>2021-07-28T08:38:08Z</time>
      </trkpt>
      <trkpt lat="43.16891" lon="6.64594">
        <ele>68</ele>
        <time>2021-07-28T08:38:26Z</time>
      </trkpt>
      <trkpt lat="43.16892" lon="6.64595">
        <ele>68.2</ele>
        <time>2021-07-28T08:38:42Z</time>
      </trkpt>
      <trkpt lat="43.16892" lon="6.64594">
        <ele>69</ele>
        <time>2021-07-28T08:38:45Z</time>
      </trkpt>
      <trkpt lat="43.16892" lon="6.64595">
        <ele>69</ele>
        <time>2021-07-28T08:38:54Z</time>
      </trkpt>
      <trkpt lat="43.16891" lon="6.64594">
        <ele>70</ele>
        <time>2021-07-28T08:39:08Z</time>
      </trkpt>
      <trkpt lat="43.16892" lon="6.64594">
        <ele>70</ele>
        <time>2021-07-28T08:39:11Z</time>
      </trkpt>
      <trkpt lat="43.16892" lon="6.64593">
        <ele>69</ele>
        <time>2021-07-28T08:39:13Z</time>
      </trkpt>
      <trkpt lat="43.16893" lon="6.64593">
        <ele>68.4</ele>
        <time>2021-07-28T08:39:23Z</time>
      </trkpt>
      <trkpt lat="43.16896" lon="6.64589">
        <ele>68.6</ele>
        <time>2021-07-28T08:39:38Z</time>
      </trkpt>
      <trkpt lat="43.16898" lon="6.6458">
        <ele>69</ele>
        <time>2021-07-28T08:39:49Z</time>
      </trkpt>
      <trkpt lat="43.16896" lon="6.64577">
        <ele>69</ele>
        <time>2021-07-28T08:39:52Z</time>
      </trkpt>
      <trkpt lat="43.16893" lon="6.64576">
        <ele>69</ele>
        <time>2021-07-28T08:39:56Z</time>
      </trkpt>
      <trkpt lat="43.16893" lon="6.64575">
        <ele>69</ele>
        <time>2021-07-28T08:39:57Z</time>
      </trkpt>
      <trkpt lat="43.16895" lon="6.64579">
        <ele>69</ele>
        <time>2021-07-28T08:40:06Z</time>
      </trkpt>
      <trkpt lat="43.16895" lon="6.64579">
        <ele>69</ele>
        <time>2021-07-28T08:40:19Z</time>
      </trkpt>
      <trkpt lat="43.16896" lon="6.64578">
        <ele>69</ele>
        <time>2021-07-28T08:40:35Z</time>
      </trkpt>
      <trkpt lat="43.16895" lon="6.64579">
        <ele>69</ele>
        <time>2021-07-28T08:40:50Z</time>
      </trkpt>
      <trkpt lat="43.16895" lon="6.6458">
        <ele>69</ele>
        <time>2021-07-28T08:41:01Z</time>
      </trkpt>
      <trkpt lat="43.16897" lon="6.64579">
        <ele>69</ele>
        <time>2021-07-28T08:41:10Z</time>
      </trkpt>
      <trkpt lat="43.16897" lon="6.64578">
        <ele>69</ele>
        <time>2021-07-28T08:41:21Z</time>
      </trkpt>
      <trkpt lat="43.16896" lon="6.64579">
        <ele>69</ele>
        <time>2021-07-28T08:41:40Z</time>
      </trkpt>
      <trkpt lat="43.16897" lon="6.6458">
        <ele>69</ele>
        <time>2021-07-28T08:41:56Z</time>
      </trkpt>
      <trkpt lat="43.16897" lon="6.64579">
        <ele>69</ele>
        <time>2021-07-28T08:42:08Z</time>
      </trkpt>
      <trkpt lat="43.16902" lon="6.64576">
        <ele>69</ele>
        <time>2021-07-28T08:42:18Z</time>
      </trkpt>
      <trkpt lat="43.16903" lon="6.64577">
        <ele>69</ele>
        <time>2021-07-28T08:42:27Z</time>
      </trkpt>
      <trkpt lat="43.16904" lon="6.64576">
        <ele>69</ele>
        <time>2021-07-28T08:42:36Z</time>
      </trkpt>
      <trkpt lat="43.16904" lon="6.64576">
        <ele>69</ele>
        <time>2021-07-28T08:42:43Z</time>
      </trkpt>
      <trkpt lat="43.16904" lon="6.64576">
        <ele>69</ele>
        <time>2021-07-28T08:42:50Z</time>
      </trkpt>
      <trkpt lat="43.16904" lon="6.64576">
        <ele>69</ele>
        <time>2021-07-28T08:43:00Z</time>
      </trkpt>
      <trkpt lat="43.16906" lon="6.64576">
        <ele>69</ele>
        <time>2021-07-28T08:43:17Z</time>
      </trkpt>
      <trkpt lat="43.16906" lon="6.64575">
        <ele>69</ele>
        <time>2021-07-28T08:43:30Z</time>
      </trkpt>
      <trkpt lat="43.16908" lon="6.64573">
        <ele>69</ele>
        <time>2021-07-28T08:43:40Z</time>
      </trkpt>
      <trkpt lat="43.16909" lon="6.6457">
        <ele>69</ele>
        <time>2021-07-28T08:43:59Z</time>
      </trkpt>
      <trkpt lat="43.16912" lon="6.64564">
        <ele>65.6</ele>
        <time>2021-07-28T08:44:05Z</time>
      </trkpt>
      <trkpt lat="43.16914" lon="6.64561">
        <ele>65.4</ele>
        <time>2021-07-28T08:44:09Z</time>
      </trkpt>
      <trkpt lat="43.16915" lon="6.64559">
        <ele>64.8</ele>
        <time>2021-07-28T08:44:13Z</time>
      </trkpt>
      <trkpt lat="43.16914" lon="6.64558">
        <ele>64.8</ele>
        <time>2021-07-28T08:44:18Z</time>
      </trkpt>
      <trkpt lat="43.16914" lon="6.64557">
        <ele>64.6</ele>
        <time>2021-07-28T08:44:21Z</time>
      </trkpt>
      <trkpt lat="43.16912" lon="6.64557">
        <ele>64.6</ele>
        <time>2021-07-28T08:44:34Z</time>
      </trkpt>
      <trkpt lat="43.16913" lon="6.64556">
        <ele>64.8</ele>
        <time>2021-07-28T08:44:44Z</time>
      </trkpt>
      <trkpt lat="43.16915" lon="6.64555">
        <ele>64.2</ele>
        <time>2021-07-28T08:44:54Z</time>
      </trkpt>
      <trkpt lat="43.16916" lon="6.64555">
        <ele>63.8</ele>
        <time>2021-07-28T08:45:07Z</time>
      </trkpt>
      <trkpt lat="43.16916" lon="6.64555">
        <ele>63.8</ele>
        <time>2021-07-28T08:45:10Z</time>
      </trkpt>
      <trkpt lat="43.16915" lon="6.64554">
        <ele>64.2</ele>
        <time>2021-07-28T08:45:24Z</time>
      </trkpt>
      <trkpt lat="43.16919" lon="6.64552">
        <ele>63.8</ele>
        <time>2021-07-28T08:45:37Z</time>
      </trkpt>
      <trkpt lat="43.16923" lon="6.64548">
        <ele>64.2</ele>
        <time>2021-07-28T08:45:46Z</time>
      </trkpt>
      <trkpt lat="43.16925" lon="6.64546">
        <ele>64.4</ele>
        <time>2021-07-28T08:45:50Z</time>
      </trkpt>
      <trkpt lat="43.16927" lon="6.64544">
        <ele>64.2</ele>
        <time>2021-07-28T08:45:54Z</time>
      </trkpt>
      <trkpt lat="43.1693" lon="6.6454">
        <ele>63.6</ele>
        <time>2021-07-28T08:45:58Z</time>
      </trkpt>
      <trkpt lat="43.16935" lon="6.64535">
        <ele>63</ele>
        <time>2021-07-28T08:46:04Z</time>
      </trkpt>
      <trkpt lat="43.16937" lon="6.64532">
        <ele>62.6</ele>
        <time>2021-07-28T08:46:09Z</time>
      </trkpt>
      <trkpt lat="43.16937" lon="6.6453">
        <ele>62.6</ele>
        <time>2021-07-28T08:46:10Z</time>
      </trkpt>
      <trkpt lat="43.16937" lon="6.64526">
        <ele>62</ele>
        <time>2021-07-28T08:46:14Z</time>
      </trkpt>
      <trkpt lat="43.16938" lon="6.64524">
        <ele>61.6</ele>
        <time>2021-07-28T08:46:16Z</time>
      </trkpt>
      <trkpt lat="43.16939" lon="6.64522">
        <ele>61.6</ele>
        <time>2021-07-28T08:46:18Z</time>
      </trkpt>
      <trkpt lat="43.1694" lon="6.6452">
        <ele>61.6</ele>
        <time>2021-07-28T08:46:20Z</time>
      </trkpt>
      <trkpt lat="43.16942" lon="6.64517">
        <ele>60.6</ele>
        <time>2021-07-28T08:46:24Z</time>
      </trkpt>
      <trkpt lat="43.16941" lon="6.64516">
        <ele>60.4</ele>
        <time>2021-07-28T08:46:25Z</time>
      </trkpt>
      <trkpt lat="43.1694" lon="6.64515">
        <ele>60.2</ele>
        <time>2021-07-28T08:46:26Z</time>
      </trkpt>
      <trkpt lat="43.16939" lon="6.64513">
        <ele>59.8</ele>
        <time>2021-07-28T08:46:28Z</time>
      </trkpt>
      <trkpt lat="43.16938" lon="6.64512">
        <ele>59.6</ele>
        <time>2021-07-28T08:46:30Z</time>
      </trkpt>
      <trkpt lat="43.16937" lon="6.64511">
        <ele>59.4</ele>
        <time>2021-07-28T08:46:32Z</time>
      </trkpt>
      <trkpt lat="43.16937" lon="6.64511">
        <ele>59.4</ele>
        <time>2021-07-28T08:46:33Z</time>
      </trkpt>
      <trkpt lat="43.16937" lon="6.64511">
        <ele>59.2</ele>
        <time>2021-07-28T08:46:34Z</time>
      </trkpt>
      <trkpt lat="43.16936" lon="6.6451">
        <ele>59</ele>
        <time>2021-07-28T08:46:35Z</time>
      </trkpt>
      <trkpt lat="43.16935" lon="6.6451">
        <ele>58.6</ele>
        <time>2021-07-28T08:46:43Z</time>
      </trkpt>
      <trkpt lat="43.16932" lon="6.64506">
        <ele>58.2</ele>
        <time>2021-07-28T08:46:51Z</time>
      </trkpt>
      <trkpt lat="43.1693" lon="6.64504">
        <ele>58</ele>
        <time>2021-07-28T08:46:53Z</time>
      </trkpt>
      <trkpt lat="43.16924" lon="6.64499">
        <ele>57</ele>
        <time>2021-07-28T08:47:01Z</time>
      </trkpt>
      <trkpt lat="43.16921" lon="6.64496">
        <ele>56.2</ele>
        <time>2021-07-28T08:47:05Z</time>
      </trkpt>
      <trkpt lat="43.16921" lon="6.64495">
        <ele>56</ele>
        <time>2021-07-28T08:47:06Z</time>
      </trkpt>
      <trkpt lat="43.16919" lon="6.64491">
        <ele>55.4</ele>
        <time>2021-07-28T08:47:10Z</time>
      </trkpt>
      <trkpt lat="43.16919" lon="6.64487">
        <ele>54.8</ele>
        <time>2021-07-28T08:47:13Z</time>
      </trkpt>
      <trkpt lat="43.16919" lon="6.64486">
        <ele>54.6</ele>
        <time>2021-07-28T08:47:14Z</time>
      </trkpt>
      <trkpt lat="43.16918" lon="6.64483">
        <ele>54.4</ele>
        <time>2021-07-28T08:47:17Z</time>
      </trkpt>
      <trkpt lat="43.16918" lon="6.64479">
        <ele>53.6</ele>
        <time>2021-07-28T08:47:20Z</time>
      </trkpt>
      <trkpt lat="43.16919" lon="6.64473">
        <ele>52.4</ele>
        <time>2021-07-28T08:47:25Z</time>
      </trkpt>
      <trkpt lat="43.16922" lon="6.64473">
        <ele>52</ele>
        <time>2021-07-28T08:47:28Z</time>
      </trkpt>
      <trkpt lat="43.16925" lon="6.64472">
        <ele>51.4</ele>
        <time>2021-07-28T08:47:32Z</time>
      </trkpt>
      <trkpt lat="43.16926" lon="6.64472">
        <ele>51.2</ele>
        <time>2021-07-28T08:47:33Z</time>
      </trkpt>
      <trkpt lat="43.16932" lon="6.6447">
        <ele>50.8</ele>
        <time>2021-07-28T08:47:40Z</time>
      </trkpt>
      <trkpt lat="43.16935" lon="6.64469">
        <ele>50.2</ele>
        <time>2021-07-28T08:47:44Z</time>
      </trkpt>
      <trkpt lat="43.16941" lon="6.64464">
        <ele>49.4</ele>
        <time>2021-07-28T08:47:51Z</time>
      </trkpt>
      <trkpt lat="43.16942" lon="6.64464">
        <ele>49.2</ele>
        <time>2021-07-28T08:47:52Z</time>
      </trkpt>
      <trkpt lat="43.16946" lon="6.6446">
        <ele>48.2</ele>
        <time>2021-07-28T08:47:58Z</time>
      </trkpt>
      <trkpt lat="43.16946" lon="6.64456">
        <ele>47.6</ele>
        <time>2021-07-28T08:48:01Z</time>
      </trkpt>
      <trkpt lat="43.16947" lon="6.64454">
        <ele>47</ele>
        <time>2021-07-28T08:48:03Z</time>
      </trkpt>
      <trkpt lat="43.16949" lon="6.64449">
        <ele>46</ele>
        <time>2021-07-28T08:48:08Z</time>
      </trkpt>
      <trkpt lat="43.16951" lon="6.64447">
        <ele>45.8</ele>
        <time>2021-07-28T08:48:11Z</time>
      </trkpt>
      <trkpt lat="43.16959" lon="6.6444">
        <ele>45</ele>
        <time>2021-07-28T08:48:21Z</time>
      </trkpt>
      <trkpt lat="43.16961" lon="6.64438">
        <ele>44.8</ele>
        <time>2021-07-28T08:48:23Z</time>
      </trkpt>
      <trkpt lat="43.16968" lon="6.64424">
        <ele>44.6</ele>
        <time>2021-07-28T08:48:36Z</time>
      </trkpt>
      <trkpt lat="43.1697" lon="6.64407">
        <ele>44</ele>
        <time>2021-07-28T08:48:49Z</time>
      </trkpt>
      <trkpt lat="43.16974" lon="6.64395">
        <ele>44</ele>
        <time>2021-07-28T08:48:58Z</time>
      </trkpt>
      <trkpt lat="43.16984" lon="6.64387">
        <ele>44</ele>
        <time>2021-07-28T08:49:09Z</time>
      </trkpt>
      <trkpt lat="43.16998" lon="6.64375">
        <ele>43</ele>
        <time>2021-07-28T08:49:24Z</time>
      </trkpt>
      <trkpt lat="43.16999" lon="6.64374">
        <ele>42.8</ele>
        <time>2021-07-28T08:49:25Z</time>
      </trkpt>
      <trkpt lat="43.17007" lon="6.6436">
        <ele>42</ele>
        <time>2021-07-28T08:49:37Z</time>
      </trkpt>
      <trkpt lat="43.17009" lon="6.64356">
        <ele>41.6</ele>
        <time>2021-07-28T08:49:40Z</time>
      </trkpt>
      <trkpt lat="43.17017" lon="6.64351">
        <ele>40.6</ele>
        <time>2021-07-28T08:49:48Z</time>
      </trkpt>
      <trkpt lat="43.17018" lon="6.6435">
        <ele>40.4</ele>
        <time>2021-07-28T08:49:49Z</time>
      </trkpt>
      <trkpt lat="43.1703" lon="6.64341">
        <ele>40.2</ele>
        <time>2021-07-28T08:50:02Z</time>
      </trkpt>
      <trkpt lat="43.17041" lon="6.6433">
        <ele>40.8</ele>
        <time>2021-07-28T08:50:16Z</time>
      </trkpt>
      <trkpt lat="43.17053" lon="6.64318">
        <ele>40.6</ele>
        <time>2021-07-28T08:50:29Z</time>
      </trkpt>
      <trkpt lat="43.1706" lon="6.64305">
        <ele>39.4</ele>
        <time>2021-07-28T08:50:40Z</time>
      </trkpt>
      <trkpt lat="43.17061" lon="6.64303">
        <ele>39.2</ele>
        <time>2021-07-28T08:50:42Z</time>
      </trkpt>
      <trkpt lat="43.17063" lon="6.64297">
        <ele>38.4</ele>
        <time>2021-07-28T08:50:47Z</time>
      </trkpt>
      <trkpt lat="43.17066" lon="6.64292">
        <ele>37.4</ele>
        <time>2021-07-28T08:50:52Z</time>
      </trkpt>
      <trkpt lat="43.17066" lon="6.64291">
        <ele>37.4</ele>
        <time>2021-07-28T08:50:53Z</time>
      </trkpt>
      <trkpt lat="43.17069" lon="6.64286">
        <ele>36.4</ele>
        <time>2021-07-28T08:50:58Z</time>
      </trkpt>
      <trkpt lat="43.17072" lon="6.64281">
        <ele>35.4</ele>
        <time>2021-07-28T08:51:04Z</time>
      </trkpt>
      <trkpt lat="43.17073" lon="6.6428">
        <ele>35.2</ele>
        <time>2021-07-28T08:51:05Z</time>
      </trkpt>
      <trkpt lat="43.17076" lon="6.64271">
        <ele>34</ele>
        <time>2021-07-28T08:51:13Z</time>
      </trkpt>
      <trkpt lat="43.17077" lon="6.6427">
        <ele>33.6</ele>
        <time>2021-07-28T08:51:15Z</time>
      </trkpt>
      <trkpt lat="43.17077" lon="6.64268">
        <ele>33</ele>
        <time>2021-07-28T08:51:17Z</time>
      </trkpt>
      <trkpt lat="43.17081" lon="6.64262">
        <ele>31.8</ele>
        <time>2021-07-28T08:51:23Z</time>
      </trkpt>
      <trkpt lat="43.17083" lon="6.64258">
        <ele>31.2</ele>
        <time>2021-07-28T08:51:28Z</time>
      </trkpt>
      <trkpt lat="43.17087" lon="6.64255">
        <ele>30.6</ele>
        <time>2021-07-28T08:51:32Z</time>
      </trkpt>
      <trkpt lat="43.17089" lon="6.64248">
        <ele>29.6</ele>
        <time>2021-07-28T08:51:39Z</time>
      </trkpt>
      <trkpt lat="43.17089" lon="6.64247">
        <ele>29.6</ele>
        <time>2021-07-28T08:51:40Z</time>
      </trkpt>
      <trkpt lat="43.17089" lon="6.64247">
        <ele>30.2</ele>
        <time>2021-07-28T08:51:43Z</time>
      </trkpt>
      <trkpt lat="43.17091" lon="6.64248">
        <ele>29.6</ele>
        <time>2021-07-28T08:51:48Z</time>
      </trkpt>
      <trkpt lat="43.17099" lon="6.6424">
        <ele>29.6</ele>
        <time>2021-07-28T08:51:59Z</time>
      </trkpt>
      <trkpt lat="43.17104" lon="6.64233">
        <ele>28</ele>
        <time>2021-07-28T08:52:06Z</time>
      </trkpt>
      <trkpt lat="43.1711" lon="6.64228">
        <ele>27.8</ele>
        <time>2021-07-28T08:52:13Z</time>
      </trkpt>
      <trkpt lat="43.17118" lon="6.6422">
        <ele>27.2</ele>
        <time>2021-07-28T08:52:24Z</time>
      </trkpt>
      <trkpt lat="43.17118" lon="6.64219">
        <ele>27.2</ele>
        <time>2021-07-28T08:52:25Z</time>
      </trkpt>
      <trkpt lat="43.1712" lon="6.64219">
        <ele>27</ele>
        <time>2021-07-28T08:52:28Z</time>
      </trkpt>
      <trkpt lat="43.17121" lon="6.64218">
        <ele>27</ele>
        <time>2021-07-28T08:52:29Z</time>
      </trkpt>
      <trkpt lat="43.17124" lon="6.64215">
        <ele>26</ele>
        <time>2021-07-28T08:52:34Z</time>
      </trkpt>
      <trkpt lat="43.17126" lon="6.64212">
        <ele>25.8</ele>
        <time>2021-07-28T08:52:37Z</time>
      </trkpt>
      <trkpt lat="43.17131" lon="6.64206">
        <ele>25</ele>
        <time>2021-07-28T08:52:44Z</time>
      </trkpt>
      <trkpt lat="43.17134" lon="6.64201">
        <ele>24.6</ele>
        <time>2021-07-28T08:52:49Z</time>
      </trkpt>
      <trkpt lat="43.17135" lon="6.64195">
        <ele>24.4</ele>
        <time>2021-07-28T08:52:55Z</time>
      </trkpt>
      <trkpt lat="43.17135" lon="6.64195">
        <ele>24.4</ele>
        <time>2021-07-28T08:52:57Z</time>
      </trkpt>
      <trkpt lat="43.17136" lon="6.64194">
        <ele>24.4</ele>
        <time>2021-07-28T08:52:58Z</time>
      </trkpt>
      <trkpt lat="43.17136" lon="6.64192">
        <ele>24</ele>
        <time>2021-07-28T08:53:00Z</time>
      </trkpt>
      <trkpt lat="43.17136" lon="6.64192">
        <ele>24</ele>
        <time>2021-07-28T08:53:01Z</time>
      </trkpt>
      <trkpt lat="43.17139" lon="6.6419">
        <ele>23.6</ele>
        <time>2021-07-28T08:53:07Z</time>
      </trkpt>
      <trkpt lat="43.17146" lon="6.64184">
        <ele>22.8</ele>
        <time>2021-07-28T08:53:16Z</time>
      </trkpt>
      <trkpt lat="43.17147" lon="6.64181">
        <ele>22.6</ele>
        <time>2021-07-28T08:53:18Z</time>
      </trkpt>
      <trkpt lat="43.17154" lon="6.64175">
        <ele>21.8</ele>
        <time>2021-07-28T08:53:26Z</time>
      </trkpt>
      <trkpt lat="43.17157" lon="6.6417">
        <ele>21.4</ele>
        <time>2021-07-28T08:53:31Z</time>
      </trkpt>
      <trkpt lat="43.1716" lon="6.64164">
        <ele>21.6</ele>
        <time>2021-07-28T08:53:39Z</time>
      </trkpt>
      <trkpt lat="43.1716" lon="6.64163">
        <ele>21.8</ele>
        <time>2021-07-28T08:53:41Z</time>
      </trkpt>
      <trkpt lat="43.1716" lon="6.64163">
        <ele>21.8</ele>
        <time>2021-07-28T08:53:42Z</time>
      </trkpt>
      <trkpt lat="43.17164" lon="6.64158">
        <ele>20.8</ele>
        <time>2021-07-28T08:53:48Z</time>
      </trkpt>
      <trkpt lat="43.17165" lon="6.64157">
        <ele>20.6</ele>
        <time>2021-07-28T08:53:49Z</time>
      </trkpt>
      <trkpt lat="43.1717" lon="6.64148">
        <ele>19.6</ele>
        <time>2021-07-28T08:53:59Z</time>
      </trkpt>
      <trkpt lat="43.1717" lon="6.64145">
        <ele>17.6</ele>
        <time>2021-07-28T08:54:02Z</time>
      </trkpt>
      <trkpt lat="43.17171" lon="6.64144">
        <ele>17.6</ele>
        <time>2021-07-28T08:54:03Z</time>
      </trkpt>
      <trkpt lat="43.17171" lon="6.64138">
        <ele>17.8</ele>
        <time>2021-07-28T08:54:15Z</time>
      </trkpt>
      <trkpt lat="43.17171" lon="6.64138">
        <ele>18.8</ele>
        <time>2021-07-28T08:54:23Z</time>
      </trkpt>
      <trkpt lat="43.17171" lon="6.64138">
        <ele>18.2</ele>
        <time>2021-07-28T08:54:32Z</time>
      </trkpt>
      <trkpt lat="43.17171" lon="6.64139">
        <ele>17.6</ele>
        <time>2021-07-28T08:54:40Z</time>
      </trkpt>
      <trkpt lat="43.17172" lon="6.64139">
        <ele>17.2</ele>
        <time>2021-07-28T08:54:51Z</time>
      </trkpt>
      <trkpt lat="43.17173" lon="6.6414">
        <ele>17</ele>
        <time>2021-07-28T08:55:11Z</time>
      </trkpt>
      <trkpt lat="43.17172" lon="6.6414">
        <ele>17.2</ele>
        <time>2021-07-28T08:55:29Z</time>
      </trkpt>
      <trkpt lat="43.17175" lon="6.64137">
        <ele>17</ele>
        <time>2021-07-28T08:55:42Z</time>
      </trkpt>
      <trkpt lat="43.17176" lon="6.64133">
        <ele>16.6</ele>
        <time>2021-07-28T08:55:45Z</time>
      </trkpt>
      <trkpt lat="43.1718" lon="6.64124">
        <ele>16.2</ele>
        <time>2021-07-28T08:55:52Z</time>
      </trkpt>
      <trkpt lat="43.17184" lon="6.64109">
        <ele>15.6</ele>
        <time>2021-07-28T08:56:02Z</time>
      </trkpt>
      <trkpt lat="43.17185" lon="6.64108">
        <ele>15.4</ele>
        <time>2021-07-28T08:56:03Z</time>
      </trkpt>
      <trkpt lat="43.17195" lon="6.64091">
        <ele>14.6</ele>
        <time>2021-07-28T08:56:15Z</time>
      </trkpt>
      <trkpt lat="43.17198" lon="6.64084">
        <ele>14.6</ele>
        <time>2021-07-28T08:56:22Z</time>
      </trkpt>
      <trkpt lat="43.17197" lon="6.64082">
        <ele>14.6</ele>
        <time>2021-07-28T08:56:23Z</time>
      </trkpt>
      <trkpt lat="43.17196" lon="6.64073">
        <ele>14.2</ele>
        <time>2021-07-28T08:56:30Z</time>
      </trkpt>
      <trkpt lat="43.17196" lon="6.64069">
        <ele>13.4</ele>
        <time>2021-07-28T08:56:34Z</time>
      </trkpt>
      <trkpt lat="43.17199" lon="6.64059">
        <ele>12.4</ele>
        <time>2021-07-28T08:56:41Z</time>
      </trkpt>
      <trkpt lat="43.172" lon="6.64058">
        <ele>12.4</ele>
        <time>2021-07-28T08:56:42Z</time>
      </trkpt>
      <trkpt lat="43.17205" lon="6.64044">
        <ele>11.6</ele>
        <time>2021-07-28T08:56:53Z</time>
      </trkpt>
      <trkpt lat="43.17213" lon="6.64026">
        <ele>11.6</ele>
        <time>2021-07-28T08:57:06Z</time>
      </trkpt>
      <trkpt lat="43.17214" lon="6.64025">
        <ele>12</ele>
        <time>2021-07-28T08:57:07Z</time>
      </trkpt>
      <trkpt lat="43.17216" lon="6.64022">
        <ele>13.6</ele>
        <time>2021-07-28T08:57:11Z</time>
      </trkpt>
      <trkpt lat="43.17222" lon="6.64015">
        <ele>14</ele>
        <time>2021-07-28T08:57:19Z</time>
      </trkpt>
      <trkpt lat="43.1723" lon="6.64003">
        <ele>12.6</ele>
        <time>2021-07-28T08:57:32Z</time>
      </trkpt>
      <trkpt lat="43.1723" lon="6.64002">
        <ele>12.2</ele>
        <time>2021-07-28T08:57:33Z</time>
      </trkpt>
      <trkpt lat="43.17242" lon="6.63997">
        <ele>11.8</ele>
        <time>2021-07-28T08:57:45Z</time>
      </trkpt>
      <trkpt lat="43.17245" lon="6.63995">
        <ele>11.8</ele>
        <time>2021-07-28T08:57:51Z</time>
      </trkpt>
      <trkpt lat="43.17248" lon="6.63993">
        <ele>11.8</ele>
        <time>2021-07-28T08:57:55Z</time>
      </trkpt>
      <trkpt lat="43.17251" lon="6.63992">
        <ele>11.4</ele>
        <time>2021-07-28T08:57:58Z</time>
      </trkpt>
      <trkpt lat="43.17261" lon="6.63986">
        <ele>11</ele>
        <time>2021-07-28T08:58:10Z</time>
      </trkpt>
      <trkpt lat="43.17263" lon="6.63985">
        <ele>11</ele>
        <time>2021-07-28T08:58:14Z</time>
      </trkpt>
      <trkpt lat="43.17263" lon="6.63984">
        <ele>11</ele>
        <time>2021-07-28T08:58:16Z</time>
      </trkpt>
      <trkpt lat="43.17265" lon="6.63984">
        <ele>11.2</ele>
        <time>2021-07-28T08:58:18Z</time>
      </trkpt>
      <trkpt lat="43.17267" lon="6.63982">
        <ele>11</ele>
        <time>2021-07-28T08:58:20Z</time>
      </trkpt>
      <trkpt lat="43.17273" lon="6.63974">
        <ele>11.2</ele>
        <time>2021-07-28T08:58:29Z</time>
      </trkpt>
      <trkpt lat="43.17282" lon="6.63968">
        <ele>11.4</ele>
        <time>2021-07-28T08:58:39Z</time>
      </trkpt>
      <trkpt lat="43.17289" lon="6.63964">
        <ele>11.4</ele>
        <time>2021-07-28T08:58:48Z</time>
      </trkpt>
      <trkpt lat="43.17296" lon="6.6395">
        <ele>11.6</ele>
        <time>2021-07-28T08:59:02Z</time>
      </trkpt>
      <trkpt lat="43.17296" lon="6.63948">
        <ele>11.8</ele>
        <time>2021-07-28T08:59:04Z</time>
      </trkpt>
      <trkpt lat="43.17296" lon="6.63946">
        <ele>11.8</ele>
        <time>2021-07-28T08:59:06Z</time>
      </trkpt>
      <trkpt lat="43.17298" lon="6.63941">
        <ele>12.2</ele>
        <time>2021-07-28T08:59:13Z</time>
      </trkpt>
      <trkpt lat="43.17298" lon="6.63938">
        <ele>12.4</ele>
        <time>2021-07-28T08:59:20Z</time>
      </trkpt>
      <trkpt lat="43.17299" lon="6.63936">
        <ele>12.6</ele>
        <time>2021-07-28T08:59:24Z</time>
      </trkpt>
      <trkpt lat="43.173" lon="6.63932">
        <ele>13.4</ele>
        <time>2021-07-28T08:59:29Z</time>
      </trkpt>
      <trkpt lat="43.17303" lon="6.63929">
        <ele>14</ele>
        <time>2021-07-28T08:59:37Z</time>
      </trkpt>
      <trkpt lat="43.17304" lon="6.63926">
        <ele>12.4</ele>
        <time>2021-07-28T08:59:41Z</time>
      </trkpt>
      <trkpt lat="43.1731" lon="6.63924">
        <ele>12.2</ele>
        <time>2021-07-28T08:59:46Z</time>
      </trkpt>
      <trkpt lat="43.17314" lon="6.63923">
        <ele>12.2</ele>
        <time>2021-07-28T08:59:52Z</time>
      </trkpt>
      <trkpt lat="43.17316" lon="6.63921">
        <ele>12.2</ele>
        <time>2021-07-28T08:59:55Z</time>
      </trkpt>
      <trkpt lat="43.17322" lon="6.63915">
        <ele>13.6</ele>
        <time>2021-07-28T09:00:02Z</time>
      </trkpt>
      <trkpt lat="43.17326" lon="6.63913">
        <ele>14</ele>
        <time>2021-07-28T09:00:06Z</time>
      </trkpt>
      <trkpt lat="43.17331" lon="6.63913">
        <ele>14.6</ele>
        <time>2021-07-28T09:00:11Z</time>
      </trkpt>
      <trkpt lat="43.17337" lon="6.63917">
        <ele>14.8</ele>
        <time>2021-07-28T09:00:17Z</time>
      </trkpt>
      <trkpt lat="43.17352" lon="6.63927">
        <ele>13.8</ele>
        <time>2021-07-28T09:00:32Z</time>
      </trkpt>
      <trkpt lat="43.17365" lon="6.63937">
        <ele>13.4</ele>
        <time>2021-07-28T09:00:45Z</time>
      </trkpt>
      <trkpt lat="43.17366" lon="6.63938">
        <ele>13.4</ele>
        <time>2021-07-28T09:00:46Z</time>
      </trkpt>
      <trkpt lat="43.17383" lon="6.63947">
        <ele>12.8</ele>
        <time>2021-07-28T09:01:01Z</time>
      </trkpt>
      <trkpt lat="43.17393" lon="6.63959">
        <ele>13.2</ele>
        <time>2021-07-28T09:01:12Z</time>
      </trkpt>
      <trkpt lat="43.17406" lon="6.63966">
        <ele>13.2</ele>
        <time>2021-07-28T09:01:24Z</time>
      </trkpt>
      <trkpt lat="43.1742" lon="6.63978">
        <ele>13.8</ele>
        <time>2021-07-28T09:01:39Z</time>
      </trkpt>
      <trkpt lat="43.17421" lon="6.63979">
        <ele>13.6</ele>
        <time>2021-07-28T09:01:40Z</time>
      </trkpt>
      <trkpt lat="43.17433" lon="6.63988">
        <ele>14</ele>
        <time>2021-07-28T09:01:53Z</time>
      </trkpt>
      <trkpt lat="43.17452" lon="6.63987">
        <ele>14.2</ele>
        <time>2021-07-28T09:02:08Z</time>
      </trkpt>
      <trkpt lat="43.17463" lon="6.63986">
        <ele>14.6</ele>
        <time>2021-07-28T09:02:17Z</time>
      </trkpt>
      <trkpt lat="43.17466" lon="6.63984">
        <ele>14.6</ele>
        <time>2021-07-28T09:02:20Z</time>
      </trkpt>
      <trkpt lat="43.17474" lon="6.63982">
        <ele>13.6</ele>
        <time>2021-07-28T09:02:27Z</time>
      </trkpt>
      <trkpt lat="43.17478" lon="6.63982">
        <ele>13.6</ele>
        <time>2021-07-28T09:02:30Z</time>
      </trkpt>
      <trkpt lat="43.1749" lon="6.63982">
        <ele>13.4</ele>
        <time>2021-07-28T09:02:40Z</time>
      </trkpt>
      <trkpt lat="43.17499" lon="6.63983">
        <ele>13.4</ele>
        <time>2021-07-28T09:02:48Z</time>
      </trkpt>
      <trkpt lat="43.17507" lon="6.63987">
        <ele>13.8</ele>
        <time>2021-07-28T09:02:56Z</time>
      </trkpt>
      <trkpt lat="43.17516" lon="6.63992">
        <ele>14</ele>
        <time>2021-07-28T09:03:05Z</time>
      </trkpt>
      <trkpt lat="43.17526" lon="6.63994">
        <ele>14.4</ele>
        <time>2021-07-28T09:03:15Z</time>
      </trkpt>
      <trkpt lat="43.17529" lon="6.63994">
        <ele>14.6</ele>
        <time>2021-07-28T09:03:18Z</time>
      </trkpt>
      <trkpt lat="43.17533" lon="6.63996">
        <ele>14.8</ele>
        <time>2021-07-28T09:03:23Z</time>
      </trkpt>
      <trkpt lat="43.17537" lon="6.63999">
        <ele>14.8</ele>
        <time>2021-07-28T09:03:29Z</time>
      </trkpt>
      <trkpt lat="43.17538" lon="6.64001">
        <ele>15</ele>
        <time>2021-07-28T09:03:31Z</time>
      </trkpt>
      <trkpt lat="43.17545" lon="6.64002">
        <ele>15.4</ele>
        <time>2021-07-28T09:03:38Z</time>
      </trkpt>
      <trkpt lat="43.17544" lon="6.64001">
        <ele>15.6</ele>
        <time>2021-07-28T09:03:40Z</time>
      </trkpt>
      <trkpt lat="43.17544" lon="6.64001">
        <ele>15.6</ele>
        <time>2021-07-28T09:03:41Z</time>
      </trkpt>
      <trkpt lat="43.17544" lon="6.64001">
        <ele>15.6</ele>
        <time>2021-07-28T09:03:43Z</time>
      </trkpt>
      <trkpt lat="43.17544" lon="6.64001">
        <ele>15.6</ele>
        <time>2021-07-28T09:03:44Z</time>
      </trkpt>
      <trkpt lat="43.17545" lon="6.64">
        <ele>15.6</ele>
        <time>2021-07-28T09:03:45Z</time>
      </trkpt>
      <trkpt lat="43.17547" lon="6.63999">
        <ele>17.4</ele>
        <time>2021-07-28T09:03:47Z</time>
      </trkpt>
      <trkpt lat="43.1755" lon="6.63995">
        <ele>17.2</ele>
        <time>2021-07-28T09:03:51Z</time>
      </trkpt>
      <trkpt lat="43.17551" lon="6.63994">
        <ele>17.2</ele>
        <time>2021-07-28T09:03:52Z</time>
      </trkpt>
      <trkpt lat="43.17558" lon="6.63979">
        <ele>18.4</ele>
        <time>2021-07-28T09:04:05Z</time>
      </trkpt>
      <trkpt lat="43.17559" lon="6.63978">
        <ele>18.6</ele>
        <time>2021-07-28T09:04:06Z</time>
      </trkpt>
      <trkpt lat="43.1756" lon="6.63971">
        <ele>19.2</ele>
        <time>2021-07-28T09:04:14Z</time>
      </trkpt>
      <trkpt lat="43.17559" lon="6.63971">
        <ele>19</ele>
        <time>2021-07-28T09:04:17Z</time>
      </trkpt>
      <trkpt lat="43.1756" lon="6.63969">
        <ele>19.6</ele>
        <time>2021-07-28T09:04:24Z</time>
      </trkpt>
      <trkpt lat="43.17562" lon="6.63965">
        <ele>19.6</ele>
        <time>2021-07-28T09:04:28Z</time>
      </trkpt>
      <trkpt lat="43.17567" lon="6.63954">
        <ele>19.6</ele>
        <time>2021-07-28T09:04:38Z</time>
      </trkpt>
      <trkpt lat="43.17569" lon="6.63952">
        <ele>19.6</ele>
        <time>2021-07-28T09:04:41Z</time>
      </trkpt>
      <trkpt lat="43.17575" lon="6.63943">
        <ele>21</ele>
        <time>2021-07-28T09:04:52Z</time>
      </trkpt>
      <trkpt lat="43.17577" lon="6.6394">
        <ele>21.4</ele>
        <time>2021-07-28T09:04:55Z</time>
      </trkpt>
      <trkpt lat="43.17579" lon="6.63938">
        <ele>22</ele>
        <time>2021-07-28T09:04:58Z</time>
      </trkpt>
      <trkpt lat="43.17583" lon="6.63931">
        <ele>22.8</ele>
        <time>2021-07-28T09:05:06Z</time>
      </trkpt>
      <trkpt lat="43.17583" lon="6.63931">
        <ele>23</ele>
        <time>2021-07-28T09:05:07Z</time>
      </trkpt>
      <trkpt lat="43.17583" lon="6.63931">
        <ele>23</ele>
        <time>2021-07-28T09:05:08Z</time>
      </trkpt>
      <trkpt lat="43.17583" lon="6.63931">
        <ele>23.2</ele>
        <time>2021-07-28T09:05:09Z</time>
      </trkpt>
      <trkpt lat="43.17584" lon="6.63928">
        <ele>23.4</ele>
        <time>2021-07-28T09:05:14Z</time>
      </trkpt>
      <trkpt lat="43.17584" lon="6.63927">
        <ele>23.6</ele>
        <time>2021-07-28T09:05:22Z</time>
      </trkpt>
      <trkpt lat="43.1759" lon="6.6392">
        <ele>23.8</ele>
        <time>2021-07-28T09:05:31Z</time>
      </trkpt>
      <trkpt lat="43.17591" lon="6.63919">
        <ele>24.2</ele>
        <time>2021-07-28T09:05:33Z</time>
      </trkpt>
      <trkpt lat="43.17595" lon="6.63913">
        <ele>25.2</ele>
        <time>2021-07-28T09:05:40Z</time>
      </trkpt>
      <trkpt lat="43.17598" lon="6.63907">
        <ele>25.8</ele>
        <time>2021-07-28T09:05:46Z</time>
      </trkpt>
      <trkpt lat="43.17602" lon="6.63905">
        <ele>26.4</ele>
        <time>2021-07-28T09:05:51Z</time>
      </trkpt>
      <trkpt lat="43.17604" lon="6.63906">
        <ele>26.8</ele>
        <time>2021-07-28T09:05:55Z</time>
      </trkpt>
      <trkpt lat="43.17605" lon="6.63908">
        <ele>27.4</ele>
        <time>2021-07-28T09:05:59Z</time>
      </trkpt>
      <trkpt lat="43.17606" lon="6.63908">
        <ele>27.6</ele>
        <time>2021-07-28T09:06:04Z</time>
      </trkpt>
      <trkpt lat="43.17607" lon="6.63915">
        <ele>29.6</ele>
        <time>2021-07-28T09:06:10Z</time>
      </trkpt>
      <trkpt lat="43.17607" lon="6.63918">
        <ele>29.6</ele>
        <time>2021-07-28T09:06:13Z</time>
      </trkpt>
      <trkpt lat="43.17607" lon="6.6393">
        <ele>30.6</ele>
        <time>2021-07-28T09:06:22Z</time>
      </trkpt>
      <trkpt lat="43.17606" lon="6.63934">
        <ele>30.6</ele>
        <time>2021-07-28T09:06:25Z</time>
      </trkpt>
      <trkpt lat="43.17605" lon="6.63951">
        <ele>30</ele>
        <time>2021-07-28T09:06:38Z</time>
      </trkpt>
      <trkpt lat="43.17609" lon="6.63965">
        <ele>31.4</ele>
        <time>2021-07-28T09:06:52Z</time>
      </trkpt>
      <trkpt lat="43.1761" lon="6.63967">
        <ele>31.8</ele>
        <time>2021-07-28T09:06:54Z</time>
      </trkpt>
      <trkpt lat="43.17612" lon="6.63971">
        <ele>32.4</ele>
        <time>2021-07-28T09:06:58Z</time>
      </trkpt>
      <trkpt lat="43.17614" lon="6.63976">
        <ele>33</ele>
        <time>2021-07-28T09:07:03Z</time>
      </trkpt>
      <trkpt lat="43.17616" lon="6.6398">
        <ele>33.8</ele>
        <time>2021-07-28T09:07:07Z</time>
      </trkpt>
      <trkpt lat="43.17616" lon="6.63983">
        <ele>34.2</ele>
        <time>2021-07-28T09:07:10Z</time>
      </trkpt>
      <trkpt lat="43.17618" lon="6.63991">
        <ele>34.8</ele>
        <time>2021-07-28T09:07:17Z</time>
      </trkpt>
      <trkpt lat="43.17618" lon="6.63993">
        <ele>35.2</ele>
        <time>2021-07-28T09:07:19Z</time>
      </trkpt>
      <trkpt lat="43.17619" lon="6.64">
        <ele>36.2</ele>
        <time>2021-07-28T09:07:28Z</time>
      </trkpt>
      <trkpt lat="43.17619" lon="6.64003">
        <ele>36.8</ele>
        <time>2021-07-28T09:07:31Z</time>
      </trkpt>
      <trkpt lat="43.1762" lon="6.64009">
        <ele>37.4</ele>
        <time>2021-07-28T09:07:38Z</time>
      </trkpt>
      <trkpt lat="43.17622" lon="6.64013">
        <ele>37.6</ele>
        <time>2021-07-28T09:07:43Z</time>
      </trkpt>
      <trkpt lat="43.17622" lon="6.64014">
        <ele>37.6</ele>
        <time>2021-07-28T09:07:46Z</time>
      </trkpt>
      <trkpt lat="43.17625" lon="6.64017">
        <ele>38.2</ele>
        <time>2021-07-28T09:07:54Z</time>
      </trkpt>
      <trkpt lat="43.17625" lon="6.64017">
        <ele>38.4</ele>
        <time>2021-07-28T09:07:57Z</time>
      </trkpt>
      <trkpt lat="43.17627" lon="6.64015">
        <ele>38.4</ele>
        <time>2021-07-28T09:08:04Z</time>
      </trkpt>
      <trkpt lat="43.1763" lon="6.64015">
        <ele>38.4</ele>
        <time>2021-07-28T09:08:13Z</time>
      </trkpt>
      <trkpt lat="43.17639" lon="6.64018">
        <ele>38</ele>
        <time>2021-07-28T09:08:23Z</time>
      </trkpt>
      <trkpt lat="43.17648" lon="6.64019">
        <ele>37.4</ele>
        <time>2021-07-28T09:08:33Z</time>
      </trkpt>
      <trkpt lat="43.17649" lon="6.64018">
        <ele>37.2</ele>
        <time>2021-07-28T09:08:34Z</time>
      </trkpt>
      <trkpt lat="43.17649" lon="6.64018">
        <ele>37</ele>
        <time>2021-07-28T09:08:35Z</time>
      </trkpt>
      <trkpt lat="43.17653" lon="6.6402">
        <ele>36.2</ele>
        <time>2021-07-28T09:08:41Z</time>
      </trkpt>
      <trkpt lat="43.17655" lon="6.6402">
        <ele>36</ele>
        <time>2021-07-28T09:08:46Z</time>
      </trkpt>
      <trkpt lat="43.17659" lon="6.64017">
        <ele>35.8</ele>
        <time>2021-07-28T09:08:56Z</time>
      </trkpt>
      <trkpt lat="43.17663" lon="6.64016">
        <ele>35.2</ele>
        <time>2021-07-28T09:09:01Z</time>
      </trkpt>
      <trkpt lat="43.17668" lon="6.64017">
        <ele>34.6</ele>
        <time>2021-07-28T09:09:07Z</time>
      </trkpt>
      <trkpt lat="43.17674" lon="6.64019">
        <ele>34</ele>
        <time>2021-07-28T09:09:12Z</time>
      </trkpt>
      <trkpt lat="43.17681" lon="6.64019">
        <ele>33.8</ele>
        <time>2021-07-28T09:09:18Z</time>
      </trkpt>
      <trkpt lat="43.1769" lon="6.64021">
        <ele>33.6</ele>
        <time>2021-07-28T09:09:28Z</time>
      </trkpt>
      <trkpt lat="43.17699" lon="6.64025">
        <ele>34.8</ele>
        <time>2021-07-28T09:09:40Z</time>
      </trkpt>
      <trkpt lat="43.17699" lon="6.64025">
        <ele>34.2</ele>
        <time>2021-07-28T09:09:51Z</time>
      </trkpt>
      <trkpt lat="43.177" lon="6.64024">
        <ele>31.2</ele>
        <time>2021-07-28T09:10:00Z</time>
      </trkpt>
      <trkpt lat="43.17702" lon="6.64026">
        <ele>31</ele>
        <time>2021-07-28T09:10:05Z</time>
      </trkpt>
      <trkpt lat="43.17704" lon="6.64026">
        <ele>34.2</ele>
        <time>2021-07-28T09:10:07Z</time>
      </trkpt>
      <trkpt lat="43.17714" lon="6.64024">
        <ele>34.2</ele>
        <time>2021-07-28T09:10:18Z</time>
      </trkpt>
      <trkpt lat="43.17715" lon="6.64024">
        <ele>35.2</ele>
        <time>2021-07-28T09:10:27Z</time>
      </trkpt>
      <trkpt lat="43.17715" lon="6.64024">
        <ele>35.2</ele>
        <time>2021-07-28T09:10:28Z</time>
      </trkpt>
      <trkpt lat="43.17719" lon="6.64022">
        <ele>35.2</ele>
        <time>2021-07-28T09:10:40Z</time>
      </trkpt>
      <trkpt lat="43.17727" lon="6.64022">
        <ele>36.2</ele>
        <time>2021-07-28T09:10:46Z</time>
      </trkpt>
      <trkpt lat="43.17735" lon="6.64022">
        <ele>36.2</ele>
        <time>2021-07-28T09:10:53Z</time>
      </trkpt>
      <trkpt lat="43.17752" lon="6.64023">
        <ele>36</ele>
        <time>2021-07-28T09:11:07Z</time>
      </trkpt>
      <trkpt lat="43.17756" lon="6.64023">
        <ele>36.4</ele>
        <time>2021-07-28T09:11:13Z</time>
      </trkpt>
      <trkpt lat="43.17756" lon="6.64022">
        <ele>36.8</ele>
        <time>2021-07-28T09:11:15Z</time>
      </trkpt>
      <trkpt lat="43.17757" lon="6.64021">
        <ele>37.2</ele>
        <time>2021-07-28T09:11:23Z</time>
      </trkpt>
      <trkpt lat="43.17759" lon="6.64021">
        <ele>36.8</ele>
        <time>2021-07-28T09:11:28Z</time>
      </trkpt>
      <trkpt lat="43.17762" lon="6.6402">
        <ele>35.8</ele>
        <time>2021-07-28T09:11:31Z</time>
      </trkpt>
      <trkpt lat="43.17765" lon="6.6402">
        <ele>35.8</ele>
        <time>2021-07-28T09:11:36Z</time>
      </trkpt>
      <trkpt lat="43.17767" lon="6.64018">
        <ele>35.8</ele>
        <time>2021-07-28T09:11:45Z</time>
      </trkpt>
      <trkpt lat="43.17768" lon="6.64017">
        <ele>35.8</ele>
        <time>2021-07-28T09:11:58Z</time>
      </trkpt>
      <trkpt lat="43.17774" lon="6.64014">
        <ele>35.8</ele>
        <time>2021-07-28T09:12:07Z</time>
      </trkpt>
      <trkpt lat="43.17788" lon="6.64008">
        <ele>35.8</ele>
        <time>2021-07-28T09:12:20Z</time>
      </trkpt>
      <trkpt lat="43.17803" lon="6.63998">
        <ele>35</ele>
        <time>2021-07-28T09:12:34Z</time>
      </trkpt>
      <trkpt lat="43.17807" lon="6.63994">
        <ele>34.6</ele>
        <time>2021-07-28T09:12:39Z</time>
      </trkpt>
      <trkpt lat="43.17817" lon="6.63989">
        <ele>33.6</ele>
        <time>2021-07-28T09:12:48Z</time>
      </trkpt>
      <trkpt lat="43.17818" lon="6.63988">
        <ele>33.6</ele>
        <time>2021-07-28T09:12:49Z</time>
      </trkpt>
      <trkpt lat="43.17831" lon="6.63985">
        <ele>32.6</ele>
        <time>2021-07-28T09:13:01Z</time>
      </trkpt>
      <trkpt lat="43.17834" lon="6.63984">
        <ele>32.6</ele>
        <time>2021-07-28T09:13:03Z</time>
      </trkpt>
      <trkpt lat="43.17851" lon="6.6398">
        <ele>32.4</ele>
        <time>2021-07-28T09:13:17Z</time>
      </trkpt>
      <trkpt lat="43.17866" lon="6.63976">
        <ele>32.6</ele>
        <time>2021-07-28T09:13:30Z</time>
      </trkpt>
      <trkpt lat="43.17875" lon="6.63969">
        <ele>33</ele>
        <time>2021-07-28T09:13:41Z</time>
      </trkpt>
      <trkpt lat="43.1788" lon="6.63966">
        <ele>33.8</ele>
        <time>2021-07-28T09:13:46Z</time>
      </trkpt>
      <trkpt lat="43.17885" lon="6.63961">
        <ele>34.8</ele>
        <time>2021-07-28T09:13:53Z</time>
      </trkpt>
      <trkpt lat="43.17891" lon="6.63959">
        <ele>35.8</ele>
        <time>2021-07-28T09:14:00Z</time>
      </trkpt>
      <trkpt lat="43.17897" lon="6.63959">
        <ele>36.6</ele>
        <time>2021-07-28T09:14:06Z</time>
      </trkpt>
      <trkpt lat="43.17899" lon="6.63958">
        <ele>36.8</ele>
        <time>2021-07-28T09:14:08Z</time>
      </trkpt>
      <trkpt lat="43.17908" lon="6.6396">
        <ele>37</ele>
        <time>2021-07-28T09:14:17Z</time>
      </trkpt>
      <trkpt lat="43.1792" lon="6.63965">
        <ele>36.8</ele>
        <time>2021-07-28T09:14:30Z</time>
      </trkpt>
      <trkpt lat="43.17925" lon="6.63969">
        <ele>35.8</ele>
        <time>2021-07-28T09:14:37Z</time>
      </trkpt>
      <trkpt lat="43.17929" lon="6.63971">
        <ele>34.6</ele>
        <time>2021-07-28T09:14:43Z</time>
      </trkpt>
      <trkpt lat="43.17937" lon="6.63971">
        <ele>33.6</ele>
        <time>2021-07-28T09:14:51Z</time>
      </trkpt>
      <trkpt lat="43.17941" lon="6.63972">
        <ele>33.2</ele>
        <time>2021-07-28T09:14:55Z</time>
      </trkpt>
      <trkpt lat="43.17947" lon="6.63971">
        <ele>32.6</ele>
        <time>2021-07-28T09:15:02Z</time>
      </trkpt>
      <trkpt lat="43.17952" lon="6.63971">
        <ele>32</ele>
        <time>2021-07-28T09:15:07Z</time>
      </trkpt>
      <trkpt lat="43.17958" lon="6.63969">
        <ele>31.6</ele>
        <time>2021-07-28T09:15:13Z</time>
      </trkpt>
      <trkpt lat="43.17965" lon="6.63966">
        <ele>30.8</ele>
        <time>2021-07-28T09:15:20Z</time>
      </trkpt>
      <trkpt lat="43.1797" lon="6.63965">
        <ele>30.4</ele>
        <time>2021-07-28T09:15:24Z</time>
      </trkpt>
      <trkpt lat="43.1798" lon="6.6396">
        <ele>29.4</ele>
        <time>2021-07-28T09:15:33Z</time>
      </trkpt>
      <trkpt lat="43.17981" lon="6.63959">
        <ele>29.4</ele>
        <time>2021-07-28T09:15:34Z</time>
      </trkpt>
      <trkpt lat="43.1799" lon="6.63953">
        <ele>28.4</ele>
        <time>2021-07-28T09:15:43Z</time>
      </trkpt>
      <trkpt lat="43.17992" lon="6.6395">
        <ele>28</ele>
        <time>2021-07-28T09:15:46Z</time>
      </trkpt>
      <trkpt lat="43.18" lon="6.63945">
        <ele>27.8</ele>
        <time>2021-07-28T09:15:58Z</time>
      </trkpt>
      <trkpt lat="43.18005" lon="6.63943">
        <ele>27.8</ele>
        <time>2021-07-28T09:16:06Z</time>
      </trkpt>
      <trkpt lat="43.18011" lon="6.63942">
        <ele>27.6</ele>
        <time>2021-07-28T09:16:17Z</time>
      </trkpt>
      <trkpt lat="43.18021" lon="6.63941">
        <ele>27.6</ele>
        <time>2021-07-28T09:16:28Z</time>
      </trkpt>
      <trkpt lat="43.18023" lon="6.63942">
        <ele>28.2</ele>
        <time>2021-07-28T09:16:32Z</time>
      </trkpt>
      <trkpt lat="43.18025" lon="6.63943">
        <ele>28.6</ele>
        <time>2021-07-28T09:16:34Z</time>
      </trkpt>
      <trkpt lat="43.18027" lon="6.63945">
        <ele>28.6</ele>
        <time>2021-07-28T09:16:37Z</time>
      </trkpt>
      <trkpt lat="43.18031" lon="6.63946">
        <ele>29</ele>
        <time>2021-07-28T09:16:43Z</time>
      </trkpt>
      <trkpt lat="43.18032" lon="6.63945">
        <ele>29</ele>
        <time>2021-07-28T09:16:46Z</time>
      </trkpt>
      <trkpt lat="43.18036" lon="6.63949">
        <ele>28.6</ele>
        <time>2021-07-28T09:16:54Z</time>
      </trkpt>
      <trkpt lat="43.18042" lon="6.63955">
        <ele>27.2</ele>
        <time>2021-07-28T09:17:03Z</time>
      </trkpt>
      <trkpt lat="43.18044" lon="6.63957">
        <ele>26.8</ele>
        <time>2021-07-28T09:17:06Z</time>
      </trkpt>
      <trkpt lat="43.18048" lon="6.63959">
        <ele>26.2</ele>
        <time>2021-07-28T09:17:15Z</time>
      </trkpt>
      <trkpt lat="43.1805" lon="6.63958">
        <ele>26.2</ele>
        <time>2021-07-28T09:17:16Z</time>
      </trkpt>
      <trkpt lat="43.18059" lon="6.6396">
        <ele>25.4</ele>
        <time>2021-07-28T09:17:23Z</time>
      </trkpt>
      <trkpt lat="43.18062" lon="6.63961">
        <ele>25</ele>
        <time>2021-07-28T09:17:26Z</time>
      </trkpt>
      <trkpt lat="43.18064" lon="6.6396">
        <ele>24.8</ele>
        <time>2021-07-28T09:17:28Z</time>
      </trkpt>
      <trkpt lat="43.18066" lon="6.63961">
        <ele>24.6</ele>
        <time>2021-07-28T09:17:31Z</time>
      </trkpt>
      <trkpt lat="43.18068" lon="6.63962">
        <ele>24.2</ele>
        <time>2021-07-28T09:17:35Z</time>
      </trkpt>
      <trkpt lat="43.18068" lon="6.63962">
        <ele>24</ele>
        <time>2021-07-28T09:17:37Z</time>
      </trkpt>
      <trkpt lat="43.18069" lon="6.63961">
        <ele>24</ele>
        <time>2021-07-28T09:17:40Z</time>
      </trkpt>
      <trkpt lat="43.18073" lon="6.63965">
        <ele>23.6</ele>
        <time>2021-07-28T09:17:55Z</time>
      </trkpt>
      <trkpt lat="43.18079" lon="6.63969">
        <ele>23.2</ele>
        <time>2021-07-28T09:18:06Z</time>
      </trkpt>
      <trkpt lat="43.1808" lon="6.63969">
        <ele>22.8</ele>
        <time>2021-07-28T09:18:09Z</time>
      </trkpt>
      <trkpt lat="43.1808" lon="6.6397">
        <ele>23.6</ele>
        <time>2021-07-28T09:18:22Z</time>
      </trkpt>
      <trkpt lat="43.1808" lon="6.63969">
        <ele>23.8</ele>
        <time>2021-07-28T09:18:25Z</time>
      </trkpt>
      <trkpt lat="43.18079" lon="6.6397">
        <ele>24.2</ele>
        <time>2021-07-28T09:18:36Z</time>
      </trkpt>
      <trkpt lat="43.18077" lon="6.63973">
        <ele>24.4</ele>
        <time>2021-07-28T09:18:47Z</time>
      </trkpt>
      <trkpt lat="43.1808" lon="6.63969">
        <ele>24.6</ele>
        <time>2021-07-28T09:19:03Z</time>
      </trkpt>
      <trkpt lat="43.18081" lon="6.63969">
        <ele>24.6</ele>
        <time>2021-07-28T09:19:20Z</time>
      </trkpt>
      <trkpt lat="43.18081" lon="6.6397">
        <ele>24.6</ele>
        <time>2021-07-28T09:19:34Z</time>
      </trkpt>
      <trkpt lat="43.18083" lon="6.63967">
        <ele>24.6</ele>
        <time>2021-07-28T09:19:49Z</time>
      </trkpt>
      <trkpt lat="43.1809" lon="6.63965">
        <ele>24.6</ele>
        <time>2021-07-28T09:19:56Z</time>
      </trkpt>
      <trkpt lat="43.18094" lon="6.63962">
        <ele>24.6</ele>
        <time>2021-07-28T09:20:00Z</time>
      </trkpt>
      <trkpt lat="43.18097" lon="6.6396">
        <ele>25</ele>
        <time>2021-07-28T09:20:04Z</time>
      </trkpt>
      <trkpt lat="43.18103" lon="6.63957">
        <ele>24.6</ele>
        <time>2021-07-28T09:20:12Z</time>
      </trkpt>
      <trkpt lat="43.18107" lon="6.63959">
        <ele>24.2</ele>
        <time>2021-07-28T09:20:17Z</time>
      </trkpt>
      <trkpt lat="43.18108" lon="6.6396">
        <ele>23.8</ele>
        <time>2021-07-28T09:20:19Z</time>
      </trkpt>
      <trkpt lat="43.18111" lon="6.6396">
        <ele>23.6</ele>
        <time>2021-07-28T09:20:22Z</time>
      </trkpt>
      <trkpt lat="43.18116" lon="6.63959">
        <ele>23.2</ele>
        <time>2021-07-28T09:20:29Z</time>
      </trkpt>
      <trkpt lat="43.18118" lon="6.63961">
        <ele>22.8</ele>
        <time>2021-07-28T09:20:32Z</time>
      </trkpt>
      <trkpt lat="43.18119" lon="6.63962">
        <ele>22.8</ele>
        <time>2021-07-28T09:20:33Z</time>
      </trkpt>
      <trkpt lat="43.18123" lon="6.63969">
        <ele>23.4</ele>
        <time>2021-07-28T09:20:42Z</time>
      </trkpt>
      <trkpt lat="43.18124" lon="6.63971">
        <ele>24</ele>
        <time>2021-07-28T09:20:45Z</time>
      </trkpt>
      <trkpt lat="43.18128" lon="6.63974">
        <ele>25</ele>
        <time>2021-07-28T09:20:51Z</time>
      </trkpt>
      <trkpt lat="43.18132" lon="6.63975">
        <ele>25.4</ele>
        <time>2021-07-28T09:20:56Z</time>
      </trkpt>
      <trkpt lat="43.18137" lon="6.63975">
        <ele>25.8</ele>
        <time>2021-07-28T09:21:01Z</time>
      </trkpt>
      <trkpt lat="43.18139" lon="6.63976">
        <ele>26.2</ele>
        <time>2021-07-28T09:21:04Z</time>
      </trkpt>
      <trkpt lat="43.18144" lon="6.63977">
        <ele>26.4</ele>
        <time>2021-07-28T09:21:09Z</time>
      </trkpt>
      <trkpt lat="43.18156" lon="6.63981">
        <ele>26.6</ele>
        <time>2021-07-28T09:21:24Z</time>
      </trkpt>
      <trkpt lat="43.18158" lon="6.63982">
        <ele>26.6</ele>
        <time>2021-07-28T09:21:28Z</time>
      </trkpt>
      <trkpt lat="43.18161" lon="6.63988">
        <ele>26.6</ele>
        <time>2021-07-28T09:21:35Z</time>
      </trkpt>
      <trkpt lat="43.18168" lon="6.63999">
        <ele>26.4</ele>
        <time>2021-07-28T09:21:46Z</time>
      </trkpt>
      <trkpt lat="43.18172" lon="6.64008">
        <ele>25.2</ele>
        <time>2021-07-28T09:21:57Z</time>
      </trkpt>
      <trkpt lat="43.18173" lon="6.64009">
        <ele>25</ele>
        <time>2021-07-28T09:21:58Z</time>
      </trkpt>
      <trkpt lat="43.18175" lon="6.64014">
        <ele>23.8</ele>
        <time>2021-07-28T09:22:03Z</time>
      </trkpt>
      <trkpt lat="43.18176" lon="6.64019">
        <ele>22.8</ele>
        <time>2021-07-28T09:22:08Z</time>
      </trkpt>
      <trkpt lat="43.18176" lon="6.64021">
        <ele>21.8</ele>
        <time>2021-07-28T09:22:11Z</time>
      </trkpt>
      <trkpt lat="43.18177" lon="6.64022">
        <ele>21.6</ele>
        <time>2021-07-28T09:22:12Z</time>
      </trkpt>
      <trkpt lat="43.18178" lon="6.64024">
        <ele>20.6</ele>
        <time>2021-07-28T09:22:17Z</time>
      </trkpt>
      <trkpt lat="43.1818" lon="6.64029">
        <ele>19.6</ele>
        <time>2021-07-28T09:22:23Z</time>
      </trkpt>
      <trkpt lat="43.18181" lon="6.64031">
        <ele>18.4</ele>
        <time>2021-07-28T09:22:27Z</time>
      </trkpt>
      <trkpt lat="43.18182" lon="6.64031">
        <ele>18.2</ele>
        <time>2021-07-28T09:22:28Z</time>
      </trkpt>
      <trkpt lat="43.18182" lon="6.64032">
        <ele>17.4</ele>
        <time>2021-07-28T09:22:33Z</time>
      </trkpt>
      <trkpt lat="43.18182" lon="6.64032">
        <ele>16.6</ele>
        <time>2021-07-28T09:22:39Z</time>
      </trkpt>
      <trkpt lat="43.18182" lon="6.64032">
        <ele>16.4</ele>
        <time>2021-07-28T09:22:45Z</time>
      </trkpt>
      <trkpt lat="43.18184" lon="6.64038">
        <ele>17.6</ele>
        <time>2021-07-28T09:22:50Z</time>
      </trkpt>
      <trkpt lat="43.18184" lon="6.64044">
        <ele>16.6</ele>
        <time>2021-07-28T09:23:00Z</time>
      </trkpt>
      <trkpt lat="43.18184" lon="6.64044">
        <ele>16.6</ele>
        <time>2021-07-28T09:23:01Z</time>
      </trkpt>
      <trkpt lat="43.18184" lon="6.64046">
        <ele>17</ele>
        <time>2021-07-28T09:23:16Z</time>
      </trkpt>
      <trkpt lat="43.18182" lon="6.64049">
        <ele>15.8</ele>
        <time>2021-07-28T09:23:26Z</time>
      </trkpt>
      <trkpt lat="43.18183" lon="6.64049">
        <ele>15.6</ele>
        <time>2021-07-28T09:23:29Z</time>
      </trkpt>
      <trkpt lat="43.18183" lon="6.6405">
        <ele>14.2</ele>
        <time>2021-07-28T09:23:31Z</time>
      </trkpt>
      <trkpt lat="43.18182" lon="6.64052">
        <ele>13.8</ele>
        <time>2021-07-28T09:23:38Z</time>
      </trkpt>
      <trkpt lat="43.18185" lon="6.64053">
        <ele>13.4</ele>
        <time>2021-07-28T09:23:48Z</time>
      </trkpt>
      <trkpt lat="43.18187" lon="6.64053">
        <ele>13</ele>
        <time>2021-07-28T09:23:52Z</time>
      </trkpt>
      <trkpt lat="43.18186" lon="6.64055">
        <ele>12.2</ele>
        <time>2021-07-28T09:24:00Z</time>
      </trkpt>
      <trkpt lat="43.18186" lon="6.64055">
        <ele>12</ele>
        <time>2021-07-28T09:24:01Z</time>
      </trkpt>
      <trkpt lat="43.18187" lon="6.64055">
        <ele>11</ele>
        <time>2021-07-28T09:24:06Z</time>
      </trkpt>
      <trkpt lat="43.18191" lon="6.64057">
        <ele>10.4</ele>
        <time>2021-07-28T09:24:12Z</time>
      </trkpt>
      <trkpt lat="43.18191" lon="6.64058">
        <ele>10</ele>
        <time>2021-07-28T09:24:13Z</time>
      </trkpt>
      <trkpt lat="43.18196" lon="6.64065">
        <ele>9</ele>
        <time>2021-07-28T09:24:23Z</time>
      </trkpt>
      <trkpt lat="43.18196" lon="6.64066">
        <ele>9</ele>
        <time>2021-07-28T09:24:25Z</time>
      </trkpt>
      <trkpt lat="43.18197" lon="6.64066">
        <ele>9.8</ele>
        <time>2021-07-28T09:24:37Z</time>
      </trkpt>
      <trkpt lat="43.18197" lon="6.64065">
        <ele>10.2</ele>
        <time>2021-07-28T09:24:39Z</time>
      </trkpt>
      <trkpt lat="43.18202" lon="6.64064">
        <ele>11.2</ele>
        <time>2021-07-28T09:24:45Z</time>
      </trkpt>
      <trkpt lat="43.18203" lon="6.64066">
        <ele>11</ele>
        <time>2021-07-28T09:24:47Z</time>
      </trkpt>
      <trkpt lat="43.18205" lon="6.64072">
        <ele>10.4</ele>
        <time>2021-07-28T09:24:55Z</time>
      </trkpt>
      <trkpt lat="43.18205" lon="6.64073">
        <ele>10</ele>
        <time>2021-07-28T09:24:56Z</time>
      </trkpt>
      <trkpt lat="43.18205" lon="6.64075">
        <ele>10</ele>
        <time>2021-07-28T09:24:58Z</time>
      </trkpt>
      <trkpt lat="43.18206" lon="6.64078">
        <ele>10</ele>
        <time>2021-07-28T09:25:01Z</time>
      </trkpt>
      <trkpt lat="43.18206" lon="6.64081">
        <ele>10</ele>
        <time>2021-07-28T09:25:04Z</time>
      </trkpt>
      <trkpt lat="43.18207" lon="6.64081">
        <ele>10.4</ele>
        <time>2021-07-28T09:25:07Z</time>
      </trkpt>
      <trkpt lat="43.18208" lon="6.64083">
        <ele>10.6</ele>
        <time>2021-07-28T09:25:09Z</time>
      </trkpt>
      <trkpt lat="43.18209" lon="6.64085">
        <ele>11.2</ele>
        <time>2021-07-28T09:25:12Z</time>
      </trkpt>
      <trkpt lat="43.1821" lon="6.64084">
        <ele>11.8</ele>
        <time>2021-07-28T09:25:20Z</time>
      </trkpt>
      <trkpt lat="43.18211" lon="6.64083">
        <ele>12.2</ele>
        <time>2021-07-28T09:25:27Z</time>
      </trkpt>
      <trkpt lat="43.18211" lon="6.64084">
        <ele>13.4</ele>
        <time>2021-07-28T09:25:35Z</time>
      </trkpt>
      <trkpt lat="43.18211" lon="6.64084">
        <ele>13.4</ele>
        <time>2021-07-28T09:25:36Z</time>
      </trkpt>
      <trkpt lat="43.1821" lon="6.64083">
        <ele>14.4</ele>
        <time>2021-07-28T09:25:43Z</time>
      </trkpt>
      <trkpt lat="43.1821" lon="6.64084">
        <ele>13.4</ele>
        <time>2021-07-28T09:25:46Z</time>
      </trkpt>
      <trkpt lat="43.1821" lon="6.64087">
        <ele>12</ele>
        <time>2021-07-28T09:25:49Z</time>
      </trkpt>
      <trkpt lat="43.18208" lon="6.64093">
        <ele>11</ele>
        <time>2021-07-28T09:25:55Z</time>
      </trkpt>
      <trkpt lat="43.18209" lon="6.64099">
        <ele>10.2</ele>
        <time>2021-07-28T09:26:02Z</time>
      </trkpt>
      <trkpt lat="43.18212" lon="6.6411">
        <ele>10.2</ele>
        <time>2021-07-28T09:26:11Z</time>
      </trkpt>
      <trkpt lat="43.18213" lon="6.64115">
        <ele>11</ele>
        <time>2021-07-28T09:26:14Z</time>
      </trkpt>
      <trkpt lat="43.18216" lon="6.64119">
        <ele>12</ele>
        <time>2021-07-28T09:26:19Z</time>
      </trkpt>
      <trkpt lat="43.18219" lon="6.64127">
        <ele>12.4</ele>
        <time>2021-07-28T09:26:26Z</time>
      </trkpt>
      <trkpt lat="43.18223" lon="6.64136">
        <ele>13</ele>
        <time>2021-07-28T09:26:38Z</time>
      </trkpt>
      <trkpt lat="43.18223" lon="6.64137">
        <ele>13.2</ele>
        <time>2021-07-28T09:26:39Z</time>
      </trkpt>
      <trkpt lat="43.18223" lon="6.64137">
        <ele>13.2</ele>
        <time>2021-07-28T09:26:40Z</time>
      </trkpt>
      <trkpt lat="43.18223" lon="6.64139">
        <ele>13.4</ele>
        <time>2021-07-28T09:26:41Z</time>
      </trkpt>
      <trkpt lat="43.18223" lon="6.6414">
        <ele>13.8</ele>
        <time>2021-07-28T09:26:43Z</time>
      </trkpt>
      <trkpt lat="43.18223" lon="6.64141">
        <ele>14</ele>
        <time>2021-07-28T09:26:44Z</time>
      </trkpt>
      <trkpt lat="43.18223" lon="6.64146">
        <ele>15</ele>
        <time>2021-07-28T09:26:50Z</time>
      </trkpt>
      <trkpt lat="43.18226" lon="6.64148">
        <ele>15.6</ele>
        <time>2021-07-28T09:26:55Z</time>
      </trkpt>
      <trkpt lat="43.18232" lon="6.64149">
        <ele>16.6</ele>
        <time>2021-07-28T09:27:04Z</time>
      </trkpt>
      <trkpt lat="43.18234" lon="6.6415">
        <ele>17.6</ele>
        <time>2021-07-28T09:27:07Z</time>
      </trkpt>
      <trkpt lat="43.18237" lon="6.64152">
        <ele>18.6</ele>
        <time>2021-07-28T09:27:10Z</time>
      </trkpt>
      <trkpt lat="43.18238" lon="6.64152">
        <ele>18.6</ele>
        <time>2021-07-28T09:27:19Z</time>
      </trkpt>
      <trkpt lat="43.18238" lon="6.64152">
        <ele>18.8</ele>
        <time>2021-07-28T09:27:21Z</time>
      </trkpt>
      <trkpt lat="43.18239" lon="6.64152">
        <ele>13.2</ele>
        <time>2021-07-28T09:27:28Z</time>
      </trkpt>
      <trkpt lat="43.18239" lon="6.64152">
        <ele>11.6</ele>
        <time>2021-07-28T09:27:30Z</time>
      </trkpt>
      <trkpt lat="43.18238" lon="6.64152">
        <ele>10.2</ele>
        <time>2021-07-28T09:27:32Z</time>
      </trkpt>
      <trkpt lat="43.18239" lon="6.64152">
        <ele>11.6</ele>
        <time>2021-07-28T09:27:35Z</time>
      </trkpt>
      <trkpt lat="43.18239" lon="6.64151">
        <ele>15.2</ele>
        <time>2021-07-28T09:27:43Z</time>
      </trkpt>
      <trkpt lat="43.18239" lon="6.64151">
        <ele>17</ele>
        <time>2021-07-28T09:27:44Z</time>
      </trkpt>
      <trkpt lat="43.18238" lon="6.64151">
        <ele>18</ele>
        <time>2021-07-28T09:27:51Z</time>
      </trkpt>
      <trkpt lat="43.18238" lon="6.64151">
        <ele>19.8</ele>
        <time>2021-07-28T09:27:52Z</time>
      </trkpt>
      <trkpt lat="43.18238" lon="6.64151">
        <ele>20.8</ele>
        <time>2021-07-28T09:27:56Z</time>
      </trkpt>
      <trkpt lat="43.1824" lon="6.6415">
        <ele>21.8</ele>
        <time>2021-07-28T09:28:02Z</time>
      </trkpt>
      <trkpt lat="43.18241" lon="6.6415">
        <ele>19</ele>
        <time>2021-07-28T09:28:04Z</time>
      </trkpt>
      <trkpt lat="43.18242" lon="6.64151">
        <ele>18.6</ele>
        <time>2021-07-28T09:28:07Z</time>
      </trkpt>
      <trkpt lat="43.18248" lon="6.64153">
        <ele>19.4</ele>
        <time>2021-07-28T09:28:17Z</time>
      </trkpt>
      <trkpt lat="43.1825" lon="6.64156">
        <ele>19.8</ele>
        <time>2021-07-28T09:28:25Z</time>
      </trkpt>
      <trkpt lat="43.18252" lon="6.64155">
        <ele>18.4</ele>
        <time>2021-07-28T09:28:39Z</time>
      </trkpt>
      <trkpt lat="43.18259" lon="6.6415">
        <ele>20</ele>
        <time>2021-07-28T09:28:54Z</time>
      </trkpt>
      <trkpt lat="43.18259" lon="6.6415">
        <ele>20</ele>
        <time>2021-07-28T09:28:55Z</time>
      </trkpt>
      <trkpt lat="43.18262" lon="6.64147">
        <ele>21.2</ele>
        <time>2021-07-28T09:29:02Z</time>
      </trkpt>
      <trkpt lat="43.18263" lon="6.64145">
        <ele>21.4</ele>
        <time>2021-07-28T09:29:07Z</time>
      </trkpt>
      <trkpt lat="43.18265" lon="6.64137">
        <ele>22.4</ele>
        <time>2021-07-28T09:29:14Z</time>
      </trkpt>
      <trkpt lat="43.18267" lon="6.64135">
        <ele>23.2</ele>
        <time>2021-07-28T09:29:18Z</time>
      </trkpt>
      <trkpt lat="43.18269" lon="6.64136">
        <ele>23.4</ele>
        <time>2021-07-28T09:29:20Z</time>
      </trkpt>
      <trkpt lat="43.18271" lon="6.64137">
        <ele>23.4</ele>
        <time>2021-07-28T09:29:22Z</time>
      </trkpt>
      <trkpt lat="43.18272" lon="6.64138">
        <ele>23.6</ele>
        <time>2021-07-28T09:29:24Z</time>
      </trkpt>
      <trkpt lat="43.18273" lon="6.64139">
        <ele>23.6</ele>
        <time>2021-07-28T09:29:25Z</time>
      </trkpt>
      <trkpt lat="43.18273" lon="6.64142">
        <ele>23.6</ele>
        <time>2021-07-28T09:29:27Z</time>
      </trkpt>
      <trkpt lat="43.18279" lon="6.64155">
        <ele>23.6</ele>
        <time>2021-07-28T09:29:40Z</time>
      </trkpt>
      <trkpt lat="43.18279" lon="6.64156">
        <ele>23.6</ele>
        <time>2021-07-28T09:29:42Z</time>
      </trkpt>
      <trkpt lat="43.1828" lon="6.64158">
        <ele>23.6</ele>
        <time>2021-07-28T09:29:44Z</time>
      </trkpt>
      <trkpt lat="43.18283" lon="6.64162">
        <ele>23.8</ele>
        <time>2021-07-28T09:29:49Z</time>
      </trkpt>
      <trkpt lat="43.18287" lon="6.64174">
        <ele>24</ele>
        <time>2021-07-28T09:30:00Z</time>
      </trkpt>
      <trkpt lat="43.18291" lon="6.6419">
        <ele>24.4</ele>
        <time>2021-07-28T09:30:13Z</time>
      </trkpt>
      <trkpt lat="43.18296" lon="6.64196">
        <ele>24.4</ele>
        <time>2021-07-28T09:30:20Z</time>
      </trkpt>
      <trkpt lat="43.18296" lon="6.64197">
        <ele>24.4</ele>
        <time>2021-07-28T09:30:21Z</time>
      </trkpt>
      <trkpt lat="43.18297" lon="6.64199">
        <ele>24.6</ele>
        <time>2021-07-28T09:30:23Z</time>
      </trkpt>
      <trkpt lat="43.18304" lon="6.6421">
        <ele>25.4</ele>
        <time>2021-07-28T09:30:34Z</time>
      </trkpt>
      <trkpt lat="43.18305" lon="6.64212">
        <ele>25.6</ele>
        <time>2021-07-28T09:30:37Z</time>
      </trkpt>
      <trkpt lat="43.18309" lon="6.64215">
        <ele>26.2</ele>
        <time>2021-07-28T09:30:45Z</time>
      </trkpt>
      <trkpt lat="43.1831" lon="6.64216">
        <ele>26.2</ele>
        <time>2021-07-28T09:30:48Z</time>
      </trkpt>
      <trkpt lat="43.18315" lon="6.64216">
        <ele>26.4</ele>
        <time>2021-07-28T09:30:52Z</time>
      </trkpt>
      <trkpt lat="43.1832" lon="6.64219">
        <ele>27.4</ele>
        <time>2021-07-28T09:30:58Z</time>
      </trkpt>
      <trkpt lat="43.18321" lon="6.64219">
        <ele>27.6</ele>
        <time>2021-07-28T09:30:59Z</time>
      </trkpt>
      <trkpt lat="43.18326" lon="6.64222">
        <ele>28.8</ele>
        <time>2021-07-28T09:31:06Z</time>
      </trkpt>
      <trkpt lat="43.18332" lon="6.64225">
        <ele>29.8</ele>
        <time>2021-07-28T09:31:13Z</time>
      </trkpt>
      <trkpt lat="43.18333" lon="6.64226">
        <ele>30</ele>
        <time>2021-07-28T09:31:14Z</time>
      </trkpt>
      <trkpt lat="43.18339" lon="6.64226">
        <ele>31</ele>
        <time>2021-07-28T09:31:20Z</time>
      </trkpt>
      <trkpt lat="43.18346" lon="6.64226">
        <ele>31.8</ele>
        <time>2021-07-28T09:31:27Z</time>
      </trkpt>
      <trkpt lat="43.18347" lon="6.64226">
        <ele>31.8</ele>
        <time>2021-07-28T09:31:28Z</time>
      </trkpt>
      <trkpt lat="43.18348" lon="6.64226">
        <ele>32.2</ele>
        <time>2021-07-28T09:31:29Z</time>
      </trkpt>
      <trkpt lat="43.18357" lon="6.64226">
        <ele>33.2</ele>
        <time>2021-07-28T09:31:37Z</time>
      </trkpt>
      <trkpt lat="43.18364" lon="6.64225">
        <ele>34.2</ele>
        <time>2021-07-28T09:31:44Z</time>
      </trkpt>
      <trkpt lat="43.18365" lon="6.64225">
        <ele>34.4</ele>
        <time>2021-07-28T09:31:45Z</time>
      </trkpt>
      <trkpt lat="43.18367" lon="6.64228">
        <ele>34.8</ele>
        <time>2021-07-28T09:31:51Z</time>
      </trkpt>
      <trkpt lat="43.18367" lon="6.64227">
        <ele>34.8</ele>
        <time>2021-07-28T09:31:52Z</time>
      </trkpt>
      <trkpt lat="43.18368" lon="6.64223">
        <ele>34.8</ele>
        <time>2021-07-28T09:32:00Z</time>
      </trkpt>
      <trkpt lat="43.18379" lon="6.64216">
        <ele>35</ele>
        <time>2021-07-28T09:32:12Z</time>
      </trkpt>
      <trkpt lat="43.18391" lon="6.64211">
        <ele>35.4</ele>
        <time>2021-07-28T09:32:25Z</time>
      </trkpt>
      <trkpt lat="43.18391" lon="6.64211">
        <ele>35.4</ele>
        <time>2021-07-28T09:32:27Z</time>
      </trkpt>
      <trkpt lat="43.18397" lon="6.64207">
        <ele>35</ele>
        <time>2021-07-28T09:32:36Z</time>
      </trkpt>
      <trkpt lat="43.18401" lon="6.64207">
        <ele>35</ele>
        <time>2021-07-28T09:32:45Z</time>
      </trkpt>
      <trkpt lat="43.18408" lon="6.64207">
        <ele>28.8</ele>
        <time>2021-07-28T09:32:57Z</time>
      </trkpt>
      <trkpt lat="43.18412" lon="6.64205">
        <ele>28</ele>
        <time>2021-07-28T09:33:07Z</time>
      </trkpt>
      <trkpt lat="43.18412" lon="6.64205">
        <ele>32</ele>
        <time>2021-07-28T09:33:10Z</time>
      </trkpt>
      <trkpt lat="43.18412" lon="6.64205">
        <ele>33.6</ele>
        <time>2021-07-28T09:33:11Z</time>
      </trkpt>
      <trkpt lat="43.18412" lon="6.64205">
        <ele>35</ele>
        <time>2021-07-28T09:33:13Z</time>
      </trkpt>
      <trkpt lat="43.18412" lon="6.64205">
        <ele>35.2</ele>
        <time>2021-07-28T09:33:19Z</time>
      </trkpt>
      <trkpt lat="43.18416" lon="6.642">
        <ele>34.8</ele>
        <time>2021-07-28T09:33:30Z</time>
      </trkpt>
      <trkpt lat="43.18424" lon="6.64196">
        <ele>34.8</ele>
        <time>2021-07-28T09:33:39Z</time>
      </trkpt>
      <trkpt lat="43.18433" lon="6.64195">
        <ele>34.8</ele>
        <time>2021-07-28T09:33:50Z</time>
      </trkpt>
      <trkpt lat="43.18433" lon="6.64195">
        <ele>34.8</ele>
        <time>2021-07-28T09:33:51Z</time>
      </trkpt>
      <trkpt lat="43.18433" lon="6.64194">
        <ele>34.8</ele>
        <time>2021-07-28T09:33:52Z</time>
      </trkpt>
      <trkpt lat="43.18435" lon="6.64192">
        <ele>34.8</ele>
        <time>2021-07-28T09:34:02Z</time>
      </trkpt>
      <trkpt lat="43.18444" lon="6.6419">
        <ele>34.6</ele>
        <time>2021-07-28T09:34:10Z</time>
      </trkpt>
      <trkpt lat="43.18448" lon="6.64193">
        <ele>35.2</ele>
        <time>2021-07-28T09:34:17Z</time>
      </trkpt>
      <trkpt lat="43.18447" lon="6.64194">
        <ele>35.2</ele>
        <time>2021-07-28T09:34:19Z</time>
      </trkpt>
      <trkpt lat="43.18451" lon="6.64189">
        <ele>35.4</ele>
        <time>2021-07-28T09:34:28Z</time>
      </trkpt>
      <trkpt lat="43.18463" lon="6.64182">
        <ele>35.4</ele>
        <time>2021-07-28T09:34:39Z</time>
      </trkpt>
      <trkpt lat="43.18482" lon="6.64175">
        <ele>34.4</ele>
        <time>2021-07-28T09:34:54Z</time>
      </trkpt>
      <trkpt lat="43.18498" lon="6.64168">
        <ele>34.2</ele>
        <time>2021-07-28T09:35:09Z</time>
      </trkpt>
      <trkpt lat="43.18509" lon="6.6416">
        <ele>33.8</ele>
        <time>2021-07-28T09:35:20Z</time>
      </trkpt>
      <trkpt lat="43.18511" lon="6.64159">
        <ele>34</ele>
        <time>2021-07-28T09:35:22Z</time>
      </trkpt>
      <trkpt lat="43.18523" lon="6.64152">
        <ele>36</ele>
        <time>2021-07-28T09:35:33Z</time>
      </trkpt>
      <trkpt lat="43.18525" lon="6.64151">
        <ele>38.8</ele>
        <time>2021-07-28T09:35:35Z</time>
      </trkpt>
      <trkpt lat="43.18526" lon="6.6415">
        <ele>39.8</ele>
        <time>2021-07-28T09:35:36Z</time>
      </trkpt>
      <trkpt lat="43.18529" lon="6.64148">
        <ele>41</ele>
        <time>2021-07-28T09:35:39Z</time>
      </trkpt>
      <trkpt lat="43.18535" lon="6.64146">
        <ele>42</ele>
        <time>2021-07-28T09:35:44Z</time>
      </trkpt>
      <trkpt lat="43.1854" lon="6.64142">
        <ele>42.8</ele>
        <time>2021-07-28T09:35:50Z</time>
      </trkpt>
      <trkpt lat="43.18551" lon="6.64137">
        <ele>36.6</ele>
        <time>2021-07-28T09:36:01Z</time>
      </trkpt>
      <trkpt lat="43.18552" lon="6.64137">
        <ele>33.8</ele>
        <time>2021-07-28T09:36:02Z</time>
      </trkpt>
      <trkpt lat="43.18553" lon="6.64137">
        <ele>32.4</ele>
        <time>2021-07-28T09:36:03Z</time>
      </trkpt>
      <trkpt lat="43.18554" lon="6.64139">
        <ele>31</ele>
        <time>2021-07-28T09:36:05Z</time>
      </trkpt>
      <trkpt lat="43.18554" lon="6.64141">
        <ele>30.6</ele>
        <time>2021-07-28T09:36:12Z</time>
      </trkpt>
      <trkpt lat="43.18559" lon="6.64135">
        <ele>30.4</ele>
        <time>2021-07-28T09:36:21Z</time>
      </trkpt>
      <trkpt lat="43.18561" lon="6.64133">
        <ele>30</ele>
        <time>2021-07-28T09:36:24Z</time>
      </trkpt>
      <trkpt lat="43.18572" lon="6.64128">
        <ele>29</ele>
        <time>2021-07-28T09:36:34Z</time>
      </trkpt>
      <trkpt lat="43.18573" lon="6.64127">
        <ele>28.8</ele>
        <time>2021-07-28T09:36:35Z</time>
      </trkpt>
      <trkpt lat="43.18584" lon="6.6412">
        <ele>27.8</ele>
        <time>2021-07-28T09:36:45Z</time>
      </trkpt>
      <trkpt lat="43.1859" lon="6.64118">
        <ele>27</ele>
        <time>2021-07-28T09:36:50Z</time>
      </trkpt>
      <trkpt lat="43.18596" lon="6.64114">
        <ele>26.6</ele>
        <time>2021-07-28T09:36:57Z</time>
      </trkpt>
      <trkpt lat="43.18602" lon="6.64109">
        <ele>26.4</ele>
        <time>2021-07-28T09:37:03Z</time>
      </trkpt>
      <trkpt lat="43.18613" lon="6.64109">
        <ele>25.6</ele>
        <time>2021-07-28T09:37:14Z</time>
      </trkpt>
      <trkpt lat="43.18628" lon="6.64114">
        <ele>24.6</ele>
        <time>2021-07-28T09:37:28Z</time>
      </trkpt>
      <trkpt lat="43.18629" lon="6.64115">
        <ele>24.6</ele>
        <time>2021-07-28T09:37:29Z</time>
      </trkpt>
      <trkpt lat="43.18637" lon="6.64121">
        <ele>24.4</ele>
        <time>2021-07-28T09:37:38Z</time>
      </trkpt>
      <trkpt lat="43.18645" lon="6.64124">
        <ele>23.6</ele>
        <time>2021-07-28T09:37:46Z</time>
      </trkpt>
      <trkpt lat="43.18647" lon="6.64124">
        <ele>23.6</ele>
        <time>2021-07-28T09:37:48Z</time>
      </trkpt>
      <trkpt lat="43.18656" lon="6.64128">
        <ele>22.6</ele>
        <time>2021-07-28T09:37:57Z</time>
      </trkpt>
      <trkpt lat="43.18662" lon="6.64132">
        <ele>22.2</ele>
        <time>2021-07-28T09:38:04Z</time>
      </trkpt>
      <trkpt lat="43.18673" lon="6.64139">
        <ele>21.4</ele>
        <time>2021-07-28T09:38:16Z</time>
      </trkpt>
      <trkpt lat="43.18674" lon="6.6414">
        <ele>21.4</ele>
        <time>2021-07-28T09:38:17Z</time>
      </trkpt>
      <trkpt lat="43.18686" lon="6.64147">
        <ele>20.6</ele>
        <time>2021-07-28T09:38:30Z</time>
      </trkpt>
      <trkpt lat="43.1869" lon="6.6415">
        <ele>20.4</ele>
        <time>2021-07-28T09:38:34Z</time>
      </trkpt>
      <trkpt lat="43.18699" lon="6.64153">
        <ele>19.8</ele>
        <time>2021-07-28T09:38:43Z</time>
      </trkpt>
      <trkpt lat="43.18702" lon="6.64154">
        <ele>19.6</ele>
        <time>2021-07-28T09:38:48Z</time>
      </trkpt>
      <trkpt lat="43.18703" lon="6.64154">
        <ele>19.6</ele>
        <time>2021-07-28T09:38:50Z</time>
      </trkpt>
      <trkpt lat="43.18704" lon="6.64155">
        <ele>19.6</ele>
        <time>2021-07-28T09:38:51Z</time>
      </trkpt>
      <trkpt lat="43.18709" lon="6.64159">
        <ele>19.4</ele>
        <time>2021-07-28T09:38:58Z</time>
      </trkpt>
      <trkpt lat="43.18714" lon="6.64163">
        <ele>19.2</ele>
        <time>2021-07-28T09:39:04Z</time>
      </trkpt>
      <trkpt lat="43.18723" lon="6.64169">
        <ele>19.2</ele>
        <time>2021-07-28T09:39:17Z</time>
      </trkpt>
      <trkpt lat="43.18724" lon="6.64169">
        <ele>19</ele>
        <time>2021-07-28T09:39:19Z</time>
      </trkpt>
      <trkpt lat="43.18725" lon="6.64171">
        <ele>19</ele>
        <time>2021-07-28T09:39:26Z</time>
      </trkpt>
      <trkpt lat="43.18733" lon="6.64179">
        <ele>18.6</ele>
        <time>2021-07-28T09:39:38Z</time>
      </trkpt>
      <trkpt lat="43.18735" lon="6.6418">
        <ele>18.4</ele>
        <time>2021-07-28T09:39:42Z</time>
      </trkpt>
      <trkpt lat="43.18736" lon="6.64181">
        <ele>18.4</ele>
        <time>2021-07-28T09:39:49Z</time>
      </trkpt>
      <trkpt lat="43.1874" lon="6.64183">
        <ele>18.4</ele>
        <time>2021-07-28T09:39:58Z</time>
      </trkpt>
      <trkpt lat="43.18746" lon="6.64186">
        <ele>18.6</ele>
        <time>2021-07-28T09:40:08Z</time>
      </trkpt>
      <trkpt lat="43.18747" lon="6.64189">
        <ele>18.8</ele>
        <time>2021-07-28T09:40:18Z</time>
      </trkpt>
      <trkpt lat="43.18748" lon="6.6419">
        <ele>19.4</ele>
        <time>2021-07-28T09:40:23Z</time>
      </trkpt>
      <trkpt lat="43.18748" lon="6.64189">
        <ele>19</ele>
        <time>2021-07-28T09:40:29Z</time>
      </trkpt>
      <trkpt lat="43.18753" lon="6.64191">
        <ele>18.6</ele>
        <time>2021-07-28T09:40:35Z</time>
      </trkpt>
      <trkpt lat="43.18757" lon="6.64193">
        <ele>18.4</ele>
        <time>2021-07-28T09:40:40Z</time>
      </trkpt>
      <trkpt lat="43.18763" lon="6.642">
        <ele>18.6</ele>
        <time>2021-07-28T09:40:49Z</time>
      </trkpt>
      <trkpt lat="43.18763" lon="6.64201">
        <ele>18.6</ele>
        <time>2021-07-28T09:40:51Z</time>
      </trkpt>
      <trkpt lat="43.18765" lon="6.64202">
        <ele>18.6</ele>
        <time>2021-07-28T09:40:53Z</time>
      </trkpt>
      <trkpt lat="43.1877" lon="6.64206">
        <ele>18.6</ele>
        <time>2021-07-28T09:40:59Z</time>
      </trkpt>
      <trkpt lat="43.18781" lon="6.64217">
        <ele>18.6</ele>
        <time>2021-07-28T09:41:12Z</time>
      </trkpt>
      <trkpt lat="43.18782" lon="6.64218">
        <ele>18.6</ele>
        <time>2021-07-28T09:41:13Z</time>
      </trkpt>
      <trkpt lat="43.18786" lon="6.64225">
        <ele>18.4</ele>
        <time>2021-07-28T09:41:21Z</time>
      </trkpt>
      <trkpt lat="43.18797" lon="6.64236">
        <ele>19</ele>
        <time>2021-07-28T09:41:34Z</time>
      </trkpt>
      <trkpt lat="43.18807" lon="6.64242">
        <ele>19.2</ele>
        <time>2021-07-28T09:41:46Z</time>
      </trkpt>
      <trkpt lat="43.18818" lon="6.64259">
        <ele>19.2</ele>
        <time>2021-07-28T09:42:01Z</time>
      </trkpt>
      <trkpt lat="43.18826" lon="6.64269">
        <ele>19.4</ele>
        <time>2021-07-28T09:42:12Z</time>
      </trkpt>
      <trkpt lat="43.18828" lon="6.64272">
        <ele>19.6</ele>
        <time>2021-07-28T09:42:15Z</time>
      </trkpt>
      <trkpt lat="43.18839" lon="6.64281">
        <ele>19.6</ele>
        <time>2021-07-28T09:42:29Z</time>
      </trkpt>
      <trkpt lat="43.1884" lon="6.64281">
        <ele>19.8</ele>
        <time>2021-07-28T09:42:30Z</time>
      </trkpt>
      <trkpt lat="43.1884" lon="6.6428">
        <ele>19.8</ele>
        <time>2021-07-28T09:42:32Z</time>
      </trkpt>
      <trkpt lat="43.18841" lon="6.6428">
        <ele>19.8</ele>
        <time>2021-07-28T09:42:34Z</time>
      </trkpt>
      <trkpt lat="43.18839" lon="6.64279">
        <ele>19.4</ele>
        <time>2021-07-28T09:42:41Z</time>
      </trkpt>
      <trkpt lat="43.18841" lon="6.64276">
        <ele>19.2</ele>
        <time>2021-07-28T09:42:54Z</time>
      </trkpt>
      <trkpt lat="43.18841" lon="6.64277">
        <ele>19.2</ele>
        <time>2021-07-28T09:43:02Z</time>
      </trkpt>
      <trkpt lat="43.1884" lon="6.64279">
        <ele>19.2</ele>
        <time>2021-07-28T09:43:14Z</time>
      </trkpt>
      <trkpt lat="43.1884" lon="6.64276">
        <ele>19</ele>
        <time>2021-07-28T09:43:29Z</time>
      </trkpt>
      <trkpt lat="43.1884" lon="6.64275">
        <ele>18.4</ele>
        <time>2021-07-28T09:43:40Z</time>
      </trkpt>
      <trkpt lat="43.1884" lon="6.64274">
        <ele>17.6</ele>
        <time>2021-07-28T09:43:44Z</time>
      </trkpt>
      <trkpt lat="43.1884" lon="6.64274">
        <ele>17.4</ele>
        <time>2021-07-28T09:43:45Z</time>
      </trkpt>
      <trkpt lat="43.18839" lon="6.64275">
        <ele>16.2</ele>
        <time>2021-07-28T09:43:48Z</time>
      </trkpt>
      <trkpt lat="43.1884" lon="6.64274">
        <ele>15</ele>
        <time>2021-07-28T09:43:55Z</time>
      </trkpt>
      <trkpt lat="43.18841" lon="6.64274">
        <ele>13.6</ele>
        <time>2021-07-28T09:43:57Z</time>
      </trkpt>
      <trkpt lat="43.18841" lon="6.64274">
        <ele>13.8</ele>
        <time>2021-07-28T09:44:00Z</time>
      </trkpt>
      <trkpt lat="43.18841" lon="6.64275">
        <ele>12.6</ele>
        <time>2021-07-28T09:44:12Z</time>
      </trkpt>
      <trkpt lat="43.18842" lon="6.64275">
        <ele>12.8</ele>
        <time>2021-07-28T09:44:15Z</time>
      </trkpt>
      <trkpt lat="43.18841" lon="6.64272">
        <ele>11.2</ele>
        <time>2021-07-28T09:44:21Z</time>
      </trkpt>
      <trkpt lat="43.1884" lon="6.64276">
        <ele>12.4</ele>
        <time>2021-07-28T09:44:25Z</time>
      </trkpt>
      <trkpt lat="43.1884" lon="6.64276">
        <ele>12.6</ele>
        <time>2021-07-28T09:44:26Z</time>
      </trkpt>
      <trkpt lat="43.1884" lon="6.64278">
        <ele>13.4</ele>
        <time>2021-07-28T09:44:29Z</time>
      </trkpt>
      <trkpt lat="43.18838" lon="6.64279">
        <ele>14.6</ele>
        <time>2021-07-28T09:44:34Z</time>
      </trkpt>
      <trkpt lat="43.18838" lon="6.64281">
        <ele>15.8</ele>
        <time>2021-07-28T09:44:37Z</time>
      </trkpt>
      <trkpt lat="43.18838" lon="6.64282">
        <ele>16</ele>
        <time>2021-07-28T09:44:40Z</time>
      </trkpt>
      <trkpt lat="43.18839" lon="6.64282">
        <ele>16.8</ele>
        <time>2021-07-28T09:44:46Z</time>
      </trkpt>
      <trkpt lat="43.1884" lon="6.64282">
        <ele>18</ele>
        <time>2021-07-28T09:44:49Z</time>
      </trkpt>
      <trkpt lat="43.18838" lon="6.64284">
        <ele>19</ele>
        <time>2021-07-28T09:44:52Z</time>
      </trkpt>
      <trkpt lat="43.18838" lon="6.64284">
        <ele>19</ele>
        <time>2021-07-28T09:44:53Z</time>
      </trkpt>
      <trkpt lat="43.18836" lon="6.64282">
        <ele>18</ele>
        <time>2021-07-28T09:44:59Z</time>
      </trkpt>
      <trkpt lat="43.18836" lon="6.64282">
        <ele>18</ele>
        <time>2021-07-28T09:45:02Z</time>
      </trkpt>
      <trkpt lat="43.18836" lon="6.64282">
        <ele>16.6</ele>
        <time>2021-07-28T09:45:08Z</time>
      </trkpt>
      <trkpt lat="43.18839" lon="6.64279">
        <ele>15.6</ele>
        <time>2021-07-28T09:45:14Z</time>
      </trkpt>
      <trkpt lat="43.1884" lon="6.64278">
        <ele>14.8</ele>
        <time>2021-07-28T09:45:16Z</time>
      </trkpt>
      <trkpt lat="43.1884" lon="6.64278">
        <ele>14</ele>
        <time>2021-07-28T09:45:17Z</time>
      </trkpt>
      <trkpt lat="43.1884" lon="6.64277">
        <ele>13.8</ele>
        <time>2021-07-28T09:45:31Z</time>
      </trkpt>
      <trkpt lat="43.1884" lon="6.64277">
        <ele>13.8</ele>
        <time>2021-07-28T09:45:39Z</time>
      </trkpt>
      <trkpt lat="43.1884" lon="6.64278">
        <ele>14</ele>
        <time>2021-07-28T09:45:43Z</time>
      </trkpt>
      <trkpt lat="43.1884" lon="6.64278">
        <ele>15.2</ele>
        <time>2021-07-28T09:45:56Z</time>
      </trkpt>
      <trkpt lat="43.1884" lon="6.64278">
        <ele>15.4</ele>
        <time>2021-07-28T09:45:58Z</time>
      </trkpt>
      <trkpt lat="43.1884" lon="6.64277">
        <ele>16.4</ele>
        <time>2021-07-28T09:46:09Z</time>
      </trkpt>
      <trkpt lat="43.18839" lon="6.64277">
        <ele>17</ele>
        <time>2021-07-28T09:46:16Z</time>
      </trkpt>
      <trkpt lat="43.18839" lon="6.64276">
        <ele>17.4</ele>
        <time>2021-07-28T09:46:23Z</time>
      </trkpt>
      <trkpt lat="43.18839" lon="6.64276">
        <ele>17.6</ele>
        <time>2021-07-28T09:46:26Z</time>
      </trkpt>
      <trkpt lat="43.18838" lon="6.64275">
        <ele>18.4</ele>
        <time>2021-07-28T09:46:41Z</time>
      </trkpt>
      <trkpt lat="43.18838" lon="6.64275">
        <ele>18.6</ele>
        <time>2021-07-28T09:46:43Z</time>
      </trkpt>
      <trkpt lat="43.18837" lon="6.64275">
        <ele>19</ele>
        <time>2021-07-28T09:46:54Z</time>
      </trkpt>
      <trkpt lat="43.18836" lon="6.64278">
        <ele>19.2</ele>
        <time>2021-07-28T09:47:00Z</time>
      </trkpt>
    </trkseg>
  </trk>
</gpx>